Darstellungsparameter: Aktuell verwendete Einstellungen:
Skalierung der Graphiken ... ?
xyx+y,   Skalierungsfaktor:      Skalierung: Modus: x, Faktor: 1
Darstellungszeitraum ... ?
Vom - - bis: - -   Zeitraum: 08.12.2019 - 05.01.2020
Min/Max/Avg-Anzeige ... ?
Zeige MMA aktuell
Zeige MMA Monat
Zeige MMA alles
Zeige --A aktuell
Zeige --A Monat
Zeige --A alles
Keine MMA-Anzeige
MMA:
Average (ber die Originaldaten)
MMA-Basis: 23.02.2003 - 06.01.2020
Quicknavigation für Darstellung... ?
Tage:      1T, 2T, 3T, 5T -1T -2T -3T -5T +1T +2T +3T +5T
Wochen: 1W, 2W, 3W -1W -2W -3W +1W +2W +3W
Monate: 1M, 3M, 6M -1M -3M -6M +1M +3M +6M
Jahre:    1J, 3J, 5J, 10J -1J -3J -5J -10J +1J +3J +5J +10J
Nutze für die Darstellung ... ?
Originaldaten oder Mittelwerte auf ...
Stundenbasis Tagesbasis Wochenbasis
Monatsbasis Jahresbasis      Datenbasis: Original-Daten
Darstellen als:
Statistik (Auto) Statistik J:M      Darstellung:
Zur Graphik,    zurück zur Übersicht aller Sensoren.
 
Tabellarische Datenbersicht: ?
 
Sensor: Nr:Datum:Temp:Feuchte:
Aussen-T/F 1 08-12-2019 00:01:17 8.1 C 27 %
2 08-12-2019 00:11:17 8.9 C 23 %
3 08-12-2019 00:21:17 8.9 C 21 %
4 08-12-2019 00:31:18 9 C 21 %
5 08-12-2019 00:41:18 8.9 C 23 %
6 08-12-2019 00:51:17 8.5 C 25 %
7 08-12-2019 01:01:18 8.3 C 25 %
8 08-12-2019 01:11:18 8.5 C 25 %
9 08-12-2019 01:21:17 8.4 C 26 %
10 08-12-2019 01:31:17 8.9 C 25 %
11 08-12-2019 01:41:17 8.8 C 25 %
12 08-12-2019 01:51:18 9.2 C 20 %
13 08-12-2019 02:01:17 9.2 C 20 %
14 08-12-2019 02:11:17 8.9 C 20 %
15 08-12-2019 02:21:17 9 C 20 %
16 08-12-2019 02:31:17 9.1 C 20 %
17 08-12-2019 02:41:18 9 C 20 %
18 08-12-2019 02:51:17 9.1 C 20 %
19 08-12-2019 03:01:17 9 C 20 %
20 08-12-2019 03:11:17 9.1 C 20 %
21 08-12-2019 03:21:17 9.1 C 20 %
22 08-12-2019 03:31:17 9.3 C 20 %
23 08-12-2019 03:41:17 9.3 C 20 %
24 08-12-2019 03:51:17 9.4 C 20 %
25 08-12-2019 04:01:17 9.7 C 20 %
Sensor: Nr:Datum:Temp:Feuchte:
Aussen-T/F 26 08-12-2019 04:11:18 9.6 C 20 %
27 08-12-2019 04:21:17 9.5 C 20 %
28 08-12-2019 04:31:17 9.6 C 20 %
29 08-12-2019 04:41:17 9.6 C 20 %
30 08-12-2019 04:51:17 9.5 C 20 %
31 08-12-2019 05:01:17 9.6 C 20 %
32 08-12-2019 05:11:17 9.5 C 21 %
33 08-12-2019 05:21:17 9.5 C 21 %
34 08-12-2019 05:31:17 9.4 C 23 %
35 08-12-2019 05:41:17 9.5 C 23 %
36 08-12-2019 05:51:17 9.2 C 25 %
37 08-12-2019 06:01:17 9.3 C 25 %
38 08-12-2019 06:11:18 9.5 C 25 %
39 08-12-2019 06:21:17 9.9 C 21 %
40 08-12-2019 06:31:17 9.8 C 23 %
41 08-12-2019 06:41:17 9.7 C 25 %
42 08-12-2019 06:51:17 9.9 C 23 %
43 08-12-2019 07:01:18 10 C 21 %
44 08-12-2019 07:11:18 10.1 C 20 %
45 08-12-2019 07:21:17 9.9 C 21 %
46 08-12-2019 07:31:17 10 C 21 %
47 08-12-2019 07:41:17 10.1 C 20 %
48 08-12-2019 07:51:17 10 C 20 %
49 08-12-2019 08:01:17 10 C 20 %
50 08-12-2019 08:11:17 10.2 C 20 %
Sensor: Nr:Datum:Temp:Feuchte:
Aussen-T/F 51 08-12-2019 08:21:17 10.1 C 20 %
52 08-12-2019 08:31:17 10.3 C 21 %
53 08-12-2019 08:41:17 10.1 C 21 %
54 08-12-2019 08:51:17 10.3 C 21 %
55 08-12-2019 09:01:17 10.3 C 21 %
56 08-12-2019 09:11:17 10.1 C 21 %
57 08-12-2019 09:21:17 10.2 C 21 %
58 08-12-2019 09:31:17 10.3 C 21 %
59 08-12-2019 09:41:17 10.4 C 21 %
60 08-12-2019 09:51:17 10.4 C 21 %
61 08-12-2019 10:01:17 10.4 C 21 %
62 08-12-2019 10:11:17 10.5 C 21 %
63 08-12-2019 10:21:17 10.5 C 22 %
64 08-12-2019 10:31:17 10.5 C 22 %
65 08-12-2019 10:41:17 10.1 C 25 %
66 08-12-2019 10:51:17 10.2 C 25 %
67 08-12-2019 11:01:17 10.5 C 25 %
68 08-12-2019 11:11:17 10.6 C 23 %
69 08-12-2019 11:21:17 10.8 C 23 %
70 08-12-2019 11:31:17 10.8 C 23 %
71 08-12-2019 11:41:17 10.8 C 22 %
72 08-12-2019 11:51:17 11 C 22 %
73 08-12-2019 12:01:18 11.1 C 22 %
74 08-12-2019 12:11:18 11.3 C 22 %
75 08-12-2019 12:21:17 11.4 C 22 %
Sensor: Nr:Datum:Temp:Feuchte:
Aussen-T/F 76 08-12-2019 12:31:17 11.4 C 22 %
77 08-12-2019 12:41:17 11.4 C 23 %
78 08-12-2019 12:51:17 11.3 C 24 %
79 08-12-2019 13:01:18 11.5 C 24 %
80 08-12-2019 13:11:18 11.5 C 22 %
81 08-12-2019 13:21:17 11.3 C 25 %
82 08-12-2019 13:31:17 11.1 C 25 %
83 08-12-2019 13:41:17 11.4 C 25 %
84 08-12-2019 13:51:17 11.4 C 25 %
85 08-12-2019 14:01:17 11.5 C 25 %
86 08-12-2019 14:11:17 11.5 C 25 %
87 08-12-2019 14:21:17 11.5 C 25 %
88 08-12-2019 14:31:18 11.7 C 25 %
89 08-12-2019 14:41:18 11.7 C 25 %
90 08-12-2019 14:51:17 11.7 C 25 %
91 08-12-2019 15:01:18 11.8 C 25 %
92 08-12-2019 15:11:18 11.8 C 25 %
93 08-12-2019 15:21:18 11.7 C 25 %
94 08-12-2019 15:31:18 11.7 C 25 %
95 08-12-2019 15:41:18 11.8 C 25 %
96 08-12-2019 15:51:17 11.8 C 25 %
97 08-12-2019 16:01:17 11.7 C 25 %
98 08-12-2019 16:11:17 11.8 C 25 %
99 08-12-2019 16:21:18 11.7 C 25 %
100 08-12-2019 16:31:18 11.6 C 26 %
Sensor: Nr:Datum:Temp:Feuchte:
Aussen-T/F 101 08-12-2019 16:41:18 11.4 C 27 %
102 08-12-2019 16:51:17 9.4 C 31 %
103 08-12-2019 17:01:17 8.9 C 33 %
104 08-12-2019 17:11:17 8.8 C 33 %
105 08-12-2019 17:21:17 8.7 C 34 %
106 08-12-2019 17:31:17 9.2 C 27 %
107 08-12-2019 17:41:17 8.5 C 33 %
108 08-12-2019 17:51:17 8.5 C 33 %
109 08-12-2019 18:01:17 8.5 C 32 %
110 08-12-2019 18:11:17 8.6 C 31 %
111 08-12-2019 18:21:17 8.2 C 33 %
112 08-12-2019 18:31:18 8.5 C 29 %
113 08-12-2019 18:41:18 8.5 C 29 %
114 08-12-2019 18:51:17 8.6 C 28 %
115 08-12-2019 19:01:17 8.9 C 27 %
116 08-12-2019 19:11:17 8.5 C 28 %
117 08-12-2019 19:21:17 8.5 C 28 %
118 08-12-2019 19:31:17 8.6 C 27 %
119 08-12-2019 19:41:17 8 C 31 %
120 08-12-2019 19:51:18 7.8 C 33 %
121 08-12-2019 20:01:17 7.5 C 36 %
122 08-12-2019 20:11:17 8.1 C 33 %
123 08-12-2019 20:21:17 8.2 C 30 %
124 08-12-2019 20:31:17 8.3 C 29 %
125 08-12-2019 20:41:17 8.5 C 28 %
Sensor: Nr:Datum:Temp:Feuchte:
Aussen-T/F 126 08-12-2019 20:51:17 8.6 C 26 %
127 08-12-2019 21:01:18 8.8 C 26 %
128 08-12-2019 21:11:18 8.9 C 25 %
129 08-12-2019 21:21:17 8.4 C 26 %
130 08-12-2019 21:31:17 8.7 C 26 %
131 08-12-2019 21:41:17 8.4 C 26 %
132 08-12-2019 21:51:18 8.4 C 26 %
133 08-12-2019 22:01:17 8.5 C 26 %
134 08-12-2019 22:11:17 7.9 C 27 %
135 08-12-2019 22:21:17 8.1 C 26 %
136 08-12-2019 22:31:17 8.6 C 26 %
137 08-12-2019 22:41:17 8.8 C 26 %
138 08-12-2019 22:51:17 8.7 C 25 %
139 08-12-2019 23:01:17 8.8 C 25 %
140 08-12-2019 23:11:17 8.7 C 26 %
141 08-12-2019 23:21:17 8.8 C 25 %
142 08-12-2019 23:31:18 8.7 C 25 %
143 08-12-2019 23:41:18 8.5 C 25 %
144 08-12-2019 23:51:17 8.4 C 21 %
145 09-12-2019 00:01:18 8.7 C 20 %
146 09-12-2019 00:11:18 8.1 C 21 %
147 09-12-2019 00:21:17 8.4 C 21 %
148 09-12-2019 00:31:17 8.4 C 21 %
149 09-12-2019 00:41:17 8.5 C 20 %
150 09-12-2019 00:51:17 8.4 C 20 %
Sensor: Nr:Datum:Temp:Feuchte:
Aussen-T/F 151 09-12-2019 01:01:17 8.4 C 20 %
152 09-12-2019 01:11:17 8.5 C 20 %
153 09-12-2019 01:21:18 8.1 C 20 %
154 09-12-2019 01:31:17 8 C 20 %
155 09-12-2019 01:41:17 8.3 C 20 %
156 09-12-2019 01:51:17 8.2 C 20 %
157 09-12-2019 02:01:17 7.8 C 20 %
158 09-12-2019 02:11:17 7.6 C 20 %
159 09-12-2019 02:21:17 7.4 C 21 %
160 09-12-2019 02:31:18 7.4 C 21 %
161 09-12-2019 02:41:18 7.1 C 23 %
162 09-12-2019 02:51:18 7.5 C 20 %
163 09-12-2019 03:01:17 7.5 C 20 %
164 09-12-2019 03:11:17 7.5 C 20 %
165 09-12-2019 03:21:17 7.5 C 20 %
166 09-12-2019 03:31:17 7.3 C 20 %
167 09-12-2019 03:41:17 6.8 C 23 %
168 09-12-2019 03:51:17 7.3 C 21 %
169 09-12-2019 04:01:17 7.3 C 20 %
170 09-12-2019 04:11:17 7.9 C 20 %
171 09-12-2019 04:21:18 8 C 20 %
172 09-12-2019 04:31:18 7.6 C 20 %
173 09-12-2019 04:41:18 7.4 C 21 %
174 09-12-2019 04:51:17 6.9 C 25 %
175 09-12-2019 05:01:17 6.9 C 25 %
Sensor: Nr:Datum:Temp:Feuchte:
Aussen-T/F 176 09-12-2019 05:11:17 7.4 C 20 %
177 09-12-2019 05:21:17 7.5 C 20 %
178 09-12-2019 05:31:17 7.4 C 20 %
179 09-12-2019 05:41:18 7.1 C 20 %
180 09-12-2019 05:51:17 7.2 C 20 %
181 09-12-2019 06:01:17 7.4 C 20 %
182 09-12-2019 06:11:17 7.4 C 20 %
183 09-12-2019 06:21:17 7.4 C 20 %
184 09-12-2019 06:31:17 7.6 C 20 %
185 09-12-2019 06:41:17 7.8 C 20 %
186 09-12-2019 06:51:18 7.7 C 20 %
187 09-12-2019 07:01:17 7.6 C 20 %
188 09-12-2019 07:11:18 7.5 C 20 %
189 09-12-2019 07:21:17 7.2 C 20 %
190 09-12-2019 07:31:17 7.2 C 20 %
191 09-12-2019 07:41:17 7.6 C 20 %
192 09-12-2019 07:51:18 7.5 C 20 %
193 09-12-2019 08:01:17 7.9 C 20 %
194 09-12-2019 08:11:17 7.8 C 20 %
195 09-12-2019 08:21:17 7.9 C 20 %
196 09-12-2019 08:31:17 8 C 20 %
197 09-12-2019 08:41:17 7.9 C 20 %
198 09-12-2019 08:51:17 7.9 C 20 %
199 09-12-2019 09:01:17 7.8 C 20 %
200 09-12-2019 09:11:17 7.9 C 20 %
Sensor: Nr:Datum:Temp:Feuchte:
Aussen-T/F 201 09-12-2019 09:21:17 7.5 C 20 %
202 09-12-2019 09:31:17 7.4 C 23 %
203 09-12-2019 09:41:17 7.5 C 21 %
204 09-12-2019 09:51:17 7.7 C 21 %
205 09-12-2019 10:01:17 7.9 C 21 %
206 09-12-2019 10:11:17 7.9 C 21 %
207 09-12-2019 10:21:17 7.9 C 20 %
208 09-12-2019 10:31:18 7.9 C 21 %
209 09-12-2019 10:41:18 7.9 C 21 %
210 09-12-2019 10:51:17 8.1 C 20 %
211 09-12-2019 11:01:17 8 C 20 %
212 09-12-2019 11:11:17 8.2 C 20 %
213 09-12-2019 11:21:17 8.4 C 20 %
214 09-12-2019 11:31:18 8.4 C 20 %
215 09-12-2019 11:41:18 8.3 C 20 %
216 09-12-2019 11:51:17 8.1 C 20 %
217 09-12-2019 12:01:17 8.2 C 20 %
218 09-12-2019 12:11:17 8 C 20 %
219 09-12-2019 12:21:18 8.1 C 20 %
220 09-12-2019 12:31:17 8.3 C 20 %
221 09-12-2019 12:41:17 8.2 C 20 %
222 09-12-2019 12:51:17 8.3 C 20 %
223 09-12-2019 13:01:18 8.3 C 20 %
224 09-12-2019 13:11:18 8.3 C 20 %
225 09-12-2019 13:21:17 8.2 C 20 %
Sensor: Nr:Datum:Temp:Feuchte:
Aussen-T/F 226 09-12-2019 13:31:17 8.1 C 20 %
227 09-12-2019 13:41:17 8.5 C 20 %
228 09-12-2019 13:51:17 8.8 C 20 %
229 09-12-2019 14:01:17 8.6 C 20 %
230 09-12-2019 14:11:17 8.5 C 20 %
231 09-12-2019 14:21:17 8.6 C 20 %
232 09-12-2019 14:31:17 8.4 C 20 %
233 09-12-2019 14:41:17 7.9 C 20 %
234 09-12-2019 14:51:18 8.4 C 20 %
235 09-12-2019 15:01:17 7.9 C 20 %
236 09-12-2019 15:11:17 7.3 C 25 %
237 09-12-2019 15:21:17 7 C 27 %
238 09-12-2019 15:31:18 7.1 C 26 %
239 09-12-2019 15:41:18 7.1 C 25 %
240 09-12-2019 15:51:17 7.4 C 23 %
241 09-12-2019 16:01:18 7.5 C 20 %
242 09-12-2019 16:11:18 7.5 C 20 %
243 09-12-2019 16:21:17 7.6 C 20 %
244 09-12-2019 16:31:18 7.3 C 20 %
245 09-12-2019 16:41:18 7.4 C 20 %
246 09-12-2019 16:51:17 7.3 C 20 %
247 09-12-2019 17:01:18 7.1 C 20 %
248 09-12-2019 17:11:18 7.2 C 20 %
249 09-12-2019 17:21:17 6.7 C 25 %
250 09-12-2019 17:31:17 6.1 C 32 %
Sensor: Nr:Datum:Temp:Feuchte:
Aussen-T/F 251 09-12-2019 17:41:17 5.9 C 36 %
252 09-12-2019 17:51:17 6 C 34 %
253 09-12-2019 18:01:18 6 C 30 %
254 09-12-2019 18:11:18 6.1 C 31 %
255 09-12-2019 18:21:17 6 C 33 %
256 09-12-2019 18:31:17 5.8 C 35 %
257 09-12-2019 18:41:17 5.7 C 37 %
258 09-12-2019 18:51:18 5.7 C 38 %
259 09-12-2019 19:01:17 5.6 C 35 %
260 09-12-2019 19:11:17 5.5 C 38 %
261 09-12-2019 19:21:17 5.6 C 39 %
262 09-12-2019 19:31:17 5.6 C 38 %
263 09-12-2019 19:41:17 5.6 C 38 %
264 09-12-2019 19:51:17 5.6 C 37 %
265 09-12-2019 20:01:17 5.6 C 35 %
266 09-12-2019 20:11:17 5.6 C 34 %
267 09-12-2019 20:21:17 5.6 C 35 %
268 09-12-2019 20:31:17 5.6 C 32 %
269 09-12-2019 20:41:17 5.4 C 33 %
270 09-12-2019 20:51:17 5.3 C 34 %
271 09-12-2019 21:01:17 5.2 C 33 %
272 09-12-2019 21:11:18 5.1 C 34 %
273 09-12-2019 21:21:17 5.2 C 35 %
274 09-12-2019 21:31:17 5.3 C 32 %
275 09-12-2019 21:41:17 5.1 C 31 %
Sensor: Nr:Datum:Temp:Feuchte:
Aussen-T/F 276 09-12-2019 21:51:17 5 C 31 %
277 09-12-2019 22:01:17 4.8 C 32 %
278 09-12-2019 22:11:17 4.7 C 31 %
279 09-12-2019 22:21:17 4.9 C 30 %
280 09-12-2019 22:31:17 4.9 C 30 %
281 09-12-2019 22:41:17 4.9 C 30 %
282 09-12-2019 22:51:18 4.7 C 30 %
283 09-12-2019 23:01:17 4.6 C 29 %
284 09-12-2019 23:11:17 4.5 C 29 %
285 09-12-2019 23:21:17 4.1 C 30 %
286 09-12-2019 23:31:18 4 C 30 %
287 09-12-2019 23:41:18 4.1 C 29 %
288 09-12-2019 23:51:17 4.1 C 29 %
289 10-12-2019 00:01:17 3.7 C 30 %
290 10-12-2019 00:11:17 4.1 C 28 %
291 10-12-2019 00:21:17 3.4 C 30 %
292 10-12-2019 00:31:17 3.6 C 30 %
293 10-12-2019 00:41:17 3.1 C 31 %
294 10-12-2019 00:51:17 3 C 31 %
295 10-12-2019 01:01:17 2.4 C 33 %
296 10-12-2019 01:11:17 2.4 C 36 %
297 10-12-2019 01:21:17 2.5 C 36 %
298 10-12-2019 01:31:18 2.8 C 34 %
299 10-12-2019 01:41:18 2.4 C 34 %
300 10-12-2019 01:51:17 2.4 C 33 %
Sensor: Nr:Datum:Temp:Feuchte:
Aussen-T/F 301 10-12-2019 02:01:18 2.7 C 33 %
302 10-12-2019 02:11:18 2.9 C 32 %
303 10-12-2019 02:21:17 2.3 C 33 %
304 10-12-2019 02:31:17 2.1 C 35 %
305 10-12-2019 02:41:17 1.7 C 37 %
306 10-12-2019 02:51:17 1.6 C 39 %
307 10-12-2019 03:01:17 1.8 C 40 %
308 10-12-2019 03:11:17 1.8 C 40 %
309 10-12-2019 03:21:17 1.8 C 40 %
310 10-12-2019 03:31:17 2 C 40 %
311 10-12-2019 03:41:17 1.4 C 41 %
312 10-12-2019 03:51:17 1.4 C 43 %
313 10-12-2019 04:01:17 1.1 C 43 %
314 10-12-2019 04:11:17 1.3 C 41 %
315 10-12-2019 04:21:17 0.6 C 41 %
316 10-12-2019 04:31:18 0.6 C 44 %
317 10-12-2019 04:41:18 0.7 C 45 %
318 10-12-2019 04:51:17 0.9 C 46 %
319 10-12-2019 05:01:17 1.1 C 44 %
320 10-12-2019 05:11:17 1.8 C 41 %
321 10-12-2019 05:21:18 2.2 C 35 %
322 10-12-2019 05:31:18 2 C 35 %
323 10-12-2019 05:41:18 2 C 35 %
324 10-12-2019 05:51:17 1.8 C 36 %
325 10-12-2019 06:01:17 1.5 C 36 %
Sensor: Nr:Datum:Temp:Feuchte:
Aussen-T/F 326 10-12-2019 06:11:17 1.6 C 37 %
327 10-12-2019 06:21:18 1.4 C 36 %
328 10-12-2019 06:31:17 1.1 C 38 %
329 10-12-2019 06:41:17 0.9 C 42 %
330 10-12-2019 06:51:17 1.2 C 42 %
331 10-12-2019 07:01:18 1.3 C 40 %
332 10-12-2019 07:11:18 1.5 C 40 %
333 10-12-2019 07:21:17 1.7 C 36 %
334 10-12-2019 07:31:17 1.2 C 37 %
335 10-12-2019 07:41:17 0.8 C 41 %
336 10-12-2019 07:51:17 0.8 C 41 %
337 10-12-2019 08:01:17 0.7 C 41 %
338 10-12-2019 08:11:17 0.8 C 41 %
339 10-12-2019 08:21:17 0.4 C 42 %
340 10-12-2019 08:31:18 0.6 C 42 %
341 10-12-2019 08:41:18 0.4 C 42 %
342 10-12-2019 08:51:17 0.4 C 43 %
343 10-12-2019 09:01:17 0.1 C 42 %
344 10-12-2019 09:11:17 0.5 C 44 %
345 10-12-2019 09:21:17 0.8 C 44 %
346 10-12-2019 09:31:17 1.4 C 42 %
347 10-12-2019 09:41:17 1.7 C 39 %
348 10-12-2019 09:51:17 1.8 C 39 %
349 10-12-2019 10:01:17 2.2 C 36 %
350 10-12-2019 10:11:17 2.5 C 35 %
Sensor: Nr:Datum:Temp:Feuchte:
Aussen-T/F 351 10-12-2019 10:21:17 2.7 C 33 %
352 10-12-2019 10:31:17 2.7 C 33 %
353 10-12-2019 10:41:17 2.5 C 33 %
354 10-12-2019 10:51:17 2.4 C 35 %
355 10-12-2019 11:01:17 2.4 C 34 %
356 10-12-2019 11:11:17 2.5 C 34 %
357 10-12-2019 11:21:17 2.3 C 35 %
358 10-12-2019 11:31:18 2.2 C 36 %
359 10-12-2019 11:41:18 2.9 C 34 %
360 10-12-2019 11:51:17 3.5 C 30 %
361 10-12-2019 12:01:17 3.7 C 30 %
362 10-12-2019 12:11:17 3.8 C 30 %
363 10-12-2019 12:21:17 3.9 C 30 %
364 10-12-2019 12:31:17 3.9 C 30 %
365 10-12-2019 12:41:17 4.3 C 27 %
366 10-12-2019 12:51:17 4.5 C 27 %
367 10-12-2019 13:01:17 4.6 C 27 %
368 10-12-2019 13:11:17 4.7 C 27 %
369 10-12-2019 13:21:17 4.7 C 27 %
370 10-12-2019 13:31:17 4.9 C 27 %
371 10-12-2019 13:41:17 5.1 C 25 %
372 10-12-2019 13:51:17 5 C 25 %
373 10-12-2019 14:01:17 4.6 C 27 %
374 10-12-2019 14:11:17 4.2 C 28 %
375 10-12-2019 14:21:17 3.8 C 30 %
Sensor: Nr:Datum:Temp:Feuchte:
Aussen-T/F 376 10-12-2019 14:31:18 3.9 C 30 %
377 10-12-2019 14:41:18 3.8 C 30 %
378 10-12-2019 14:51:17 3.5 C 30 %
379 10-12-2019 15:01:17 3.5 C 30 %
380 10-12-2019 15:11:17 3.3 C 31 %
381 10-12-2019 15:21:17 3.2 C 31 %
382 10-12-2019 15:31:17 3.1 C 31 %
383 10-12-2019 15:41:18 3.2 C 31 %
384 10-12-2019 15:51:17 2.9 C 31 %
385 10-12-2019 16:01:17 2.4 C 32 %
386 10-12-2019 16:11:17 3.1 C 31 %
387 10-12-2019 16:21:17 3.4 C 30 %
388 10-12-2019 16:31:17 3.5 C 28 %
389 10-12-2019 16:41:17 3.3 C 28 %
390 10-12-2019 16:51:17 3.3 C 26 %
391 10-12-2019 17:01:17 2.8 C 27 %
392 10-12-2019 17:11:17 2.7 C 27 %
393 10-12-2019 17:21:18 2.7 C 27 %
394 10-12-2019 17:31:17 2.7 C 27 %
395 10-12-2019 17:41:17 2.6 C 27 %
396 10-12-2019 17:51:17 2.4 C 28 %
397 10-12-2019 18:01:17 2.3 C 27 %
398 10-12-2019 18:11:17 1.7 C 31 %
399 10-12-2019 18:21:17 1.9 C 32 %
400 10-12-2019 18:31:17 1.8 C 33 %
Sensor: Nr:Datum:Temp:Feuchte:
Aussen-T/F 401 10-12-2019 18:41:17 1.7 C 34 %
402 10-12-2019 18:51:17 1.6 C 35 %
403 10-12-2019 19:01:17 1.5 C 36 %
404 10-12-2019 19:11:17 1.5 C 36 %
405 10-12-2019 19:21:17 1.6 C 36 %
406 10-12-2019 19:31:17 1.5 C 36 %
407 10-12-2019 19:41:18 1.7 C 36 %
408 10-12-2019 19:51:17 1.7 C 35 %
409 10-12-2019 20:01:17 2.2 C 32 %
410 10-12-2019 20:11:17 2.1 C 32 %
411 10-12-2019 20:21:17 2.7 C 29 %
412 10-12-2019 20:31:18 2.9 C 28 %
413 10-12-2019 20:41:18 2.6 C 30 %
414 10-12-2019 20:51:17 2.3 C 30 %
415 10-12-2019 21:01:17 2.5 C 31 %
416 10-12-2019 21:11:17 2.3 C 31 %
417 10-12-2019 21:21:17 2.1 C 32 %
418 10-12-2019 21:31:17 2 C 33 %
419 10-12-2019 21:41:18 1.8 C 35 %
420 10-12-2019 21:51:17 1.8 C 36 %
421 10-12-2019 22:01:17 1.8 C 36 %
422 10-12-2019 22:11:17 2.1 C 35 %
423 10-12-2019 22:21:17 2.2 C 34 %
424 10-12-2019 22:31:17 2.4 C 32 %
425 10-12-2019 22:41:17 2.5 C 33 %
Sensor: Nr:Datum:Temp:Feuchte:
Aussen-T/F 426 10-12-2019 22:51:18 2.8 C 31 %
427 10-12-2019 23:01:17 2.9 C 30 %
428 10-12-2019 23:11:17 3 C 30 %
429 10-12-2019 23:21:17 3 C 30 %
430 10-12-2019 23:31:17 2.9 C 31 %
431 10-12-2019 23:41:17 3.3 C 28 %
432 10-12-2019 23:51:17 3.3 C 30 %
433 11-12-2019 00:01:18 3.2 C 30 %
434 11-12-2019 00:11:18 3.3 C 29 %
435 11-12-2019 00:21:17 3.4 C 28 %
436 11-12-2019 00:31:17 3.4 C 29 %
437 11-12-2019 00:41:17 3.5 C 27 %
438 11-12-2019 00:51:17 3.4 C 27 %
439 11-12-2019 01:01:17 3.5 C 25 %
440 11-12-2019 01:11:17 3.4 C 27 %
441 11-12-2019 01:21:18 3.4 C 28 %
442 11-12-2019 01:31:17 3.4 C 29 %
443 11-12-2019 01:41:17 3.2 C 30 %
444 11-12-2019 01:51:17 3.1 C 32 %
445 11-12-2019 02:01:17 3 C 33 %
446 11-12-2019 02:11:17 2.9 C 33 %
447 11-12-2019 02:21:17 2.9 C 32 %
448 11-12-2019 02:31:18 2.8 C 34 %
449 11-12-2019 02:41:18 2.9 C 31 %
450 11-12-2019 02:51:17 3 C 30 %
Sensor: Nr:Datum:Temp:Feuchte:
Aussen-T/F 451 11-12-2019 03:01:18 3.1 C 30 %
452 11-12-2019 03:11:18 3 C 32 %
453 11-12-2019 03:21:17 2.9 C 30 %
454 11-12-2019 03:31:17 3 C 30 %
455 11-12-2019 03:41:17 3 C 35 %
456 11-12-2019 03:51:17 2.8 C 36 %
457 11-12-2019 04:01:17 2.7 C 35 %
458 11-12-2019 04:11:17 2.8 C 35 %
459 11-12-2019 04:21:17 2.8 C 35 %
460 11-12-2019 04:31:18 2.8 C 38 %
461 11-12-2019 04:41:18 2.7 C 38 %
462 11-12-2019 04:51:17 2.7 C 39 %
463 11-12-2019 05:01:17 2.7 C 39 %
464 11-12-2019 05:11:17 2.7 C 39 %
465 11-12-2019 05:21:18 2.7 C 40 %
466 11-12-2019 05:31:17 2.6 C 42 %
467 11-12-2019 05:41:17 2.6 C 43 %
468 11-12-2019 05:51:17 2.5 C 44 %
469 11-12-2019 06:01:18 2.5 C 44 %
470 11-12-2019 06:11:18 2.5 C 44 %
471 11-12-2019 06:21:17 2.5 C 44 %
472 11-12-2019 06:31:17 2.5 C 44 %
473 11-12-2019 06:41:17 2.5 C 44 %
474 11-12-2019 06:51:17 2.5 C 44 %
475 11-12-2019 07:01:17 2.4 C 44 %
Sensor: Nr:Datum:Temp:Feuchte:
Aussen-T/F 476 11-12-2019 07:11:17 2.5 C 44 %
477 11-12-2019 07:21:17 2.4 C 44 %
478 11-12-2019 07:31:17 2.4 C 44 %
479 11-12-2019 07:41:18 2.4 C 43 %
480 11-12-2019 07:51:17 2.4 C 43 %
481 11-12-2019 08:01:17 2.4 C 43 %
482 11-12-2019 08:11:17 2.4 C 43 %
483 11-12-2019 08:21:17 2.4 C 43 %
484 11-12-2019 08:31:18 2.3 C 43 %
485 11-12-2019 08:41:18 2.3 C 43 %
486 11-12-2019 08:51:17 2.3 C 43 %
487 11-12-2019 09:01:18 2.3 C 43 %
488 11-12-2019 09:11:18 2.4 C 43 %
489 11-12-2019 09:21:17 2.5 C 43 %
490 11-12-2019 09:31:17 2.5 C 43 %
491 11-12-2019 09:41:17 2.5 C 43 %
492 11-12-2019 09:51:17 2.5 C 43 %
493 11-12-2019 10:01:17 2.6 C 43 %
494 11-12-2019 10:11:17 2.7 C 43 %
495 11-12-2019 10:21:17 2.7 C 42 %
496 11-12-2019 10:31:17 2.7 C 42 %
497 11-12-2019 10:41:17 2.8 C 41 %
498 11-12-2019 10:51:17 3.1 C 40 %
499 11-12-2019 11:01:17 3 C 39 %
500 11-12-2019 11:11:17 3.1 C 39 %
Sensor: Nr:Datum:Temp:Feuchte:
Aussen-T/F 501 11-12-2019 11:21:17 3.2 C 39 %
502 11-12-2019 11:31:17 3.1 C 38 %
503 11-12-2019 11:41:17 3.1 C 38 %
504 11-12-2019 11:51:17 3.2 C 39 %
505 11-12-2019 12:01:18 3.2 C 39 %
506 11-12-2019 12:11:18 3.1 C 39 %
507 11-12-2019 12:21:17 3.1 C 39 %
508 11-12-2019 12:31:17 3.1 C 40 %
509 11-12-2019 12:41:17 3.1 C 40 %
510 11-12-2019 12:51:17 3.1 C 40 %
511 11-12-2019 13:01:18 3.2 C 40 %
512 11-12-2019 13:11:18 3.2 C 40 %
513 11-12-2019 13:21:17 3.2 C 40 %
514 11-12-2019 13:31:17 3.2 C 40 %
515 11-12-2019 13:41:17 3.2 C 40 %
516 11-12-2019 13:51:17 3.2 C 40 %
517 11-12-2019 14:01:17 3.2 C 41 %
518 11-12-2019 14:11:18 3.2 C 41 %
519 11-12-2019 14:21:17 3.2 C 41 %
520 11-12-2019 14:31:17 3.3 C 41 %
521 11-12-2019 14:41:17 3.3 C 42 %
522 11-12-2019 14:51:17 3.3 C 42 %
523 11-12-2019 15:01:17 3.3 C 42 %
524 11-12-2019 15:11:17 3.4 C 42 %
525 11-12-2019 15:21:17 3.3 C 42 %
Sensor: Nr:Datum:Temp:Feuchte:
Aussen-T/F 526 11-12-2019 15:31:18 3.3 C 42 %
527 11-12-2019 15:41:18 3.3 C 42 %
528 11-12-2019 15:51:17 3.3 C 42 %
529 11-12-2019 16:01:17 3.2 C 42 %
530 11-12-2019 16:11:17 3.2 C 42 %
531 11-12-2019 16:21:17 3.2 C 42 %
532 11-12-2019 16:31:17 3.2 C 42 %
533 11-12-2019 16:41:17 3.1 C 42 %
534 11-12-2019 16:51:17 3.1 C 42 %
535 11-12-2019 17:01:17 3.1 C 43 %
536 11-12-2019 17:11:17 3.1 C 42 %
537 11-12-2019 17:21:17 3.1 C 42 %
538 11-12-2019 17:31:17 3.1 C 42 %
539 11-12-2019 17:41:17 3.1 C 42 %
540 11-12-2019 17:51:18 3.2 C 43 %
541 11-12-2019 18:01:17 3.2 C 43 %
542 11-12-2019 18:11:17 3.3 C 43 %
543 11-12-2019 18:21:17 3.3 C 43 %
544 11-12-2019 18:31:18 3.4 C 43 %
545 11-12-2019 18:41:18 3.4 C 43 %
546 11-12-2019 18:51:17 3.5 C 43 %
547 11-12-2019 19:01:17 3.5 C 42 %
548 11-12-2019 19:11:17 3.5 C 42 %
549 11-12-2019 19:21:18 3.5 C 42 %
550 11-12-2019 19:31:17 3.5 C 42 %
Sensor: Nr:Datum:Temp:Feuchte:
Aussen-T/F 551 11-12-2019 19:41:17 3.6 C 42 %
552 11-12-2019 19:51:18 3.6 C 42 %
553 11-12-2019 20:01:17 3.6 C 42 %
554 11-12-2019 20:11:17 3.7 C 42 %
555 11-12-2019 20:21:17 3.8 C 42 %
556 11-12-2019 20:31:18 3.8 C 42 %
557 11-12-2019 20:41:18 3.9 C 42 %
558 11-12-2019 20:51:17 4.1 C 41 %
559 11-12-2019 21:01:17 4.1 C 40 %
560 11-12-2019 21:11:17 4.3 C 39 %
561 11-12-2019 21:21:17 4.4 C 37 %
562 11-12-2019 21:31:17 4.1 C 37 %
563 11-12-2019 21:41:17 4.3 C 37 %
564 11-12-2019 21:51:17 4.3 C 36 %
565 11-12-2019 22:01:17 4.5 C 35 %
566 11-12-2019 22:11:17 4.1 C 35 %
567 11-12-2019 22:21:17 3.9 C 37 %
568 11-12-2019 22:31:17 3.6 C 39 %
569 11-12-2019 22:41:17 3.8 C 39 %
570 11-12-2019 22:51:18 3.5 C 40 %
571 11-12-2019 23:01:17 3.8 C 40 %
572 11-12-2019 23:11:17 3.8 C 40 %
573 11-12-2019 23:21:17 3.4 C 40 %
574 11-12-2019 23:31:17 3 C 41 %
575 11-12-2019 23:41:17 3.4 C 43 %
Sensor: Nr:Datum:Temp:Feuchte:
Aussen-T/F 576 11-12-2019 23:51:18 3.2 C 42 %
577 12-12-2019 00:01:17 3 C 42 %
578 12-12-2019 00:11:17 2.9 C 43 %
579 12-12-2019 00:21:17 2.8 C 43 %
580 12-12-2019 00:31:17 2.5 C 43 %
581 12-12-2019 00:41:17 2.4 C 43 %
582 12-12-2019 00:51:17 2.3 C 43 %
583 12-12-2019 01:01:17 2.7 C 44 %
584 12-12-2019 01:11:17 2.8 C 44 %
585 12-12-2019 01:21:18 2.6 C 43 %
586 12-12-2019 01:31:17 2.2 C 43 %
587 12-12-2019 01:41:17 2.5 C 43 %
588 12-12-2019 01:51:18 2.1 C 43 %
589 12-12-2019 02:01:17 1.8 C 44 %
590 12-12-2019 02:11:17 1.6 C 44 %
591 12-12-2019 02:21:17 1.7 C 44 %
592 12-12-2019 02:31:18 1.6 C 44 %
593 12-12-2019 02:41:18 2 C 43 %
594 12-12-2019 02:51:17 2 C 43 %
595 12-12-2019 03:01:17 2.3 C 43 %
596 12-12-2019 03:11:17 2.4 C 43 %
597 12-12-2019 03:21:17 2.5 C 43 %
598 12-12-2019 03:31:17 2.4 C 43 %
599 12-12-2019 03:41:17 2.5 C 43 %
600 12-12-2019 03:51:17 2.7 C 43 %
Sensor: Nr:Datum:Temp:Feuchte:
Aussen-T/F 601 12-12-2019 04:01:17 2.6 C 43 %
602 12-12-2019 04:11:17 2.7 C 43 %
603 12-12-2019 04:21:17 2.8 C 43 %
604 12-12-2019 04:31:17 2.8 C 43 %
605 12-12-2019 04:41:17 2.9 C 43 %
606 12-12-2019 04:51:17 2.4 C 42 %
607 12-12-2019 05:01:17 2 C 42 %
608 12-12-2019 05:11:17 2.1 C 42 %
609 12-12-2019 05:21:17 2.2 C 42 %
610 12-12-2019 05:31:18 2.1 C 42 %
611 12-12-2019 05:41:18 2.1 C 42 %
612 12-12-2019 05:51:17 2.1 C 42 %
613 12-12-2019 06:01:17 1.9 C 43 %
614 12-12-2019 06:11:17 2 C 42 %
615 12-12-2019 06:21:17 2.1 C 42 %
616 12-12-2019 06:31:17 2.1 C 42 %
617 12-12-2019 06:41:17 2.3 C 42 %
618 12-12-2019 06:51:17 2.7 C 43 %
619 12-12-2019 07:01:17 3 C 42 %
620 12-12-2019 07:11:17 3 C 42 %
621 12-12-2019 07:21:17 3 C 42 %
622 12-12-2019 07:31:17 3 C 42 %
623 12-12-2019 07:41:17 2.8 C 42 %
624 12-12-2019 07:51:17 2.9 C 42 %
625 12-12-2019 08:01:17 2.9 C 42 %
Sensor: Nr:Datum:Temp:Feuchte:
Aussen-T/F 626 12-12-2019 08:11:17 3.1 C 42 %
627 12-12-2019 08:21:17 3.2 C 42 %
628 12-12-2019 08:31:18 3.3 C 42 %
629 12-12-2019 08:41:18 3.5 C 42 %
630 12-12-2019 08:51:17 3.5 C 42 %
631 12-12-2019 09:01:18 3.5 C 42 %
632 12-12-2019 09:11:18 3.6 C 42 %
633 12-12-2019 09:21:17 3.9 C 42 %
634 12-12-2019 09:31:17 3.9 C 42 %
635 12-12-2019 09:41:17 3.7 C 41 %
636 12-12-2019 09:51:17 3.5 C 41 %
637 12-12-2019 10:01:17 3.9 C 41 %
638 12-12-2019 10:11:17 4 C 40 %
639 12-12-2019 10:21:18 4.4 C 37 %
640 12-12-2019 10:31:17 4.6 C 35 %
641 12-12-2019 10:41:17 4.7 C 32 %
642 12-12-2019 10:51:17 4.8 C 31 %
643 12-12-2019 11:01:18 4.7 C 32 %
644 12-12-2019 11:11:18 4.6 C 31 %
645 12-12-2019 11:21:17 4.4 C 31 %
646 12-12-2019 11:31:17 4.4 C 32 %
647 12-12-2019 11:41:17 4.7 C 31 %
648 12-12-2019 11:51:18 4.9 C 29 %
649 12-12-2019 12:01:17 5.1 C 29 %
650 12-12-2019 12:11:17 5.1 C 27 %
Sensor: Nr:Datum:Temp:Feuchte:
Aussen-T/F 651 12-12-2019 12:21:17 5 C 26 %
652 12-12-2019 12:31:18 4.7 C 27 %
653 12-12-2019 12:41:18 4.7 C 28 %
654 12-12-2019 12:51:17 4.7 C 27 %
655 12-12-2019 13:01:17 4.6 C 28 %
656 12-12-2019 13:11:18 5 C 26 %
657 12-12-2019 13:21:17 4.8 C 27 %
658 12-12-2019 13:31:17 4.6 C 26 %
659 12-12-2019 13:41:17 4.2 C 26 %
660 12-12-2019 13:51:17 4.6 C 25 %
661 12-12-2019 14:01:17 4.6 C 25 %
662 12-12-2019 14:11:17 4.3 C 25 %
663 12-12-2019 14:21:17 4 C 27 %
664 12-12-2019 14:31:18 4.5 C 25 %
665 12-12-2019 14:41:18 4.8 C 25 %
666 12-12-2019 14:51:17 4.7 C 25 %
667 12-12-2019 15:01:18 4 C 26 %
668 12-12-2019 15:11:18 4.2 C 26 %
669 12-12-2019 15:21:17 3.6 C 29 %
670 12-12-2019 15:31:17 3.5 C 29 %
671 12-12-2019 15:41:17 3.8 C 28 %
672 12-12-2019 15:51:17 3.7 C 28 %
673 12-12-2019 16:01:17 3.6 C 28 %
674 12-12-2019 16:11:17 3.7 C 26 %
675 12-12-2019 16:21:18 3.5 C 27 %
Sensor: Nr:Datum:Temp:Feuchte:
Aussen-T/F 676 12-12-2019 16:31:17 3.4 C 26 %
677 12-12-2019 16:41:17 3.3 C 28 %
678 12-12-2019 16:51:17 3.1 C 30 %
679 12-12-2019 17:01:17 2.6 C 30 %
680 12-12-2019 17:11:17 1.7 C 35 %
681 12-12-2019 17:21:17 1.2 C 36 %
682 12-12-2019 17:31:17 1.1 C 38 %
683 12-12-2019 17:41:17 0.9 C 41 %
684 12-12-2019 17:51:17 1 C 40 %
685 12-12-2019 18:01:17 1.1 C 40 %
686 12-12-2019 18:11:17 1.1 C 40 %
687 12-12-2019 18:21:17 1.1 C 40 %
688 12-12-2019 18:31:17 1 C 40 %
689 12-12-2019 18:41:17 0.9 C 41 %
690 12-12-2019 18:51:17 0.7 C 41 %
691 12-12-2019 19:01:17 0.7 C 41 %
692 12-12-2019 19:11:17 0.6 C 41 %
693 12-12-2019 19:21:17 0.6 C 42 %
694 12-12-2019 19:31:17 0.6 C 42 %
695 12-12-2019 19:41:17 0.7 C 42 %
696 12-12-2019 19:51:17 0.7 C 41 %
697 12-12-2019 20:01:17 0.6 C 41 %
698 12-12-2019 20:11:17 0.6 C 41 %
699 12-12-2019 20:21:17 0.6 C 41 %
700 12-12-2019 20:31:17 0.6 C 41 %
Sensor: Nr:Datum:Temp:Feuchte:
Aussen-T/F 701 12-12-2019 20:41:17 0.6 C 41 %
702 12-12-2019 20:51:17 1.3 C 42 %
703 12-12-2019 21:01:17 1.6 C 38 %
704 12-12-2019 21:11:17 1.6 C 36 %
705 12-12-2019 21:21:17 1.3 C 36 %
706 12-12-2019 21:31:17 1.3 C 35 %
707 12-12-2019 21:41:17 1 C 35 %
708 12-12-2019 21:51:17 0.7 C 37 %
709 12-12-2019 22:01:17 1.2 C 37 %
710 12-12-2019 22:11:17 0.9 C 37 %
711 12-12-2019 22:21:18 0.4 C 38 %
712 12-12-2019 22:31:17 0.3 C 39 %
713 12-12-2019 22:41:17 0.2 C 40 %
714 12-12-2019 22:51:17 0.4 C 39 %
715 12-12-2019 23:01:18 1.1 C 37 %
716 12-12-2019 23:11:18 1.5 C 35 %
717 12-12-2019 23:21:17 1.9 C 32 %
718 12-12-2019 23:31:17 1.6 C 31 %
719 12-12-2019 23:41:17 1.4 C 32 %
720 12-12-2019 23:51:17 1.5 C 31 %
721 13-12-2019 00:01:17 0.9 C 33 %
722 13-12-2019 00:11:17 0.6 C 35 %
723 13-12-2019 00:21:17 1 C 33 %
724 13-12-2019 00:31:18 0.7 C 34 %
725 13-12-2019 00:41:18 0.9 C 35 %
Sensor: Nr:Datum:Temp:Feuchte:
Aussen-T/F 726 13-12-2019 00:51:17 1.3 C 32 %
727 13-12-2019 01:01:18 1.7 C 30 %
728 13-12-2019 01:11:18 1.8 C 29 %
729 13-12-2019 01:21:17 2 C 27 %
730 13-12-2019 01:31:17 1.9 C 28 %
731 13-12-2019 01:41:17 2 C 27 %
732 13-12-2019 01:51:17 2 C 27 %
733 13-12-2019 02:01:18 1.9 C 29 %
734 13-12-2019 02:11:18 2 C 27 %
735 13-12-2019 02:21:17 2 C 27 %
736 13-12-2019 02:31:17 2 C 27 %
737 13-12-2019 02:41:17 2 C 27 %
738 13-12-2019 02:51:17 2 C 27 %
739 13-12-2019 03:01:17 1.8 C 29 %
740 13-12-2019 03:11:17 1.8 C 30 %
741 13-12-2019 03:21:17 1.7 C 30 %
742 13-12-2019 03:31:17 1.6 C 30 %
743 13-12-2019 03:41:17 1.7 C 30 %
744 13-12-2019 03:51:17 1.6 C 31 %
745 13-12-2019 04:01:17 1.4 C 32 %
746 13-12-2019 04:11:17 1.5 C 32 %
747 13-12-2019 04:21:17 1.6 C 32 %
748 13-12-2019 04:31:17 1.6 C 32 %
749 13-12-2019 04:41:17 1.6 C 32 %
750 13-12-2019 04:51:17 1.4 C 34 %
Sensor: Nr:Datum:Temp:Feuchte:
Aussen-T/F 751 13-12-2019 05:01:17 1.4 C 35 %
752 13-12-2019 05:11:17 1.5 C 34 %
753 13-12-2019 05:21:17 1.5 C 34 %
754 13-12-2019 05:31:18 1.7 C 33 %
755 13-12-2019 05:41:18 1.7 C 32 %
756 13-12-2019 05:51:17 1.8 C 33 %
757 13-12-2019 06:01:17 1.9 C 32 %
758 13-12-2019 06:11:17 2 C 31 %
759 13-12-2019 06:21:17 2 C 31 %
760 13-12-2019 06:31:17 2 C 32 %
761 13-12-2019 06:41:17 1.7 C 35 %
762 13-12-2019 06:51:17 1.8 C 37 %
763 13-12-2019 07:01:17 1.8 C 37 %
764 13-12-2019 07:11:18 1.7 C 39 %
765 13-12-2019 07:21:17 1.8 C 38 %
766 13-12-2019 07:31:17 1.8 C 40 %
767 13-12-2019 07:41:17 1.8 C 39 %
768 13-12-2019 07:51:17 1.9 C 38 %
769 13-12-2019 08:01:17 1.8 C 38 %
770 13-12-2019 08:11:17 1.8 C 39 %
771 13-12-2019 08:21:17 1.7 C 40 %
772 13-12-2019 08:31:17 1.7 C 41 %
773 13-12-2019 08:41:17 1.6 C 41 %
774 13-12-2019 08:51:17 1.7 C 41 %
775 13-12-2019 09:01:17 1.9 C 40 %
Sensor: Nr:Datum:Temp:Feuchte:
Aussen-T/F 776 13-12-2019 09:11:17 1.9 C 40 %
777 13-12-2019 09:21:17 1.9 C 40 %
778 13-12-2019 09:31:17 1.7 C 42 %
779 13-12-2019 09:41:17 1.7 C 42 %
780 13-12-2019 09:51:18 1.9 C 43 %
781 13-12-2019 10:01:17 1.8 C 43 %
782 13-12-2019 10:11:17 1.9 C 43 %
783 13-12-2019 10:21:18 2 C 41 %
784 13-12-2019 10:31:17 2.2 C 41 %
785 13-12-2019 10:41:17 2.3 C 41 %
786 13-12-2019 10:51:18 2.3 C 41 %
787 13-12-2019 11:01:17 2.4 C 41 %
788 13-12-2019 11:11:17 2.3 C 40 %
789 13-12-2019 11:21:17 2.3 C 40 %
790 13-12-2019 11:31:17 2.4 C 41 %
791 13-12-2019 11:41:17 2.5 C 41 %
792 13-12-2019 11:51:18 2.8 C 42 %
793 13-12-2019 12:01:17 3 C 41 %
794 13-12-2019 12:11:17 3.1 C 39 %
795 13-12-2019 12:21:17 3.2 C 38 %
796 13-12-2019 12:31:17 3.5 C 38 %
797 13-12-2019 12:41:17 3.5 C 38 %
798 13-12-2019 12:51:18 3.6 C 38 %
799 13-12-2019 13:01:18 3.8 C 39 %
800 13-12-2019 13:11:18 4.1 C 37 %
Sensor: Nr:Datum:Temp:Feuchte:
Aussen-T/F 801 13-12-2019 13:21:17 4.6 C 38 %
802 13-12-2019 13:31:17 5.2 C 35 %
803 13-12-2019 13:41:17 5.7 C 35 %
804 13-12-2019 13:51:17 6.4 C 31 %
805 13-12-2019 14:01:17 6.7 C 30 %
806 13-12-2019 14:11:17 7 C 28 %
807 13-12-2019 14:21:17 6.8 C 29 %
808 13-12-2019 14:31:17 6.8 C 28 %
809 13-12-2019 14:41:17 6.7 C 28 %
810 13-12-2019 14:51:18 6.4 C 29 %
811 13-12-2019 15:01:18 6.3 C 29 %
812 13-12-2019 15:11:18 6.3 C 29 %
813 13-12-2019 15:21:17 6.2 C 30 %
814 13-12-2019 15:31:17 5.9 C 30 %
815 13-12-2019 15:41:17 5.8 C 31 %
816 13-12-2019 15:51:17 5.5 C 31 %
817 13-12-2019 16:01:18 5.3 C 30 %
818 13-12-2019 16:11:18 5.4 C 30 %
819 13-12-2019 16:21:17 5.3 C 30 %
820 13-12-2019 16:31:17 5.1 C 30 %
821 13-12-2019 16:41:17 4.8 C 31 %
822 13-12-2019 16:51:17 4.5 C 31 %
823 13-12-2019 17:01:17 4.6 C 31 %
824 13-12-2019 17:11:17 4.5 C 31 %
825 13-12-2019 17:21:17 4.3 C 34 %
Sensor: Nr:Datum:Temp:Feuchte:
Aussen-T/F 826 13-12-2019 17:31:18 4.3 C 34 %
827 13-12-2019 17:41:18 4.2 C 33 %
828 13-12-2019 17:51:17 4 C 33 %
829 13-12-2019 18:01:17 3.8 C 36 %
830 13-12-2019 18:11:17 3.7 C 40 %
831 13-12-2019 18:21:17 3.8 C 39 %
832 13-12-2019 18:31:17 3.8 C 40 %
833 13-12-2019 18:41:18 3.8 C 39 %
834 13-12-2019 18:51:17 3.9 C 36 %
835 13-12-2019 19:01:17 3.9 C 36 %
836 13-12-2019 19:11:17 3.9 C 35 %
837 13-12-2019 19:21:17 4 C 34 %
838 13-12-2019 19:31:17 4.1 C 35 %
839 13-12-2019 19:41:17 4 C 36 %
840 13-12-2019 19:51:17 4.6 C 32 %
841 13-12-2019 20:01:17 4.6 C 32 %
842 13-12-2019 20:11:17 4.8 C 31 %
843 13-12-2019 20:21:17 4.7 C 31 %
844 13-12-2019 20:31:17 4.7 C 31 %
845 13-12-2019 20:41:17 4.7 C 32 %
846 13-12-2019 20:51:17 4.5 C 32 %
847 13-12-2019 21:01:17 4.3 C 34 %
848 13-12-2019 21:11:17 4 C 36 %
849 13-12-2019 21:21:17 4.5 C 35 %
850 13-12-2019 21:31:18 4.4 C 33 %
Sensor: Nr:Datum:Temp:Feuchte:
Aussen-T/F 851 13-12-2019 21:41:18 4.4 C 35 %
852 13-12-2019 21:51:17 4.6 C 32 %
853 13-12-2019 22:01:17 4.6 C 31 %
854 13-12-2019 22:11:17 4.6 C 30 %
855 13-12-2019 22:21:17 4.7 C 30 %
856 13-12-2019 22:31:18 4.7 C 30 %
857 13-12-2019 22:41:18 3.8 C 34 %
858 13-12-2019 22:51:17 3.8 C 36 %
859 13-12-2019 23:01:17 4.5 C 32 %
860 13-12-2019 23:11:17 5.1 C 29 %
861 13-12-2019 23:21:17 5.2 C 28 %
862 13-12-2019 23:31:17 5.2 C 28 %
863 13-12-2019 23:41:17 5 C 30 %
864 13-12-2019 23:51:17 5 C 30 %
865 14-12-2019 00:01:17 4.4 C 32 %
866 14-12-2019 00:11:17 4.5 C 30 %
867 14-12-2019 00:21:17 4.6 C 30 %
868 14-12-2019 00:31:18 4.3 C 33 %
869 14-12-2019 00:41:18 4.7 C 32 %
870 14-12-2019 00:51:17 5.1 C 28 %
871 14-12-2019 01:01:17 5.4 C 27 %
872 14-12-2019 01:11:17 5.3 C 27 %
873 14-12-2019 01:21:17 5.2 C 26 %
874 14-12-2019 01:31:17 5.1 C 26 %
875 14-12-2019 01:41:17 5.3 C 25 %
Sensor: Nr:Datum:Temp:Feuchte:
Aussen-T/F 876 14-12-2019 01:51:17 5.2 C 25 %
877 14-12-2019 02:01:17 5 C 26 %
878 14-12-2019 02:11:17 4.5 C 30 %
879 14-12-2019 02:21:17 4.6 C 29 %
880 14-12-2019 02:31:18 4.7 C 29 %
881 14-12-2019 02:41:18 4.8 C 28 %
882 14-12-2019 02:51:17 4.5 C 30 %
883 14-12-2019 03:01:18 4.2 C 33 %
884 14-12-2019 03:11:18 4.1 C 36 %
885 14-12-2019 03:21:17 3.9 C 38 %
886 14-12-2019 03:31:17 3.9 C 39 %
887 14-12-2019 03:41:17 3.9 C 36 %
888 14-12-2019 03:51:18 3.8 C 36 %
889 14-12-2019 04:01:17 3.8 C 40 %
890 14-12-2019 04:11:17 3.8 C 41 %
891 14-12-2019 04:21:17 3.7 C 42 %
892 14-12-2019 04:31:18 3.5 C 42 %
893 14-12-2019 04:41:18 3.5 C 42 %
894 14-12-2019 04:51:17 3.4 C 42 %
895 14-12-2019 05:01:17 3.4 C 41 %
896 14-12-2019 05:11:17 3.4 C 41 %
897 14-12-2019 05:21:17 3.4 C 42 %
898 14-12-2019 05:31:18 3.4 C 42 %
899 14-12-2019 05:41:18 3.4 C 43 %
900 14-12-2019 05:51:17 3.4 C 43 %
Sensor: Nr:Datum:Temp:Feuchte:
Aussen-T/F 901 14-12-2019 06:01:18 3.4 C 42 %
902 14-12-2019 06:11:18 3.7 C 43 %
903 14-12-2019 06:21:17 4 C 42 %
904 14-12-2019 06:31:17 5 C 40 %
905 14-12-2019 06:41:17 5.2 C 39 %
906 14-12-2019 06:51:18 5.6 C 36 %
907 14-12-2019 07:01:17 5.6 C 36 %
908 14-12-2019 07:11:18 5.7 C 36 %
909 14-12-2019 07:21:17 5.8 C 36 %
910 14-12-2019 07:31:17 5.8 C 36 %
911 14-12-2019 07:41:17 6.3 C 37 %
912 14-12-2019 07:51:17 6.5 C 36 %
913 14-12-2019 08:01:17 6.8 C 35 %
914 14-12-2019 08:11:17 7 C 28 %
915 14-12-2019 08:21:17 7.2 C 26 %
916 14-12-2019 08:31:18 7.1 C 25 %
917 14-12-2019 08:41:18 6.9 C 25 %
918 14-12-2019 08:51:17 6.7 C 25 %
919 14-12-2019 09:01:17 6.9 C 23 %
920 14-12-2019 09:11:17 6.7 C 23 %
921 14-12-2019 09:21:18 6.5 C 23 %
922 14-12-2019 09:31:18 6.7 C 20 %
923 14-12-2019 09:41:18 6.5 C 21 %
924 14-12-2019 09:51:17 6.7 C 21 %
925 14-12-2019 10:01:17 6.7 C 21 %
Sensor: Nr:Datum:Temp:Feuchte:
Aussen-T/F 926 14-12-2019 10:11:17 6.6 C 23 %
927 14-12-2019 10:21:17 6.6 C 25 %
928 14-12-2019 10:31:17 6.7 C 25 %
929 14-12-2019 10:41:17 6.4 C 26 %
930 14-12-2019 10:51:17 5.9 C 29 %
931 14-12-2019 11:01:18 5.9 C 29 %
932 14-12-2019 11:11:18 6.4 C 27 %
933 14-12-2019 11:21:17 6.7 C 26 %
934 14-12-2019 11:31:17 6.3 C 26 %
935 14-12-2019 11:41:17 6.4 C 25 %
936 14-12-2019 11:51:17 6.9 C 20 %
937 14-12-2019 12:01:17 7 C 20 %
938 14-12-2019 12:11:17 7.2 C 20 %
939 14-12-2019 12:21:18 7 C 20 %
940 14-12-2019 12:31:17 7.3 C 20 %
941 14-12-2019 12:41:17 7.6 C 20 %
942 14-12-2019 12:51:17 7.8 C 20 %
943 14-12-2019 13:01:17 7.9 C 20 %
944 14-12-2019 13:11:17 8 C 20 %
945 14-12-2019 13:21:17 8.4 C 20 %
946 14-12-2019 13:31:17 8.4 C 20 %
947 14-12-2019 13:41:17 8.3 C 20 %
948 14-12-2019 13:51:17 8.4 C 20 %
949 14-12-2019 14:01:18 8.5 C 20 %
950 14-12-2019 14:11:18 8.4 C 20 %
Sensor: Nr:Datum:Temp:Feuchte:
Aussen-T/F 951 14-12-2019 14:21:17 8.4 C 20 %
952 14-12-2019 14:31:18 8.7 C 20 %
953 14-12-2019 14:41:18 8.8 C 20 %
954 14-12-2019 14:51:18 8.6 C 20 %
955 14-12-2019 15:01:17 7.3 C 23 %
956 14-12-2019 15:11:17 6.8 C 28 %
957 14-12-2019 15:21:17 6.6 C 30 %
958 14-12-2019 15:31:17 6.7 C 28 %
959 14-12-2019 15:41:18 6.8 C 28 %
960 14-12-2019 15:51:17 7.1 C 26 %
961 14-12-2019 16:01:17 7 C 26 %
962 14-12-2019 16:11:17 6.9 C 26 %
963 14-12-2019 16:21:17 6.9 C 27 %
964 14-12-2019 16:31:18 7.2 C 25 %
965 14-12-2019 16:41:18 7.6 C 25 %
966 14-12-2019 16:51:17 7.5 C 25 %
967 14-12-2019 17:01:17 7.6 C 25 %
968 14-12-2019 17:11:17 7.6 C 25 %
969 14-12-2019 17:21:17 7.4 C 25 %
970 14-12-2019 17:31:18 7.2 C 26 %
971 14-12-2019 17:41:18 6.9 C 27 %
972 14-12-2019 17:51:17 7.1 C 26 %
973 14-12-2019 18:01:17 7.1 C 26 %
974 14-12-2019 18:11:17 7.3 C 26 %
975 14-12-2019 18:22:17 7.6 C 25 %
Sensor: Nr:Datum:Temp:Feuchte:
Aussen-T/F 976 14-12-2019 18:31:17 7.8 C 25 %
977 14-12-2019 18:41:17 7.4 C 25 %
978 14-12-2019 18:52:17 7 C 26 %
979 14-12-2019 19:01:18 6.7 C 27 %
980 14-12-2019 19:11:18 6.2 C 28 %
981 14-12-2019 19:21:17 6.4 C 26 %
982 14-12-2019 19:31:17 6.1 C 26 %
983 14-12-2019 19:41:17 6.4 C 25 %
984 14-12-2019 19:52:17 6.4 C 25 %
985 14-12-2019 20:01:18 6.6 C 25 %
986 14-12-2019 20:11:18 6.7 C 25 %
987 14-12-2019 20:21:17 6.9 C 25 %
988 14-12-2019 20:31:17 5.8 C 27 %
989 14-12-2019 20:41:17 5.9 C 27 %
990 14-12-2019 20:52:17 7 C 25 %
991 14-12-2019 21:01:17 7.2 C 25 %
992 14-12-2019 21:11:17 7 C 25 %
993 14-12-2019 21:22:17 7.1 C 25 %
994 14-12-2019 21:31:18 6.7 C 26 %
995 14-12-2019 21:41:18 6.8 C 26 %
996 14-12-2019 21:52:17 6.9 C 26 %
997 14-12-2019 22:02:17 7.1 C 25 %
998 14-12-2019 22:11:17 6.8 C 26 %
999 14-12-2019 22:22:17 6.9 C 26 %
1000 14-12-2019 22:31:17 7.3 C 25 %
Sensor: Nr:Datum:Temp:Feuchte:
Aussen-T/F 1001 14-12-2019 22:41:17 7 C 26 %
1002 14-12-2019 22:52:17 7.3 C 25 %
1003 14-12-2019 23:02:17 7.1 C 25 %
1004 14-12-2019 23:12:17 7.3 C 25 %
1005 14-12-2019 23:22:17 7 C 26 %
1006 14-12-2019 23:31:18 7 C 26 %
1007 14-12-2019 23:41:18 7.4 C 25 %
1008 14-12-2019 23:51:18 7 C 25 %
1009 15-12-2019 00:02:17 6.4 C 27 %
1010 15-12-2019 00:11:17 6 C 28 %
1011 15-12-2019 00:22:17 5.6 C 30 %
1012 15-12-2019 00:31:18 5.3 C 31 %
1013 15-12-2019 00:41:18 5.1 C 32 %
1014 15-12-2019 00:52:17 5.2 C 32 %
1015 15-12-2019 01:02:17 5.2 C 32 %
1016 15-12-2019 01:12:17 5.3 C 33 %
1017 15-12-2019 01:22:17 5.5 C 33 %
1018 15-12-2019 01:31:18 5.7 C 31 %
1019 15-12-2019 01:41:18 5.6 C 31 %
1020 15-12-2019 01:52:17 5.6 C 31 %
1021 15-12-2019 02:02:17 5.9 C 31 %
1022 15-12-2019 02:12:17 5.8 C 32 %
1023 15-12-2019 02:22:17 5.9 C 32 %
1024 15-12-2019 02:32:18 5.7 C 35 %
1025 15-12-2019 02:42:18 5.8 C 37 %
Sensor: Nr:Datum:Temp:Feuchte:
Aussen-T/F 1026 15-12-2019 02:52:17 5.9 C 39 %
1027 15-12-2019 03:02:18 5.9 C 40 %
1028 15-12-2019 03:12:18 5.9 C 41 %
1029 15-12-2019 03:22:17 6 C 41 %
1030 15-12-2019 03:32:17 6 C 42 %
1031 15-12-2019 03:42:17 6.3 C 42 %
1032 15-12-2019 03:52:17 6.4 C 42 %
1033 15-12-2019 04:02:17 6.8 C 42 %
1034 15-12-2019 04:12:17 7.3 C 41 %
1035 15-12-2019 04:22:17 7.3 C 41 %
1036 15-12-2019 04:32:17 7.5 C 41 %
1037 15-12-2019 04:42:17 7.9 C 40 %
1038 15-12-2019 04:52:17 8 C 39 %
1039 15-12-2019 05:02:17 8.2 C 38 %
1040 15-12-2019 05:12:17 8.2 C 37 %
1041 15-12-2019 05:22:17 8.4 C 37 %
1042 15-12-2019 05:32:18 9 C 34 %
1043 15-12-2019 05:42:18 10 C 30 %
1044 15-12-2019 05:52:17 10.2 C 30 %
1045 15-12-2019 06:02:17 10.3 C 29 %
1046 15-12-2019 06:12:17 10.3 C 29 %
1047 15-12-2019 06:22:17 10.1 C 29 %
1048 15-12-2019 06:32:17 10.5 C 28 %
1049 15-12-2019 06:42:17 10.8 C 27 %
1050 15-12-2019 06:52:17 10.7 C 27 %
Sensor: Nr:Datum:Temp:Feuchte:
Aussen-T/F 1051 15-12-2019 07:02:17 10.5 C 27 %
1052 15-12-2019 07:12:17 10.9 C 27 %
1053 15-12-2019 07:22:17 10.3 C 27 %
1054 15-12-2019 07:32:17 10.6 C 27 %
1055 15-12-2019 07:42:17 10.5 C 27 %
1056 15-12-2019 07:52:17 10.7 C 27 %
1057 15-12-2019 08:02:17 10.7 C 27 %
1058 15-12-2019 08:12:17 11 C 26 %
1059 15-12-2019 08:22:17 10.9 C 27 %
1060 15-12-2019 08:32:18 10.6 C 27 %
1061 15-12-2019 08:42:18 10.2 C 28 %
1062 15-12-2019 08:52:17 9.5 C 34 %
1063 15-12-2019 09:02:17 9.2 C 34 %
1064 15-12-2019 09:12:17 8.9 C 35 %
1065 15-12-2019 09:22:17 8.7 C 33 %
1066 15-12-2019 09:32:17 8.5 C 34 %
1067 15-12-2019 09:42:17 8.2 C 35 %
1068 15-12-2019 09:52:18 8 C 36 %
1069 15-12-2019 10:02:18 8.1 C 34 %
1070 15-12-2019 10:12:18 8.2 C 32 %
1071 15-12-2019 10:22:18 8.2 C 34 %
1072 15-12-2019 10:32:17 8.1 C 33 %
1073 15-12-2019 10:42:17 8.5 C 31 %
1074 15-12-2019 10:52:17 8.7 C 30 %
1075 15-12-2019 11:02:17 8.4 C 30 %
Sensor: Nr:Datum:Temp:Feuchte:
Aussen-T/F 1076 15-12-2019 11:12:17 8.5 C 30 %
1077 15-12-2019 11:22:17 8.5 C 28 %
1078 15-12-2019 11:32:17 8.6 C 28 %
1079 15-12-2019 11:42:17 8.6 C 28 %
1080 15-12-2019 11:52:17 8.3 C 27 %
1081 15-12-2019 12:02:17 8.3 C 27 %
1082 15-12-2019 12:12:17 8.1 C 27 %
1083 15-12-2019 12:22:17 8.1 C 28 %
1084 15-12-2019 12:32:17 7.9 C 29 %
1085 15-12-2019 12:42:17 8.2 C 28 %
1086 15-12-2019 12:52:18 8.4 C 28 %
1087 15-12-2019 13:02:18 8.7 C 27 %
1088 15-12-2019 13:12:18 9.1 C 25 %
1089 15-12-2019 13:22:17 9.3 C 23 %
1090 15-12-2019 13:32:17 9.2 C 21 %
1091 15-12-2019 13:42:17 9.2 C 20 %
1092 15-12-2019 13:52:18 9.2 C 20 %
1093 15-12-2019 14:02:17 9.2 C 20 %
1094 15-12-2019 14:12:17 9.3 C 20 %
1095 15-12-2019 14:22:17 9.3 C 20 %
1096 15-12-2019 14:32:17 9.1 C 20 %
1097 15-12-2019 14:42:17 9.1 C 20 %
1098 15-12-2019 14:52:17 9 C 20 %
1099 15-12-2019 15:02:17 9 C 20 %
1100 15-12-2019 15:12:17 8.9 C 20 %
Sensor: Nr:Datum:Temp:Feuchte:
Aussen-T/F 1101 15-12-2019 15:22:17 8.9 C 20 %
1102 15-12-2019 15:32:17 8.8 C 20 %
1103 15-12-2019 15:42:17 8.7 C 20 %
1104 15-12-2019 15:52:17 8.7 C 20 %
1105 15-12-2019 16:02:17 8.4 C 20 %
1106 15-12-2019 16:12:17 8.2 C 20 %
1107 15-12-2019 16:22:18 8.4 C 20 %
1108 15-12-2019 16:32:17 7.9 C 20 %
1109 15-12-2019 16:42:17 7.6 C 20 %
1110 15-12-2019 16:52:17 8 C 20 %
1111 15-12-2019 17:02:17 7.4 C 20 %
1112 15-12-2019 17:12:17 7.4 C 20 %
1113 15-12-2019 17:22:17 7.8 C 20 %
1114 15-12-2019 17:32:17 7.2 C 21 %
1115 15-12-2019 17:42:17 7.6 C 20 %
1116 15-12-2019 17:52:17 7.7 C 20 %
1117 15-12-2019 18:02:17 7.5 C 20 %
1118 15-12-2019 18:12:17 8.2 C 20 %
1119 15-12-2019 18:22:17 7.5 C 20 %
1120 15-12-2019 18:32:17 6.9 C 25 %
1121 15-12-2019 18:42:17 6.2 C 27 %
1122 15-12-2019 18:52:18 5.9 C 29 %
1123 15-12-2019 19:02:17 5.4 C 30 %
1124 15-12-2019 19:12:17 5.3 C 31 %
1125 15-12-2019 19:22:17 4.9 C 32 %
Sensor: Nr:Datum:Temp:Feuchte:
Aussen-T/F 1126 15-12-2019 19:32:18 5.3 C 32 %
1127 15-12-2019 19:42:18 5 C 33 %
1128 15-12-2019 19:52:17 5.4 C 33 %
1129 15-12-2019 20:02:17 5.2 C 33 %
1130 15-12-2019 20:12:17 4.7 C 35 %
1131 15-12-2019 20:22:17 4.4 C 36 %
1132 15-12-2019 20:32:17 4.3 C 37 %
1133 15-12-2019 20:42:17 3.9 C 39 %
1134 15-12-2019 20:52:17 3.7 C 40 %
1135 15-12-2019 21:02:17 3.5 C 41 %
1136 15-12-2019 21:12:17 3.3 C 41 %
1137 15-12-2019 21:22:17 3.1 C 41 %
1138 15-12-2019 21:32:18 2.8 C 42 %
1139 15-12-2019 21:42:18 2.9 C 43 %
1140 15-12-2019 21:52:17 3.3 C 43 %
1141 15-12-2019 22:02:17 3.3 C 44 %
1142 15-12-2019 22:12:17 3.3 C 43 %
1143 15-12-2019 22:22:17 3.5 C 43 %
1144 15-12-2019 22:32:17 3.5 C 43 %
1145 15-12-2019 22:42:17 3.4 C 43 %
1146 15-12-2019 22:52:18 3.3 C 43 %
1147 15-12-2019 23:02:17 3.5 C 43 %
1148 15-12-2019 23:12:18 3.6 C 43 %
1149 15-12-2019 23:22:17 3.7 C 43 %
1150 15-12-2019 23:32:18 3.5 C 42 %
Sensor: Nr:Datum:Temp:Feuchte:
Aussen-T/F 1151 15-12-2019 23:42:18 3.3 C 42 %
1152 15-12-2019 23:52:17 3.8 C 43 %
1153 16-12-2019 00:02:17 4 C 42 %
1154 16-12-2019 00:12:17 4.4 C 42 %
1155 16-12-2019 00:22:17 4.4 C 42 %
1156 16-12-2019 00:32:17 4.5 C 42 %
1157 16-12-2019 00:42:17 4.5 C 42 %
1158 16-12-2019 00:52:18 4.7 C 42 %
1159 16-12-2019 01:02:17 5.1 C 41 %
1160 16-12-2019 01:12:17 5 C 41 %
1161 16-12-2019 01:22:17 5.2 C 42 %
1162 16-12-2019 01:32:17 5.2 C 41 %
1163 16-12-2019 01:42:18 5.3 C 42 %
1164 16-12-2019 01:52:17 5.5 C 42 %
1165 16-12-2019 02:02:18 5.4 C 42 %
1166 16-12-2019 02:12:18 5.5 C 42 %
1167 16-12-2019 02:22:17 5.7 C 42 %
1168 16-12-2019 02:32:17 5.7 C 42 %
1169 16-12-2019 02:42:17 5.9 C 42 %
1170 16-12-2019 02:52:18 5.8 C 41 %
1171 16-12-2019 03:02:17 5.8 C 41 %
1172 16-12-2019 03:12:17 5.9 C 41 %
1173 16-12-2019 03:22:17 5.9 C 41 %
1174 16-12-2019 03:32:18 5.9 C 41 %
1175 16-12-2019 03:42:18 5.8 C 41 %
Sensor: Nr:Datum:Temp:Feuchte:
Aussen-T/F 1176 16-12-2019 03:52:17 6 C 41 %
1177 16-12-2019 04:02:17 6 C 41 %
1178 16-12-2019 04:12:17 6 C 41 %
1179 16-12-2019 04:22:17 5.9 C 41 %
1180 16-12-2019 04:32:17 6.1 C 41 %
1181 16-12-2019 04:42:17 6.2 C 41 %
1182 16-12-2019 04:52:17 6.3 C 41 %
1183 16-12-2019 05:02:17 6.4 C 41 %
1184 16-12-2019 05:12:17 6.4 C 41 %
1185 16-12-2019 05:22:17 6.5 C 41 %
1186 16-12-2019 05:32:17 6.6 C 41 %
1187 16-12-2019 05:42:17 6.6 C 41 %
1188 16-12-2019 05:52:17 6.8 C 41 %
1189 16-12-2019 06:02:17 6.9 C 41 %
1190 16-12-2019 06:12:17 6.9 C 41 %
1191 16-12-2019 06:22:17 6.8 C 40 %
1192 16-12-2019 06:32:17 6.7 C 40 %
1193 16-12-2019 06:42:17 6.8 C 40 %
1194 16-12-2019 06:52:17 6.8 C 40 %
1195 16-12-2019 07:02:17 6.8 C 40 %
1196 16-12-2019 07:12:17 6.7 C 40 %
1197 16-12-2019 07:22:17 6.8 C 40 %
1198 16-12-2019 07:32:18 6.9 C 41 %
1199 16-12-2019 07:42:18 6.9 C 41 %
1200 16-12-2019 07:52:17 7 C 40 %
Sensor: Nr:Datum:Temp:Feuchte:
Aussen-T/F 1201 16-12-2019 08:02:17 7.1 C 40 %
1202 16-12-2019 08:12:17 7 C 40 %
1203 16-12-2019 08:22:17 7.1 C 40 %
1204 16-12-2019 08:32:17 7.1 C 40 %
1205 16-12-2019 08:42:17 7.1 C 40 %
1206 16-12-2019 08:52:17 7.2 C 40 %
1207 16-12-2019 09:02:17 7.3 C 40 %
1208 16-12-2019 09:12:17 7.5 C 40 %
1209 16-12-2019 09:22:18 7.4 C 40 %
1210 16-12-2019 09:32:17 7.5 C 40 %
1211 16-12-2019 09:42:17 7.5 C 40 %
1212 16-12-2019 09:52:17 7.6 C 40 %
1213 16-12-2019 10:02:18 7.6 C 40 %
1214 16-12-2019 10:12:18 7.7 C 40 %
1215 16-12-2019 10:22:17 7.8 C 40 %
1216 16-12-2019 10:32:17 7.9 C 40 %
1217 16-12-2019 10:42:17 8.1 C 40 %
1218 16-12-2019 10:52:17 8.2 C 40 %
1219 16-12-2019 11:02:17 8.3 C 40 %
1220 16-12-2019 11:12:17 8.5 C 40 %
1221 16-12-2019 11:22:17 8.9 C 40 %
1222 16-12-2019 11:32:18 8.8 C 39 %
1223 16-12-2019 11:42:18 9.1 C 39 %
1224 16-12-2019 11:52:17 9.4 C 39 %
1225 16-12-2019 12:02:17 9.3 C 38 %
Sensor: Nr:Datum:Temp:Feuchte:
Aussen-T/F 1226 16-12-2019 12:12:17 9.3 C 37 %
1227 16-12-2019 12:22:17 9.3 C 37 %
1228 16-12-2019 12:32:17 9.4 C 37 %
1229 16-12-2019 12:42:17 9.4 C 38 %
1230 16-12-2019 12:52:17 9.8 C 38 %
1231 16-12-2019 13:02:17 9.9 C 36 %
1232 16-12-2019 13:12:17 9.9 C 36 %
1233 16-12-2019 13:22:17 10 C 35 %
1234 16-12-2019 13:32:17 10.2 C 34 %
1235 16-12-2019 13:42:17 10.2 C 35 %
1236 16-12-2019 13:52:18 10.3 C 34 %
1237 16-12-2019 14:02:17 10.1 C 34 %
1238 16-12-2019 14:12:17 10.2 C 34 %
1239 16-12-2019 14:22:17 10.3 C 34 %
1240 16-12-2019 14:32:17 10.2 C 33 %
1241 16-12-2019 14:42:17 10.1 C 34 %
1242 16-12-2019 14:52:18 10.1 C 34 %
1243 16-12-2019 15:02:17 9.9 C 35 %
1244 16-12-2019 15:12:17 9.8 C 35 %
1245 16-12-2019 15:22:17 9.6 C 36 %
1246 16-12-2019 15:32:18 9.3 C 37 %
1247 16-12-2019 15:42:18 9.1 C 39 %
1248 16-12-2019 15:52:17 9 C 40 %
1249 16-12-2019 16:02:17 8.7 C 40 %
1250 16-12-2019 16:12:17 8.5 C 40 %
Sensor: Nr:Datum:Temp:Feuchte:
Aussen-T/F 1251 16-12-2019 16:22:17 8.4 C 40 %
1252 16-12-2019 16:32:18 8.2 C 41 %
1253 16-12-2019 16:42:18 8 C 40 %
1254 16-12-2019 16:52:17 7.7 C 41 %
1255 16-12-2019 17:02:17 7.4 C 41 %
1256 16-12-2019 17:12:17 7.3 C 41 %
1257 16-12-2019 17:22:17 7.5 C 41 %
1258 16-12-2019 17:32:17 7.3 C 41 %
1259 16-12-2019 17:42:17 7.2 C 41 %
1260 16-12-2019 17:52:17 7 C 41 %
1261 16-12-2019 18:02:17 7.1 C 41 %
1262 16-12-2019 18:12:17 7.4 C 41 %
1263 16-12-2019 18:22:17 7.5 C 41 %
1264 16-12-2019 18:32:17 8.2 C 40 %
1265 16-12-2019 18:42:17 8.1 C 38 %
1266 16-12-2019 18:52:17 8.7 C 37 %
1267 16-12-2019 19:02:18 8.5 C 35 %
1268 16-12-2019 19:12:18 7.9 C 36 %
1269 16-12-2019 19:22:17 7.7 C 37 %
1270 16-12-2019 19:32:17 8.5 C 40 %
1271 16-12-2019 19:42:17 7.9 C 37 %
1272 16-12-2019 19:52:18 8 C 37 %
1273 16-12-2019 20:02:17 7.9 C 37 %
1274 16-12-2019 20:12:17 8.1 C 36 %
1275 16-12-2019 20:22:17 7.7 C 37 %
Sensor: Nr:Datum:Temp:Feuchte:
Aussen-T/F 1276 16-12-2019 20:32:17 8 C 39 %
1277 16-12-2019 20:42:17 7.9 C 36 %
1278 16-12-2019 20:52:17 7.8 C 36 %
1279 16-12-2019 21:02:17 7.3 C 37 %
1280 16-12-2019 21:12:17 7.2 C 40 %
1281 16-12-2019 21:22:17 7.5 C 39 %
1282 16-12-2019 21:32:17 7.2 C 38 %
1283 16-12-2019 21:42:17 7 C 40 %
1284 16-12-2019 21:52:17 6.7 C 41 %
1285 16-12-2019 22:02:17 6.9 C 41 %
1286 16-12-2019 22:12:17 7.5 C 40 %
1287 16-12-2019 22:22:17 7.4 C 38 %
1288 16-12-2019 22:32:17 7.9 C 37 %
1289 16-12-2019 22:42:17 7.8 C 36 %
1290 16-12-2019 22:52:18 7.3 C 37 %
1291 16-12-2019 23:02:17 7.3 C 39 %
1292 16-12-2019 23:12:17 7.3 C 39 %
1293 16-12-2019 23:22:17 7.5 C 40 %
1294 16-12-2019 23:32:17 7.6 C 39 %
1295 16-12-2019 23:42:17 7.6 C 39 %
1296 16-12-2019 23:52:18 7.8 C 39 %
1297 17-12-2019 00:02:17 7.6 C 37 %
1298 17-12-2019 00:12:17 7.5 C 38 %
1299 17-12-2019 00:22:17 7.6 C 38 %
1300 17-12-2019 00:32:18 7.3 C 39 %
Sensor: Nr:Datum:Temp:Feuchte:
Aussen-T/F 1301 17-12-2019 00:42:18 7.2 C 40 %
1302 17-12-2019 00:52:17 7.4 C 39 %
1303 17-12-2019 01:02:17 7.2 C 39 %
1304 17-12-2019 01:12:17 7.4 C 40 %
1305 17-12-2019 01:22:17 7.8 C 39 %
1306 17-12-2019 01:32:17 7.3 C 37 %
1307 17-12-2019 01:42:17 7.4 C 38 %
1308 17-12-2019 01:52:17 7.4 C 37 %
1309 17-12-2019 02:02:18 7.4 C 37 %
1310 17-12-2019 02:12:18 7.6 C 37 %
1311 17-12-2019 02:22:17 7.3 C 37 %
1312 17-12-2019 02:32:17 7.1 C 37 %
1313 17-12-2019 02:42:17 7.5 C 36 %
1314 17-12-2019 02:52:18 7.6 C 36 %
1315 17-12-2019 03:02:17 8 C 35 %
1316 17-12-2019 03:12:17 8.1 C 35 %
1317 17-12-2019 03:22:17 8.4 C 35 %
1318 17-12-2019 03:32:17 8.8 C 32 %
1319 17-12-2019 03:42:17 8.9 C 32 %
1320 17-12-2019 03:52:18 8.8 C 32 %
1321 17-12-2019 04:02:17 8.5 C 32 %
1322 17-12-2019 04:12:17 8.5 C 32 %
1323 17-12-2019 04:22:17 8.4 C 32 %
1324 17-12-2019 04:32:17 8.4 C 32 %
1325 17-12-2019 04:42:17 8 C 32 %
Sensor: Nr:Datum:Temp:Feuchte:
Aussen-T/F 1326 17-12-2019 04:52:18 8.3 C 33 %
1327 17-12-2019 05:02:17 8.5 C 33 %
1328 17-12-2019 05:12:17 8.5 C 33 %
1329 17-12-2019 05:22:17 8.2 C 33 %
1330 17-12-2019 05:32:17 8.1 C 34 %
1331 17-12-2019 05:42:17 7.9 C 35 %
1332 17-12-2019 05:52:17 7.9 C 36 %
1333 17-12-2019 06:02:17 7.8 C 36 %
1334 17-12-2019 06:12:17 7.3 C 36 %
1335 17-12-2019 06:22:18 7.3 C 38 %
1336 17-12-2019 06:32:17 7.5 C 38 %
1337 17-12-2019 06:42:17 7.6 C 36 %
1338 17-12-2019 06:52:17 7.6 C 38 %
1339 17-12-2019 07:02:17 7.7 C 36 %
1340 17-12-2019 07:12:17 7.6 C 37 %
1341 17-12-2019 07:22:17 7.5 C 36 %
1342 17-12-2019 07:32:18 7 C 37 %
1343 17-12-2019 07:42:18 7.4 C 38 %
1344 17-12-2019 07:52:17 7.2 C 36 %
1345 17-12-2019 08:02:17 7.2 C 36 %
1346 17-12-2019 08:12:17 6.9 C 37 %
1347 17-12-2019 08:22:17 6.9 C 38 %
1348 17-12-2019 08:32:17 7 C 38 %
1349 17-12-2019 08:42:18 6.9 C 37 %
1350 17-12-2019 08:52:17 6.9 C 37 %
Sensor: Nr:Datum:Temp:Feuchte:
Aussen-T/F 1351 17-12-2019 09:02:17 6.5 C 38 %
1352 17-12-2019 09:12:17 6.4 C 39 %
1353 17-12-2019 09:22:18 6.5 C 40 %
1354 17-12-2019 09:32:17 6.4 C 40 %
1355 17-12-2019 09:42:17 6.6 C 40 %
1356 17-12-2019 09:52:17 6.3 C 39 %
1357 17-12-2019 10:02:18 6.4 C 40 %
1358 17-12-2019 10:12:18 6.4 C 40 %
1359 17-12-2019 10:22:17 6.4 C 39 %
1360 17-12-2019 10:32:17 6.8 C 40 %
1361 17-12-2019 10:42:17 7.2 C 37 %
1362 17-12-2019 10:52:17 8 C 36 %
1363 17-12-2019 11:02:17 8.6 C 34 %
1364 17-12-2019 11:12:17 8.5 C 32 %
1365 17-12-2019 11:22:17 8.7 C 32 %
1366 17-12-2019 11:32:17 9 C 32 %
1367 17-12-2019 11:42:17 9.1 C 32 %
1368 17-12-2019 11:52:17 9 C 32 %
1369 17-12-2019 12:02:17 9 C 34 %
1370 17-12-2019 12:12:17 9.2 C 34 %
1371 17-12-2019 12:22:17 9.5 C 33 %
1372 17-12-2019 12:32:17 9.7 C 32 %
1373 17-12-2019 12:42:17 9.8 C 32 %
1374 17-12-2019 12:52:17 9.6 C 32 %
1375 17-12-2019 13:02:17 10.1 C 31 %
Sensor: Nr:Datum:Temp:Feuchte:
Aussen-T/F 1376 17-12-2019 13:12:17 10.4 C 30 %
1377 17-12-2019 13:22:17 10.6 C 30 %
1378 17-12-2019 13:32:17 11 C 29 %
1379 17-12-2019 13:42:17 11.6 C 28 %
1380 17-12-2019 13:52:18 12.3 C 26 %
1381 17-12-2019 14:02:17 12.5 C 26 %
1382 17-12-2019 14:12:17 12.4 C 26 %
1383 17-12-2019 14:22:17 11.6 C 27 %
1384 17-12-2019 14:32:17 11.4 C 27 %
1385 17-12-2019 14:42:17 11.5 C 27 %
1386 17-12-2019 14:52:17 11.8 C 27 %
1387 17-12-2019 15:02:17 12 C 26 %
1388 17-12-2019 15:12:17 12 C 26 %
1389 17-12-2019 15:22:17 11.8 C 27 %
1390 17-12-2019 15:32:17 11.8 C 27 %
1391 17-12-2019 15:42:17 12.3 C 25 %
1392 17-12-2019 15:52:18 12.2 C 25 %
1393 17-12-2019 16:02:17 12.4 C 25 %
1394 17-12-2019 16:12:17 12.4 C 25 %
1395 17-12-2019 16:22:17 12.5 C 25 %
1396 17-12-2019 16:32:18 12.6 C 25 %
1397 17-12-2019 16:42:18 12.2 C 25 %
1398 17-12-2019 16:52:17 11.8 C 25 %
1399 17-12-2019 17:02:17 11.2 C 26 %
1400 17-12-2019 17:12:18 11.5 C 25 %
Sensor: Nr:Datum:Temp:Feuchte:
Aussen-T/F 1401 17-12-2019 17:22:17 12 C 24 %
1402 17-12-2019 17:32:18 13.1 C 20 %
1403 17-12-2019 17:42:18 13.4 C 20 %
1404 17-12-2019 17:52:17 13.8 C 20 %
1405 17-12-2019 18:02:17 13.4 C 20 %
1406 17-12-2019 18:12:17 13.2 C 20 %
1407 17-12-2019 18:22:17 13.6 C 20 %
1408 17-12-2019 18:32:17 13.7 C 20 %
1409 17-12-2019 18:42:17 13.1 C 21 %
1410 17-12-2019 18:52:17 12.7 C 25 %
1411 17-12-2019 19:02:17 12.8 C 25 %
1412 17-12-2019 19:12:17 13.1 C 22 %
1413 17-12-2019 19:22:17 12.8 C 25 %
1414 17-12-2019 19:32:18 11.7 C 29 %
1415 17-12-2019 19:42:18 11.6 C 29 %
1416 17-12-2019 19:52:17 11.6 C 30 %
1417 17-12-2019 20:02:18 11.6 C 30 %
1418 17-12-2019 20:12:18 11.5 C 31 %
1419 17-12-2019 20:22:17 11.6 C 31 %
1420 17-12-2019 20:32:17 11.3 C 33 %
1421 17-12-2019 20:42:17 11.2 C 35 %
1422 17-12-2019 20:52:17 11 C 36 %
1423 17-12-2019 21:02:17 10.9 C 36 %
1424 17-12-2019 21:12:17 10.5 C 38 %
1425 17-12-2019 21:22:17 10.3 C 39 %
Sensor: Nr:Datum:Temp:Feuchte:
Aussen-T/F 1426 17-12-2019 21:32:17 10.4 C 38 %
1427 17-12-2019 21:42:17 11.5 C 31 %
1428 17-12-2019 21:52:17 11.3 C 31 %
1429 17-12-2019 22:02:17 13 C 25 %
1430 17-12-2019 22:12:17 12.5 C 26 %
1431 17-12-2019 22:22:17 13.1 C 25 %
1432 17-12-2019 22:32:17 13.4 C 25 %
1433 17-12-2019 22:42:17 13.2 C 25 %
1434 17-12-2019 22:52:17 13.1 C 25 %
1435 17-12-2019 23:02:17 12.4 C 26 %
1436 17-12-2019 23:12:17 11.9 C 29 %
1437 17-12-2019 23:22:17 11.3 C 30 %
1438 17-12-2019 23:32:17 11.1 C 31 %
1439 17-12-2019 23:42:17 11 C 30 %
1440 17-12-2019 23:52:17 10.8 C 33 %
1441 18-12-2019 00:02:17 10.4 C 35 %
1442 18-12-2019 00:12:17 10.4 C 34 %
1443 18-12-2019 00:22:17 10.5 C 34 %
1444 18-12-2019 00:32:18 10.9 C 31 %
1445 18-12-2019 00:42:18 11 C 30 %
1446 18-12-2019 00:52:17 11 C 30 %
1447 18-12-2019 01:02:17 10.8 C 30 %
1448 18-12-2019 01:12:17 11 C 29 %
1449 18-12-2019 01:22:17 11.1 C 29 %
1450 18-12-2019 01:32:18 10.9 C 30 %
Sensor: Nr:Datum:Temp:Feuchte:
Aussen-T/F 1451 18-12-2019 01:42:18 10.4 C 30 %
1452 18-12-2019 01:52:17 10.8 C 30 %
1453 18-12-2019 02:02:17 11.1 C 30 %
1454 18-12-2019 02:12:17 11.1 C 29 %
1455 18-12-2019 02:22:17 11.2 C 30 %
1456 18-12-2019 02:32:17 11.3 C 29 %
1457 18-12-2019 02:42:18 10.9 C 30 %
1458 18-12-2019 02:52:17 10.9 C 31 %
1459 18-12-2019 03:02:17 10.6 C 33 %
1460 18-12-2019 03:12:17 10.3 C 35 %
1461 18-12-2019 03:22:18 10.3 C 37 %
1462 18-12-2019 03:32:17 10.1 C 37 %
1463 18-12-2019 03:42:17 10 C 38 %
1464 18-12-2019 03:52:18 10.1 C 38 %
1465 18-12-2019 04:02:18 10 C 38 %
1466 18-12-2019 04:12:18 9.9 C 38 %
1467 18-12-2019 04:22:17 9.8 C 35 %
1468 18-12-2019 04:32:18 9.6 C 34 %
1469 18-12-2019 04:42:18 9.5 C 33 %
1470 18-12-2019 04:52:17 9.3 C 33 %
1471 18-12-2019 05:02:18 9.2 C 33 %
1472 18-12-2019 05:12:18 9.1 C 33 %
1473 18-12-2019 05:22:17 8.8 C 35 %
1474 18-12-2019 05:32:17 8.7 C 36 %
1475 18-12-2019 05:42:17 8.2 C 36 %
Sensor: Nr:Datum:Temp:Feuchte:
Aussen-T/F 1476 18-12-2019 05:52:17 8.2 C 39 %
1477 18-12-2019 06:02:18 8.1 C 39 %
1478 18-12-2019 06:12:18 8 C 37 %
1479 18-12-2019 06:22:17 8 C 37 %
1480 18-12-2019 06:32:18 7.9 C 37 %
1481 18-12-2019 06:42:18 7.5 C 37 %
1482 18-12-2019 06:52:17 7.4 C 39 %
1483 18-12-2019 07:02:17 7.2 C 40 %
1484 18-12-2019 07:12:17 7.3 C 40 %
1485 18-12-2019 07:22:17 7.3 C 40 %
1486 18-12-2019 07:32:17 7.1 C 39 %
1487 18-12-2019 07:42:17 6.8 C 40 %
1488 18-12-2019 07:52:17 6.9 C 41 %
1489 18-12-2019 08:02:17 6.7 C 41 %
1490 18-12-2019 08:12:17 6.5 C 41 %
1491 18-12-2019 08:22:17 6.5 C 41 %
1492 18-12-2019 08:32:17 6.3 C 41 %
1493 18-12-2019 08:42:17 6.4 C 42 %
1494 18-12-2019 08:52:17 6.6 C 42 %
1495 18-12-2019 09:02:17 6.5 C 41 %
1496 18-12-2019 09:12:17 6.1 C 40 %
1497 18-12-2019 09:22:17 6 C 41 %
1498 18-12-2019 09:32:17 6.5 C 42 %
1499 18-12-2019 09:42:17 6.7 C 42 %
1500 18-12-2019 09:52:17 6.9 C 41 %
Sensor: Nr:Datum:Temp:Feuchte:
Aussen-T/F 1501 18-12-2019 10:02:17 7 C 40 %
1502 18-12-2019 10:12:18 7.1 C 40 %
1503 18-12-2019 10:22:17 7.5 C 38 %
1504 18-12-2019 10:32:17 7.5 C 36 %
1505 18-12-2019 10:42:17 7.4 C 36 %
1506 18-12-2019 10:52:17 6.9 C 38 %
1507 18-12-2019 11:02:17 6.8 C 38 %
1508 18-12-2019 11:12:17 6.8 C 38 %
1509 18-12-2019 11:22:17 6.6 C 38 %
1510 18-12-2019 11:32:18 6.7 C 39 %
1511 18-12-2019 11:42:18 6.9 C 38 %
1512 18-12-2019 11:52:17 7.6 C 35 %
1513 18-12-2019 12:02:17 8.1 C 33 %
1514 18-12-2019 12:12:17 8 C 32 %
1515 18-12-2019 12:22:17 8.3 C 31 %
1516 18-12-2019 12:32:17 8.6 C 30 %
1517 18-12-2019 12:42:17 8.8 C 29 %
1518 18-12-2019 12:52:17 8.7 C 29 %
1519 18-12-2019 13:02:17 8.4 C 30 %
1520 18-12-2019 13:12:17 8.2 C 30 %
1521 18-12-2019 13:22:17 7.9 C 31 %
1522 18-12-2019 13:32:18 7.8 C 32 %
1523 18-12-2019 13:42:18 7.7 C 33 %
1524 18-12-2019 13:52:17 7.8 C 32 %
1525 18-12-2019 14:02:18 7.8 C 33 %
Sensor: Nr:Datum:Temp:Feuchte:
Aussen-T/F 1526 18-12-2019 14:12:18 7.7 C 33 %
1527 18-12-2019 14:22:17 7.5 C 34 %
1528 18-12-2019 14:32:17 7.3 C 35 %
1529 18-12-2019 14:42:17 7.2 C 35 %
1530 18-12-2019 14:52:17 7.2 C 35 %
1531 18-12-2019 15:02:17 7.2 C 35 %
1532 18-12-2019 15:12:17 7 C 36 %
1533 18-12-2019 15:22:17 7 C 36 %
1534 18-12-2019 15:32:17 6.7 C 37 %
1535 18-12-2019 15:42:17 6.8 C 37 %
1536 18-12-2019 15:52:17 6.7 C 36 %
1537 18-12-2019 16:02:17 6.6 C 36 %
1538 18-12-2019 16:12:17 6.5 C 36 %
1539 18-12-2019 16:22:17 6.4 C 36 %
1540 18-12-2019 16:32:17 6 C 36 %
1541 18-12-2019 16:42:17 5.8 C 37 %
1542 18-12-2019 16:52:17 5.7 C 39 %
1543 18-12-2019 17:02:17 5.3 C 38 %
1544 18-12-2019 17:12:17 4.9 C 40 %
1545 18-12-2019 17:22:17 5 C 42 %
1546 18-12-2019 17:32:17 4.4 C 41 %
1547 18-12-2019 17:42:17 4.2 C 42 %
1548 18-12-2019 17:52:18 4.1 C 42 %
1549 18-12-2019 18:02:17 4.1 C 43 %
1550 18-12-2019 18:12:17 4.1 C 43 %
Sensor: Nr:Datum:Temp:Feuchte:
Aussen-T/F 1551 18-12-2019 18:22:17 4.4 C 43 %
1552 18-12-2019 18:32:17 4.5 C 43 %
1553 18-12-2019 18:42:17 4.3 C 42 %
1554 18-12-2019 18:52:17 4.6 C 43 %
1555 18-12-2019 19:02:17 5 C 42 %
1556 18-12-2019 19:12:17 4.7 C 42 %
1557 18-12-2019 19:22:17 4.3 C 42 %
1558 18-12-2019 19:32:18 4.9 C 43 %
1559 18-12-2019 19:42:18 4.7 C 42 %
1560 18-12-2019 19:52:17 4.6 C 42 %
1561 18-12-2019 20:02:17 5 C 42 %
1562 18-12-2019 20:12:17 5 C 41 %
1563 18-12-2019 20:22:17 4.5 C 41 %
1564 18-12-2019 20:32:17 4.5 C 41 %
1565 18-12-2019 20:42:18 4.1 C 41 %
1566 18-12-2019 20:52:17 3.9 C 42 %
1567 18-12-2019 21:02:17 3.7 C 43 %
1568 18-12-2019 21:12:17 3.6 C 42 %
1569 18-12-2019 21:22:17 3.6 C 43 %
1570 18-12-2019 21:32:17 3.7 C 43 %
1571 18-12-2019 21:42:17 3.6 C 43 %
1572 18-12-2019 21:52:17 3.4 C 43 %
1573 18-12-2019 22:02:17 3.1 C 43 %
1574 18-12-2019 22:12:17 3.1 C 43 %
1575 18-12-2019 22:22:17 2.7 C 43 %
Sensor: Nr:Datum:Temp:Feuchte:
Aussen-T/F 1576 18-12-2019 22:32:17 2.6 C 43 %
1577 18-12-2019 22:42:17 2.5 C 43 %
1578 18-12-2019 22:52:17 2.4 C 43 %
1579 18-12-2019 23:02:17 2.4 C 43 %
1580 18-12-2019 23:12:17 2.3 C 43 %
1581 18-12-2019 23:22:18 2.3 C 43 %
1582 18-12-2019 23:32:17 2 C 43 %
1583 18-12-2019 23:42:17 2 C 43 %
1584 18-12-2019 23:52:17 2 C 43 %
1585 19-12-2019 00:02:18 2.3 C 44 %
1586 19-12-2019 00:12:18 2 C 43 %
1587 19-12-2019 00:22:17 2 C 43 %
1588 19-12-2019 00:32:17 2.1 C 43 %
1589 19-12-2019 00:42:17 2.4 C 44 %
1590 19-12-2019 00:52:18 2.3 C 43 %
1591 19-12-2019 01:02:17 2.1 C 43 %
1592 19-12-2019 01:12:17 2 C 43 %
1593 19-12-2019 01:22:17 2 C 43 %
1594 19-12-2019 01:32:18 1.6 C 44 %
1595 19-12-2019 01:42:18 1.9 C 44 %
1596 19-12-2019 01:52:17 2.3 C 43 %
1597 19-12-2019 02:02:17 2.2 C 43 %
1598 19-12-2019 02:12:17 2 C 43 %
1599 19-12-2019 02:22:17 2 C 43 %
1600 19-12-2019 02:32:18 2 C 43 %
Sensor: Nr:Datum:Temp:Feuchte:
Aussen-T/F 1601 19-12-2019 02:42:18 1.8 C 44 %
1602 19-12-2019 02:52:17 2.1 C 43 %
1603 19-12-2019 03:02:18 1.5 C 44 %
1604 19-12-2019 03:12:18 1.6 C 44 %
1605 19-12-2019 03:22:17 1.6 C 44 %
1606 19-12-2019 03:32:17 1.8 C 44 %
1607 19-12-2019 03:42:17 1.7 C 44 %
1608 19-12-2019 03:52:17 1.7 C 44 %
1609 19-12-2019 04:02:17 1.6 C 44 %
1610 19-12-2019 04:12:17 1.5 C 44 %
1611 19-12-2019 04:22:18 1.5 C 44 %
1612 19-12-2019 04:32:17 1.5 C 44 %
1613 19-12-2019 04:42:17 1.4 C 44 %
1614 19-12-2019 04:52:18 1.6 C 44 %
1615 19-12-2019 05:02:17 1.4 C 44 %
1616 19-12-2019 05:12:17 1.5 C 44 %
1617 19-12-2019 05:22:17 1.4 C 44 %
1618 19-12-2019 05:32:17 1.3 C 44 %
1619 19-12-2019 05:42:17 1.3 C 44 %
1620 19-12-2019 05:52:17 1.1 C 44 %
1621 19-12-2019 06:02:17 1.1 C 44 %
1622 19-12-2019 06:12:17 1.2 C 44 %
1623 19-12-2019 06:22:17 1 C 44 %
1624 19-12-2019 06:32:17 1.1 C 44 %
1625 19-12-2019 06:42:18 1 C 43 %
Sensor: Nr:Datum:Temp:Feuchte:
Aussen-T/F 1626 19-12-2019 06:52:17 0.7 C 45 %
1627 19-12-2019 07:02:17 1 C 44 %
1628 19-12-2019 07:12:17 0.9 C 45 %
1629 19-12-2019 07:22:17 1.7 C 44 %
1630 19-12-2019 07:32:17 3.5 C 43 %
1631 19-12-2019 07:42:18 3.2 C 42 %
1632 19-12-2019 07:52:17 3.1 C 42 %
1633 19-12-2019 08:02:18 4.6 C 42 %
1634 19-12-2019 08:12:18 3.8 C 42 %
1635 19-12-2019 08:22:17 3.7 C 42 %
1636 19-12-2019 08:32:18 4.6 C 41 %
1637 19-12-2019 08:42:18 4 C 41 %
1638 19-12-2019 08:52:17 3.3 C 41 %
1639 19-12-2019 09:02:17 4 C 41 %
1640 19-12-2019 09:12:17 4.4 C 41 %
1641 19-12-2019 09:22:17 4.1 C 41 %
1642 19-12-2019 09:32:17 4.6 C 41 %
1643 19-12-2019 09:42:17 4.4 C 41 %
1644 19-12-2019 09:52:17 4.5 C 41 %
1645 19-12-2019 10:02:17 4.7 C 41 %
1646 19-12-2019 10:12:17 4.9 C 41 %
1647 19-12-2019 10:22:17 5.2 C 41 %
1648 19-12-2019 10:32:17 7 C 40 %
1649 19-12-2019 10:42:17 7.2 C 40 %
1650 19-12-2019 10:52:18 6.7 C 40 %
Sensor: Nr:Datum:Temp:Feuchte:
Aussen-T/F 1651 19-12-2019 11:02:17 6.4 C 39 %
1652 19-12-2019 11:12:17 6.3 C 39 %
1653 19-12-2019 11:22:17 6.3 C 40 %
1654 19-12-2019 11:32:17 6.4 C 40 %
1655 19-12-2019 11:42:17 6.6 C 40 %
1656 19-12-2019 11:52:18 6.7 C 40 %
1657 19-12-2019 12:02:17 6.6 C 40 %
1658 19-12-2019 12:12:17 6.7 C 40 %
1659 19-12-2019 12:22:17 6.7 C 40 %
1660 19-12-2019 12:32:17 7 C 39 %
1661 19-12-2019 12:42:17 7 C 39 %
1662 19-12-2019 12:52:17 7.1 C 39 %
1663 19-12-2019 13:02:17 7.3 C 39 %
1664 19-12-2019 13:12:17 7.1 C 38 %
1665 19-12-2019 13:22:17 7.2 C 39 %
1666 19-12-2019 13:32:17 7.2 C 39 %
1667 19-12-2019 13:42:17 7.3 C 38 %
1668 19-12-2019 13:52:17 7.3 C 38 %
1669 19-12-2019 14:02:17 7.3 C 38 %
1670 19-12-2019 14:12:17 7.1 C 38 %
1671 19-12-2019 14:22:17 7.1 C 38 %
1672 19-12-2019 14:32:17 7.2 C 38 %
1673 19-12-2019 14:42:17 7.3 C 37 %
1674 19-12-2019 14:52:17 7.9 C 36 %
1675 19-12-2019 15:02:17 8.1 C 34 %
Sensor: Nr:Datum:Temp:Feuchte:
Aussen-T/F 1676 19-12-2019 15:12:17 8.1 C 33 %
1677 19-12-2019 15:22:17 8.4 C 32 %
1678 19-12-2019 15:32:18 8.6 C 32 %
1679 19-12-2019 15:42:18 8.7 C 31 %
1680 19-12-2019 15:52:17 8.8 C 31 %
1681 19-12-2019 16:02:17 8.7 C 30 %
1682 19-12-2019 16:12:17 8.3 C 31 %
1683 19-12-2019 16:22:18 8.1 C 31 %
1684 19-12-2019 16:32:17 7.9 C 32 %
1685 19-12-2019 16:42:17 7.9 C 31 %
1686 19-12-2019 16:52:17 7.6 C 32 %
1687 19-12-2019 17:02:17 7.4 C 32 %
1688 19-12-2019 17:12:17 6 C 35 %
1689 19-12-2019 17:22:17 5.7 C 37 %
1690 19-12-2019 17:32:17 5.5 C 39 %
1691 19-12-2019 17:42:17 5 C 39 %
1692 19-12-2019 17:52:17 4.9 C 41 %
1693 19-12-2019 18:02:17 5.2 C 42 %
1694 19-12-2019 18:12:18 4.9 C 42 %
1695 19-12-2019 18:22:17 5.2 C 42 %
1696 19-12-2019 18:32:17 5 C 41 %
1697 19-12-2019 18:42:17 5 C 41 %
1698 19-12-2019 18:52:18 5.8 C 42 %
1699 19-12-2019 19:02:17 5.7 C 41 %
1700 19-12-2019 19:12:17 5.2 C 39 %
Sensor: Nr:Datum:Temp:Feuchte:
Aussen-T/F 1701 19-12-2019 19:22:18 4.7 C 40 %
1702 19-12-2019 19:32:17 4.9 C 42 %
1703 19-12-2019 19:42:17 4.7 C 42 %
1704 19-12-2019 19:52:17 4.8 C 42 %
1705 19-12-2019 20:02:17 5 C 42 %
1706 19-12-2019 20:12:17 5 C 41 %
1707 19-12-2019 20:22:17 4.8 C 42 %
1708 19-12-2019 20:32:17 5.1 C 42 %
1709 19-12-2019 20:42:17 6 C 41 %
1710 19-12-2019 20:52:17 6 C 38 %
1711 19-12-2019 21:02:17 5.8 C 38 %
1712 19-12-2019 21:12:18 5.8 C 39 %
1713 19-12-2019 21:22:17 5.7 C 39 %
1714 19-12-2019 21:32:17 5.8 C 40 %
1715 19-12-2019 21:42:17 6 C 40 %
1716 19-12-2019 21:52:17 5.7 C 40 %
1717 19-12-2019 22:02:17 5.6 C 40 %
1718 19-12-2019 22:12:17 5.8 C 41 %
1719 19-12-2019 22:22:18 6.2 C 41 %
1720 19-12-2019 22:32:18 5.9 C 40 %
1721 19-12-2019 22:42:18 5.1 C 38 %
1722 19-12-2019 22:52:17 5 C 41 %
1723 19-12-2019 23:02:17 5.4 C 43 %
1724 19-12-2019 23:12:17 5.5 C 42 %
1725 19-12-2019 23:22:17 5.5 C 42 %
Sensor: Nr:Datum:Temp:Feuchte:
Aussen-T/F 1726 19-12-2019 23:32:17 5.4 C 42 %
1727 19-12-2019 23:42:17 5.4 C 42 %
1728 19-12-2019 23:52:17 5.1 C 41 %
1729 20-12-2019 00:02:17 4.8 C 42 %
1730 20-12-2019 00:12:17 4.3 C 41 %
1731 20-12-2019 00:22:17 4 C 41 %
1732 20-12-2019 00:32:17 3.9 C 43 %
1733 20-12-2019 00:42:17 3.7 C 42 %
1734 20-12-2019 00:52:17 3.4 C 43 %
1735 20-12-2019 01:02:17 3.1 C 42 %
1736 20-12-2019 01:12:17 3 C 43 %
1737 20-12-2019 01:22:17 3.3 C 44 %
1738 20-12-2019 01:32:17 3.1 C 43 %
1739 20-12-2019 01:42:17 3.1 C 43 %
1740 20-12-2019 01:52:17 2.8 C 44 %
1741 20-12-2019 02:02:17 2.8 C 44 %
1742 20-12-2019 02:12:17 2.6 C 44 %
1743 20-12-2019 02:22:17 2.5 C 44 %
1744 20-12-2019 02:32:18 3.2 C 44 %
1745 20-12-2019 02:42:18 3.4 C 44 %
1746 20-12-2019 02:52:17 3.8 C 44 %
1747 20-12-2019 03:02:17 4.7 C 42 %
1748 20-12-2019 03:12:17 4.2 C 41 %
1749 20-12-2019 03:22:17 4.6 C 41 %
1750 20-12-2019 03:32:17 4.4 C 40 %
Sensor: Nr:Datum:Temp:Feuchte:
Aussen-T/F 1751 20-12-2019 03:42:17 4.4 C 40 %
1752 20-12-2019 03:52:17 4.6 C 41 %
1753 20-12-2019 04:02:17 4.4 C 40 %
1754 20-12-2019 04:12:17 4.2 C 40 %
1755 20-12-2019 04:22:17 4 C 41 %
1756 20-12-2019 04:32:18 4.8 C 42 %
1757 20-12-2019 04:42:18 4.5 C 41 %
1758 20-12-2019 04:52:17 4.7 C 40 %
1759 20-12-2019 05:02:17 4.7 C 40 %
1760 20-12-2019 05:12:17 5.3 C 38 %
1761 20-12-2019 05:22:17 5.2 C 36 %
1762 20-12-2019 05:32:17 5.3 C 36 %
1763 20-12-2019 05:42:17 5.4 C 35 %
1764 20-12-2019 05:52:18 5.5 C 35 %
1765 20-12-2019 06:02:18 5.2 C 35 %
1766 20-12-2019 06:12:18 5.3 C 35 %
1767 20-12-2019 06:22:17 5.6 C 35 %
1768 20-12-2019 06:32:17 6 C 32 %
1769 20-12-2019 06:42:17 6 C 31 %
1770 20-12-2019 06:52:17 5.7 C 32 %
1771 20-12-2019 07:02:17 5.8 C 31 %
1772 20-12-2019 07:12:17 5.9 C 31 %
1773 20-12-2019 07:22:17 6.1 C 31 %
1774 20-12-2019 07:32:17 5.9 C 33 %
1775 20-12-2019 07:42:17 6.4 C 31 %
Sensor: Nr:Datum:Temp:Feuchte:
Aussen-T/F 1776 20-12-2019 07:52:17 6.8 C 30 %
1777 20-12-2019 08:02:17 7.1 C 27 %
1778 20-12-2019 08:12:17 6.4 C 31 %
1779 20-12-2019 08:22:17 6.4 C 32 %
1780 20-12-2019 08:32:18 6.5 C 32 %
1781 20-12-2019 08:42:18 6.3 C 32 %
1782 20-12-2019 08:52:17 6.3 C 33 %
1783 20-12-2019 09:02:17 6.5 C 33 %
1784 20-12-2019 09:12:17 6.7 C 31 %
1785 20-12-2019 09:22:17 6.5 C 33 %
1786 20-12-2019 09:32:17 6.4 C 35 %
1787 20-12-2019 09:42:17 6.5 C 35 %
1788 20-12-2019 09:52:17 6.5 C 34 %
1789 20-12-2019 10:02:17 6.2 C 31 %
1790 20-12-2019 10:12:17 6 C 33 %
1791 20-12-2019 10:22:17 5.7 C 35 %
1792 20-12-2019 10:32:17 5.8 C 40 %
1793 20-12-2019 10:42:17 5.9 C 42 %
1794 20-12-2019 10:52:17 6 C 42 %
1795 20-12-2019 11:02:17 6.1 C 42 %
1796 20-12-2019 11:12:17 6 C 42 %
1797 20-12-2019 11:22:17 6.3 C 42 %
1798 20-12-2019 11:32:17 6.5 C 42 %
1799 20-12-2019 11:42:17 6.7 C 41 %
1800 20-12-2019 11:52:17 6.8 C 40 %
Sensor: Nr:Datum:Temp:Feuchte:
Aussen-T/F 1801 20-12-2019 12:02:18 7 C 39 %
1802 20-12-2019 12:12:18 7.3 C 39 %
1803 20-12-2019 12:22:18 7.5 C 39 %
1804 20-12-2019 12:32:17 7.7 C 39 %
1805 20-12-2019 12:42:18 8 C 39 %
1806 20-12-2019 12:52:17 8.1 C 38 %
1807 20-12-2019 13:02:18 8.1 C 39 %
1808 20-12-2019 13:12:18 8.2 C 39 %
1809 20-12-2019 13:22:17 8.3 C 37 %
1810 20-12-2019 13:32:17 8.4 C 36 %
1811 20-12-2019 13:42:17 8.6 C 37 %
1812 20-12-2019 13:52:17 8.5 C 36 %
1813 20-12-2019 14:02:17 8.6 C 36 %
1814 20-12-2019 14:12:17 8.6 C 35 %
1815 20-12-2019 14:22:17 8.7 C 36 %
1816 20-12-2019 14:32:17 8.7 C 36 %
1817 20-12-2019 14:42:17 8.5 C 35 %
1818 20-12-2019 14:52:18 8.3 C 36 %
1819 20-12-2019 15:02:17 8.2 C 37 %
1820 20-12-2019 15:12:17 8.3 C 38 %
1821 20-12-2019 15:22:17 8.3 C 39 %
1822 20-12-2019 15:32:17 8.2 C 40 %
1823 20-12-2019 15:42:17 8.3 C 41 %
1824 20-12-2019 15:52:17 8.2 C 40 %
1825 20-12-2019 16:02:17 8.2 C 40 %
Sensor: Nr:Datum:Temp:Feuchte:
Aussen-T/F 1826 20-12-2019 16:12:18 8.3 C 40 %
1827 20-12-2019 16:22:17 8.3 C 41 %
1828 20-12-2019 16:32:17 8.4 C 41 %
1829 20-12-2019 16:42:17 8.4 C 41 %
1830 20-12-2019 16:52:18 8.6 C 41 %
1831 20-12-2019 17:02:17 9 C 41 %
1832 20-12-2019 17:12:18 9 C 40 %
1833 20-12-2019 17:22:17 9.1 C 36 %
1834 20-12-2019 17:32:17 8.7 C 38 %
1835 20-12-2019 17:42:17 8.8 C 37 %
1836 20-12-2019 17:52:18 8.7 C 38 %
1837 20-12-2019 18:02:17 8.9 C 37 %
1838 20-12-2019 18:12:17 8.9 C 36 %
1839 20-12-2019 18:22:17 8.9 C 37 %
1840 20-12-2019 18:32:17 8.9 C 37 %
1841 20-12-2019 18:42:17 9.7 C 33 %
1842 20-12-2019 18:52:18 9.5 C 31 %
1843 20-12-2019 19:02:17 9.8 C 30 %
1844 20-12-2019 19:12:17 10.1 C 28 %
1845 20-12-2019 19:22:17 9.9 C 29 %
1846 20-12-2019 19:32:17 9.8 C 29 %
1847 20-12-2019 19:42:17 10 C 27 %
1848 20-12-2019 19:52:18 9.7 C 29 %
1849 20-12-2019 20:02:18 9.6 C 28 %
1850 20-12-2019 20:12:18 9.5 C 28 %
Sensor: Nr:Datum:Temp:Feuchte:
Aussen-T/F 1851 20-12-2019 20:22:17 9.5 C 27 %
1852 20-12-2019 20:32:18 9 C 28 %
1853 20-12-2019 20:42:18 9 C 27 %
1854 20-12-2019 20:52:17 8.9 C 28 %
1855 20-12-2019 21:02:18 8.5 C 28 %
1856 20-12-2019 21:12:18 8.6 C 28 %
1857 20-12-2019 21:22:17 8.9 C 27 %
1858 20-12-2019 21:32:17 8.7 C 27 %
1859 20-12-2019 21:42:17 8.3 C 28 %
1860 20-12-2019 21:52:17 8.3 C 28 %
1861 20-12-2019 22:02:17 8.3 C 28 %
1862 20-12-2019 22:12:17 8.1 C 28 %
1863 20-12-2019 22:22:17 8.7 C 27 %
1864 20-12-2019 22:32:17 8.9 C 26 %
1865 20-12-2019 22:42:17 8.7 C 27 %
1866 20-12-2019 22:52:17 8.7 C 27 %
1867 20-12-2019 23:02:17 8.5 C 27 %
1868 20-12-2019 23:12:17 8.4 C 27 %
1869 20-12-2019 23:22:17 8.2 C 28 %
1870 20-12-2019 23:32:17 8 C 28 %
1871 20-12-2019 23:42:17 8.3 C 27 %
1872 20-12-2019 23:52:18 8.1 C 27 %
1873 21-12-2019 00:02:17 7.9 C 28 %
1874 21-12-2019 00:12:17 7.7 C 28 %
1875 21-12-2019 00:22:17 7.5 C 30 %
Sensor: Nr:Datum:Temp:Feuchte:
Aussen-T/F 1876 21-12-2019 00:32:17 7.5 C 30 %
1877 21-12-2019 00:42:17 7.2 C 30 %
1878 21-12-2019 00:52:18 7 C 30 %
1879 21-12-2019 01:02:17 6.9 C 32 %
1880 21-12-2019 01:12:17 7.3 C 31 %
1881 21-12-2019 01:22:17 7.4 C 31 %
1882 21-12-2019 01:32:17 7.3 C 32 %
1883 21-12-2019 01:42:17 7.5 C 31 %
1884 21-12-2019 01:52:17 7.5 C 32 %
1885 21-12-2019 02:02:17 7.9 C 30 %
1886 21-12-2019 02:12:17 8 C 29 %
1887 21-12-2019 02:22:17 8.2 C 28 %
1888 21-12-2019 02:32:18 7.8 C 30 %
1889 21-12-2019 02:42:18 7.8 C 30 %
1890 21-12-2019 02:52:17 7.8 C 30 %
1891 21-12-2019 03:02:17 7.5 C 30 %
1892 21-12-2019 03:12:17 7.5 C 31 %
1893 21-12-2019 03:22:17 7.4 C 31 %
1894 21-12-2019 03:32:18 7.3 C 31 %
1895 21-12-2019 03:42:18 7.1 C 31 %
1896 21-12-2019 03:52:17 7.1 C 32 %
1897 21-12-2019 04:02:17 6.9 C 33 %
1898 21-12-2019 04:12:17 6.7 C 36 %
1899 21-12-2019 04:22:17 6.4 C 37 %
1900 21-12-2019 04:32:18 6 C 38 %
Sensor: Nr:Datum:Temp:Feuchte:
Aussen-T/F 1901 21-12-2019 04:42:18 5.9 C 38 %
1902 21-12-2019 04:52:17 5.7 C 40 %
1903 21-12-2019 05:02:17 6 C 40 %
1904 21-12-2019 05:12:17 5.6 C 39 %
1905 21-12-2019 05:22:17 5.4 C 38 %
1906 21-12-2019 05:32:18 5.4 C 38 %
1907 21-12-2019 05:42:18 5.1 C 38 %
1908 21-12-2019 05:52:17 5.3 C 40 %
1909 21-12-2019 06:02:17 4.9 C 41 %
1910 21-12-2019 06:12:17 4.8 C 41 %
1911 21-12-2019 06:22:18 4.3 C 40 %
1912 21-12-2019 06:32:17 4.3 C 42 %
1913 21-12-2019 06:42:17 5 C 40 %
1914 21-12-2019 06:52:18 3.8 C 41 %
1915 21-12-2019 07:02:17 3.8 C 43 %
1916 21-12-2019 07:12:18 3.5 C 42 %
1917 21-12-2019 07:22:17 3.4 C 43 %
1918 21-12-2019 07:32:17 3.3 C 43 %
1919 21-12-2019 07:42:17 3 C 42 %
1920 21-12-2019 07:52:17 3 C 43 %
1921 21-12-2019 08:02:17 3.1 C 44 %
1922 21-12-2019 08:12:17 3.6 C 44 %
1923 21-12-2019 08:22:17 3.7 C 44 %
1924 21-12-2019 08:32:17 3.9 C 43 %
1925 21-12-2019 08:42:17 4.6 C 43 %
Sensor: Nr:Datum:Temp:Feuchte:
Aussen-T/F 1926 21-12-2019 08:52:17 4.9 C 42 %
1927 21-12-2019 09:02:17 5 C 39 %
1928 21-12-2019 09:12:17 4.5 C 38 %
1929 21-12-2019 09:22:17 4.4 C 38 %
1930 21-12-2019 09:32:17 4.4 C 39 %
1931 21-12-2019 09:42:17 4.6 C 40 %
1932 21-12-2019 09:52:17 4.6 C 38 %
1933 21-12-2019 10:02:17 4.8 C 38 %
1934 21-12-2019 10:12:17 4.8 C 37 %
1935 21-12-2019 10:22:17 5.1 C 37 %
1936 21-12-2019 10:32:17 5.2 C 36 %
1937 21-12-2019 10:42:17 5.1 C 37 %
1938 21-12-2019 10:52:17 5.2 C 37 %
1939 21-12-2019 11:02:17 5.3 C 37 %
1940 21-12-2019 11:12:17 5.3 C 37 %
1941 21-12-2019 11:22:17 5.4 C 37 %
1942 21-12-2019 11:32:17 5.8 C 37 %
1943 21-12-2019 11:42:17 5.9 C 37 %
1944 21-12-2019 11:52:17 5.8 C 37 %
1945 21-12-2019 12:02:17 5.8 C 36 %
1946 21-12-2019 12:12:17 6.2 C 36 %
1947 21-12-2019 12:22:17 6.2 C 35 %
1948 21-12-2019 12:32:17 7 C 32 %
1949 21-12-2019 12:42:17 6.8 C 33 %
1950 21-12-2019 12:52:17 8 C 30 %
Sensor: Nr:Datum:Temp:Feuchte:
Aussen-T/F 1951 21-12-2019 13:02:17 7.8 C 30 %
1952 21-12-2019 13:12:17 7.1 C 30 %
1953 21-12-2019 13:22:17 6.9 C 31 %
1954 21-12-2019 13:32:17 7.2 C 30 %
1955 21-12-2019 13:42:17 8 C 28 %
1956 21-12-2019 13:52:18 7.7 C 28 %
1957 21-12-2019 14:02:17 8.3 C 27 %
1958 21-12-2019 14:12:17 8.8 C 26 %
1959 21-12-2019 14:22:17 8.2 C 27 %
1960 21-12-2019 14:32:18 8.2 C 27 %
1961 21-12-2019 14:42:18 8.5 C 27 %
1962 21-12-2019 14:52:17 8.8 C 26 %
1963 21-12-2019 15:02:18 9 C 25 %
1964 21-12-2019 15:12:18 8.7 C 26 %
1965 21-12-2019 15:22:18 8.8 C 25 %
1966 21-12-2019 15:32:17 8.7 C 25 %
1967 21-12-2019 15:42:17 8 C 26 %
1968 21-12-2019 15:52:17 7.5 C 28 %
1969 21-12-2019 16:02:17 7.7 C 27 %
1970 21-12-2019 16:12:17 7.6 C 29 %
1971 21-12-2019 16:22:17 7.4 C 30 %
1972 21-12-2019 16:32:17 7.4 C 30 %
1973 21-12-2019 16:42:17 7.7 C 28 %
1974 21-12-2019 16:52:17 7.9 C 27 %
1975 21-12-2019 17:02:17 7.6 C 29 %
Sensor: Nr:Datum:Temp:Feuchte:
Aussen-T/F 1976 21-12-2019 17:12:17 7.3 C 30 %
1977 21-12-2019 17:22:17 7.2 C 30 %
1978 21-12-2019 17:32:17 7.3 C 30 %
1979 21-12-2019 17:42:17 7.3 C 29 %
1980 21-12-2019 17:52:17 7.2 C 29 %
1981 21-12-2019 18:02:17 7.6 C 27 %
1982 21-12-2019 18:12:17 7.6 C 27 %
1983 21-12-2019 18:22:17 7.6 C 26 %
1984 21-12-2019 18:32:18 7.9 C 25 %
1985 21-12-2019 18:42:18 7.7 C 26 %
1986 21-12-2019 18:52:17 7.5 C 26 %
1987 21-12-2019 19:02:17 7.3 C 27 %
1988 21-12-2019 19:12:17 7 C 27 %
1989 21-12-2019 19:22:17 7 C 27 %
1990 21-12-2019 19:32:17 6.9 C 30 %
1991 21-12-2019 19:42:17 6.8 C 30 %
1992 21-12-2019 19:52:17 7 C 27 %
1993 21-12-2019 20:02:17 7.1 C 26 %
1994 21-12-2019 20:12:17 7.1 C 26 %
1995 21-12-2019 20:22:17 7.1 C 26 %
1996 21-12-2019 20:32:17 6.9 C 28 %
1997 21-12-2019 20:42:17 7 C 27 %
1998 21-12-2019 20:52:17 6.8 C 27 %
1999 21-12-2019 21:02:18 6.4 C 29 %
2000 21-12-2019 21:12:18 6.1 C 30 %
Sensor: Nr:Datum:Temp:Feuchte:
Aussen-T/F 2001 21-12-2019 21:22:17 6.1 C 31 %
2002 21-12-2019 21:32:17 6.3 C 31 %
2003 21-12-2019 21:42:17 5.9 C 31 %
2004 21-12-2019 21:52:18 5.1 C 34 %
2005 21-12-2019 22:02:18 4.9 C 36 %
2006 21-12-2019 22:12:18 5.2 C 34 %
2007 21-12-2019 22:22:17 5.7 C 30 %
2008 21-12-2019 22:32:17 6.1 C 27 %
2009 21-12-2019 22:42:17 6.1 C 27 %
2010 21-12-2019 22:52:17 6 C 27 %
2011 21-12-2019 23:02:17 5.8 C 27 %
2012 21-12-2019 23:12:17 5.8 C 27 %
2013 21-12-2019 23:22:17 6.3 C 26 %
2014 21-12-2019 23:32:18 6.5 C 25 %
2015 21-12-2019 23:42:18 6.7 C 25 %
2016 21-12-2019 23:52:17 6.3 C 26 %
2017 22-12-2019 00:02:17 6.8 C 26 %
2018 22-12-2019 00:12:17 6.9 C 26 %
2019 22-12-2019 00:22:17 6.8 C 26 %
2020 22-12-2019 00:32:17 6.8 C 26 %
2021 22-12-2019 00:42:17 6.7 C 27 %
2022 22-12-2019 00:52:17 6.3 C 30 %
2023 22-12-2019 01:02:17 6.2 C 30 %
2024 22-12-2019 01:12:18 5.8 C 35 %
2025 22-12-2019 01:22:17 5.8 C 36 %
Sensor: Nr:Datum:Temp:Feuchte:
Aussen-T/F 2026 22-12-2019 01:32:17 5.8 C 39 %
2027 22-12-2019 01:42:17 5.7 C 40 %
2028 22-12-2019 01:52:17 5.7 C 40 %
2029 22-12-2019 02:02:17 5.7 C 38 %
2030 22-12-2019 02:12:18 5.7 C 38 %
2031 22-12-2019 02:22:17 5.8 C 38 %
2032 22-12-2019 02:32:17 5.9 C 37 %
2033 22-12-2019 02:42:17 5.9 C 36 %
2034 22-12-2019 02:52:18 6 C 35 %
2035 22-12-2019 03:02:17 6.1 C 35 %
2036 22-12-2019 03:12:17 6.2 C 34 %
2037 22-12-2019 03:22:17 6.2 C 35 %
2038 22-12-2019 03:32:17 6.2 C 34 %
2039 22-12-2019 03:42:17 6.1 C 35 %
2040 22-12-2019 03:52:17 6.2 C 35 %
2041 22-12-2019 04:02:18 6.2 C 35 %
2042 22-12-2019 04:12:18 6 C 35 %
2043 22-12-2019 04:22:17 6.2 C 34 %
2044 22-12-2019 04:32:17 6.2 C 34 %
2045 22-12-2019 04:42:17 6.3 C 33 %
2046 22-12-2019 04:52:17 6.3 C 33 %
2047 22-12-2019 05:02:17 6.2 C 34 %
2048 22-12-2019 05:12:17 5.8 C 34 %
2049 22-12-2019 05:22:17 5.4 C 36 %
2050 22-12-2019 05:32:17 5.7 C 40 %
Sensor: Nr:Datum:Temp:Feuchte:
Aussen-T/F 2051 22-12-2019 05:42:17 6.1 C 38 %
2052 22-12-2019 05:52:17 5.5 C 35 %
2053 22-12-2019 06:02:17 5.1 C 39 %
2054 22-12-2019 06:12:17 5.3 C 41 %
2055 22-12-2019 06:22:17 4.9 C 41 %
2056 22-12-2019 06:32:17 5.4 C 42 %
2057 22-12-2019 06:42:17 5.9 C 41 %
2058 22-12-2019 06:52:17 6.2 C 39 %
2059 22-12-2019 07:02:17 6.2 C 38 %
2060 22-12-2019 07:12:17 6 C 38 %
2061 22-12-2019 07:22:17 5.7 C 38 %
2062 22-12-2019 07:32:17 5.4 C 39 %
2063 22-12-2019 07:42:17 6 C 42 %
2064 22-12-2019 07:52:17 6.1 C 41 %
2065 22-12-2019 08:02:18 6.3 C 41 %
2066 22-12-2019 08:12:18 6.2 C 40 %
2067 22-12-2019 08:22:17 5.9 C 40 %
2068 22-12-2019 08:32:17 5.8 C 41 %
2069 22-12-2019 08:42:17 6.3 C 41 %
2070 22-12-2019 08:52:18 6.2 C 39 %
2071 22-12-2019 09:02:17 6 C 39 %
2072 22-12-2019 09:12:17 6.2 C 40 %
2073 22-12-2019 09:22:17 6.4 C 39 %
2074 22-12-2019 09:32:17 6.3 C 39 %
2075 22-12-2019 09:42:17 6.8 C 39 %
Sensor: Nr:Datum:Temp:Feuchte:
Aussen-T/F 2076 22-12-2019 09:52:17 7 C 37 %
2077 22-12-2019 10:02:17 7.1 C 37 %
2078 22-12-2019 10:12:17 7.9 C 33 %
2079 22-12-2019 10:22:17 8.1 C 33 %
2080 22-12-2019 10:32:17 8.8 C 30 %
2081 22-12-2019 10:42:17 9 C 29 %
2082 22-12-2019 10:52:17 9.3 C 28 %
2083 22-12-2019 11:02:17 9.5 C 28 %
2084 22-12-2019 11:12:17 10 C 26 %
2085 22-12-2019 11:22:17 10 C 26 %
2086 22-12-2019 11:32:18 10.4 C 26 %
2087 22-12-2019 11:42:18 10.2 C 26 %
2088 22-12-2019 11:52:17 10.4 C 26 %
2089 22-12-2019 12:02:17 10.5 C 25 %
2090 22-12-2019 12:12:17 10.5 C 26 %
2091 22-12-2019 12:22:17 10.5 C 25 %
2092 22-12-2019 12:32:17 10.7 C 26 %
2093 22-12-2019 12:42:17 10.8 C 26 %
2094 22-12-2019 12:52:17 11.2 C 25 %
2095 22-12-2019 13:02:17 11.1 C 25 %
2096 22-12-2019 13:12:17 10.8 C 25 %
2097 22-12-2019 13:22:17 10.7 C 25 %
2098 22-12-2019 13:32:17 10.7 C 25 %
2099 22-12-2019 13:42:17 10.7 C 25 %
2100 22-12-2019 13:52:17 10.8 C 25 %
Sensor: Nr:Datum:Temp:Feuchte:
Aussen-T/F 2101 22-12-2019 14:02:17 11.1 C 23 %
2102 22-12-2019 14:12:17 11 C 23 %
2103 22-12-2019 14:22:17 10.8 C 23 %
2104 22-12-2019 14:32:17 10.9 C 23 %
2105 22-12-2019 14:42:17 10.8 C 23 %
2106 22-12-2019 14:52:17 10.7 C 25 %
2107 22-12-2019 15:02:17 10.6 C 25 %
2108 22-12-2019 15:12:17 10.3 C 25 %
2109 22-12-2019 15:22:17 10.1 C 25 %
2110 22-12-2019 15:32:17 9.9 C 26 %
2111 22-12-2019 15:42:17 9.7 C 26 %
2112 22-12-2019 15:52:18 9.6 C 25 %
2113 22-12-2019 16:02:18 9.6 C 25 %
2114 22-12-2019 16:12:18 9.3 C 25 %
2115 22-12-2019 16:22:17 8.9 C 26 %
2116 22-12-2019 16:32:17 8.3 C 26 %
2117 22-12-2019 16:42:17 8.4 C 27 %
2118 22-12-2019 16:52:17 7.9 C 28 %
2119 22-12-2019 17:02:18 7.5 C 30 %
2120 22-12-2019 17:12:18 7.5 C 30 %
2121 22-12-2019 17:22:17 7.4 C 30 %
2122 22-12-2019 17:32:17 7.5 C 29 %
2123 22-12-2019 17:42:17 7.5 C 28 %
2124 22-12-2019 17:52:17 7.2 C 28 %
2125 22-12-2019 18:02:17 7.2 C 30 %
Sensor: Nr:Datum:Temp:Feuchte:
Aussen-T/F 2126 22-12-2019 18:12:17 7.1 C 30 %
2127 22-12-2019 18:22:17 7.3 C 30 %
2128 22-12-2019 18:32:17 7.4 C 29 %
2129 22-12-2019 18:42:17 7.5 C 29 %
2130 22-12-2019 18:52:17 7.2 C 29 %
2131 22-12-2019 19:02:17 7.1 C 30 %
2132 22-12-2019 19:12:17 7 C 31 %
2133 22-12-2019 19:22:17 7 C 32 %
2134 22-12-2019 19:32:17 7.1 C 31 %
2135 22-12-2019 19:42:17 7.5 C 30 %
2136 22-12-2019 19:52:17 8 C 27 %
2137 22-12-2019 20:02:17 7.9 C 27 %
2138 22-12-2019 20:12:17 8.1 C 26 %
2139 22-12-2019 20:22:17 8.3 C 25 %
2140 22-12-2019 20:32:17 8.2 C 25 %
2141 22-12-2019 20:42:17 8 C 25 %
2142 22-12-2019 20:52:17 8 C 25 %
2143 22-12-2019 21:02:17 8.1 C 25 %
2144 22-12-2019 21:12:17 8.1 C 25 %
2145 22-12-2019 21:22:17 7.8 C 25 %
2146 22-12-2019 21:32:17 8.1 C 25 %
2147 22-12-2019 21:42:17 7.8 C 26 %
2148 22-12-2019 21:52:17 7.7 C 26 %
2149 22-12-2019 22:02:17 7.9 C 26 %
2150 22-12-2019 22:12:17 7.6 C 26 %
Sensor: Nr:Datum:Temp:Feuchte:
Aussen-T/F 2151 22-12-2019 22:22:17 7.5 C 26 %
2152 22-12-2019 22:32:17 7.1 C 27 %
2153 22-12-2019 22:42:17 6.9 C 28 %
2154 22-12-2019 22:52:17 6.7 C 29 %
2155 22-12-2019 23:02:17 6.2 C 31 %
2156 22-12-2019 23:12:17 6.4 C 31 %
2157 22-12-2019 23:22:17 6.6 C 31 %
2158 22-12-2019 23:32:17 6.6 C 31 %
2159 22-12-2019 23:42:17 6.7 C 31 %
2160 22-12-2019 23:52:17 6.7 C 31 %
2161 23-12-2019 00:02:17 6.6 C 32 %
2162 23-12-2019 00:12:17 6.5 C 31 %
2163 23-12-2019 00:22:17 6.4 C 32 %
2164 23-12-2019 00:32:17 6.6 C 31 %
2165 23-12-2019 00:42:17 7 C 30 %
2166 23-12-2019 00:52:17 6.9 C 30 %
2167 23-12-2019 01:02:17 6.8 C 30 %
2168 23-12-2019 01:12:17 7.1 C 28 %
2169 23-12-2019 01:22:17 7 C 28 %
2170 23-12-2019 01:32:17 7.1 C 28 %
2171 23-12-2019 01:42:17 7.4 C 27 %
2172 23-12-2019 01:52:17 7.4 C 27 %
2173 23-12-2019 02:02:17 6.8 C 29 %
2174 23-12-2019 02:12:17 6.5 C 30 %
2175 23-12-2019 02:22:17 6.8 C 29 %
Sensor: Nr:Datum:Temp:Feuchte:
Aussen-T/F 2176 23-12-2019 02:32:17 6.9 C 29 %
2177 23-12-2019 02:42:17 7.3 C 28 %
2178 23-12-2019 02:52:17 6.9 C 30 %
2179 23-12-2019 03:02:17 6.8 C 31 %
2180 23-12-2019 03:12:17 6.4 C 31 %
2181 23-12-2019 03:22:17 6.5 C 30 %
2182 23-12-2019 03:32:17 7 C 28 %
2183 23-12-2019 03:42:17 6.6 C 29 %
2184 23-12-2019 03:52:17 7 C 28 %
2185 23-12-2019 04:02:17 6.9 C 30 %
2186 23-12-2019 04:12:17 7.1 C 28 %
2187 23-12-2019 04:22:17 6.8 C 30 %
2188 23-12-2019 04:32:17 6.9 C 31 %
2189 23-12-2019 04:42:17 6.5 C 31 %
2190 23-12-2019 04:52:17 6.1 C 31 %
2191 23-12-2019 05:02:17 6.4 C 32 %
2192 23-12-2019 05:12:17 7 C 30 %
2193 23-12-2019 05:22:17 7.1 C 30 %
2194 23-12-2019 05:32:17 7 C 30 %
2195 23-12-2019 05:42:17 6.8 C 31 %
2196 23-12-2019 05:52:17 6.3 C 32 %
2197 23-12-2019 06:02:18 6.3 C 34 %
2198 23-12-2019 06:12:18 6.6 C 33 %
2199 23-12-2019 06:22:17 6.9 C 31 %
2200 23-12-2019 06:32:18 7.1 C 30 %
Sensor: Nr:Datum:Temp:Feuchte:
Aussen-T/F 2201 23-12-2019 06:42:18 6.9 C 31 %
2202 23-12-2019 06:52:17 6.9 C 31 %
2203 23-12-2019 07:02:17 6.8 C 32 %
2204 23-12-2019 07:12:17 6.8 C 34 %
2205 23-12-2019 07:22:17 6.8 C 32 %
2206 23-12-2019 07:32:17 7.1 C 30 %
2207 23-12-2019 07:42:17 7.4 C 29 %
2208 23-12-2019 07:52:17 7.1 C 30 %
2209 23-12-2019 08:02:17 7.3 C 30 %
2210 23-12-2019 08:12:17 7.4 C 28 %
2211 23-12-2019 08:22:17 7.5 C 28 %
2212 23-12-2019 08:32:18 7.5 C 28 %
2213 23-12-2019 08:42:18 7.6 C 28 %
2214 23-12-2019 08:52:17 7.6 C 27 %
2215 23-12-2019 09:02:17 7.6 C 27 %
2216 23-12-2019 09:12:18 7.7 C 27 %
2217 23-12-2019 09:22:17 7.8 C 27 %
2218 23-12-2019 09:32:18 7.8 C 27 %
2219 23-12-2019 09:42:18 7.8 C 27 %
2220 23-12-2019 09:52:18 7.9 C 26 %
2221 23-12-2019 10:02:17 7.3 C 30 %
2222 23-12-2019 10:12:18 7 C 33 %
2223 23-12-2019 10:22:17 7 C 35 %
2224 23-12-2019 10:32:18 6.8 C 35 %
2225 23-12-2019 10:42:18 6.9 C 34 %
Sensor: Nr:Datum:Temp:Feuchte:
Aussen-T/F 2226 23-12-2019 10:52:17 7.4 C 30 %
2227 23-12-2019 11:02:18 7.8 C 28 %
2228 23-12-2019 11:12:18 8.1 C 28 %
2229 23-12-2019 11:22:17 8.4 C 26 %
2230 23-12-2019 11:32:18 8.3 C 26 %
2231 23-12-2019 11:42:18 8.6 C 26 %
2232 23-12-2019 11:52:17 8.9 C 25 %
2233 23-12-2019 12:02:18 9.1 C 25 %
2234 23-12-2019 12:12:18 9.1 C 25 %
2235 23-12-2019 12:22:17 8.9 C 25 %
2236 23-12-2019 12:32:17 9 C 25 %
2237 23-12-2019 12:42:17 9.3 C 25 %
2238 23-12-2019 12:52:17 8.4 C 26 %
2239 23-12-2019 13:02:17 8.4 C 26 %
2240 23-12-2019 13:12:17 8.3 C 27 %
2241 23-12-2019 13:22:17 8.2 C 27 %
2242 23-12-2019 13:32:18 8.1 C 29 %
2243 23-12-2019 13:42:18 8.2 C 28 %
2244 23-12-2019 13:52:17 8.5 C 28 %
2245 23-12-2019 14:02:17 8.9 C 27 %
2246 23-12-2019 14:12:17 8.9 C 26 %
2247 23-12-2019 14:22:18 9 C 25 %
2248 23-12-2019 14:32:17 9.1 C 25 %
2249 23-12-2019 14:42:17 9.1 C 25 %
2250 23-12-2019 14:52:17 8.9 C 25 %
Sensor: Nr:Datum:Temp:Feuchte:
Aussen-T/F 2251 23-12-2019 15:02:18 8.7 C 26 %
2252 23-12-2019 15:12:18 9.1 C 25 %
2253 23-12-2019 15:22:17 9.1 C 25 %
2254 23-12-2019 15:32:17 9 C 25 %
2255 23-12-2019 15:42:17 9 C 25 %
2256 23-12-2019 15:52:17 8.8 C 25 %
2257 23-12-2019 16:02:17 8.8 C 25 %
2258 23-12-2019 16:12:17 8.6 C 26 %
2259 23-12-2019 16:22:18 8.5 C 25 %
2260 23-12-2019 16:32:17 8.4 C 25 %
2261 23-12-2019 16:42:17 8.5 C 25 %
2262 23-12-2019 16:52:18 8.5 C 25 %
2263 23-12-2019 17:02:17 8.2 C 25 %
2264 23-12-2019 17:12:17 8.4 C 25 %
2265 23-12-2019 17:22:17 8 C 25 %
2266 23-12-2019 17:32:17 7.9 C 25 %
2267 23-12-2019 17:42:18 7.8 C 25 %
2268 23-12-2019 17:52:17 7.8 C 25 %
2269 23-12-2019 18:02:17 7.9 C 25 %
2270 23-12-2019 18:12:17 8 C 23 %
2271 23-12-2019 18:22:17 7.9 C 23 %
2272 23-12-2019 18:32:17 7.9 C 25 %
2273 23-12-2019 18:42:17 7.6 C 25 %
2274 23-12-2019 18:52:17 7.5 C 26 %
2275 23-12-2019 19:02:17 7.3 C 26 %
Sensor: Nr:Datum:Temp:Feuchte:
Aussen-T/F 2276 23-12-2019 19:12:17 6.7 C 29 %
2277 23-12-2019 19:22:17 6.4 C 30 %
2278 23-12-2019 19:32:17 7.4 C 26 %
2279 23-12-2019 19:42:17 7 C 26 %
2280 23-12-2019 19:52:17 7 C 27 %
2281 23-12-2019 20:02:17 7 C 28 %
2282 23-12-2019 20:12:17 6.5 C 30 %
2283 23-12-2019 20:22:17 6.8 C 30 %
2284 23-12-2019 20:32:18 6.8 C 30 %
2285 23-12-2019 20:42:18 6.9 C 30 %
2286 23-12-2019 20:52:17 6.9 C 30 %
2287 23-12-2019 21:02:18 6.7 C 30 %
2288 23-12-2019 21:12:18 7.1 C 28 %
2289 23-12-2019 21:22:17 7 C 28 %
2290 23-12-2019 21:32:17 6.7 C 31 %
2291 23-12-2019 21:42:17 6.5 C 31 %
2292 23-12-2019 21:52:17 6.5 C 32 %
2293 23-12-2019 22:02:18 6.4 C 31 %
2294 23-12-2019 22:12:18 5.8 C 32 %
2295 23-12-2019 22:22:17 5.4 C 37 %
2296 23-12-2019 22:32:17 5.7 C 33 %
2297 23-12-2019 22:42:17 5.3 C 34 %
2298 23-12-2019 22:52:17 5.5 C 34 %
2299 23-12-2019 23:02:17 5.4 C 33 %
2300 23-12-2019 23:12:17 5.5 C 32 %
Sensor: Nr:Datum:Temp:Feuchte:
Aussen-T/F 2301 23-12-2019 23:22:18 5.4 C 30 %
2302 23-12-2019 23:32:17 5.8 C 30 %
2303 23-12-2019 23:42:17 4.8 C 33 %
2304 23-12-2019 23:52:17 4.8 C 36 %
2305 24-12-2019 00:02:17 5.6 C 35 %
2306 24-12-2019 00:12:17 5.8 C 32 %
2307 24-12-2019 00:22:17 5.7 C 32 %
2308 24-12-2019 00:32:18 6 C 32 %
2309 24-12-2019 00:42:18 6.1 C 31 %
2310 24-12-2019 00:52:17 6.3 C 31 %
2311 24-12-2019 01:02:17 5.6 C 32 %
2312 24-12-2019 01:12:17 5.9 C 32 %
2313 24-12-2019 01:22:17 6.1 C 30 %
2314 24-12-2019 01:32:17 6.3 C 30 %
2315 24-12-2019 01:42:17 5.9 C 31 %
2316 24-12-2019 01:52:17 5.7 C 33 %
2317 24-12-2019 02:02:17 5.7 C 35 %
2318 24-12-2019 02:12:17 5.8 C 35 %
2319 24-12-2019 02:22:17 5.6 C 35 %
2320 24-12-2019 02:32:18 5.5 C 36 %
2321 24-12-2019 02:42:18 5.5 C 36 %
2322 24-12-2019 02:52:17 6.6 C 30 %
2323 24-12-2019 03:02:18 6.7 C 29 %
2324 24-12-2019 03:12:18 6.3 C 30 %
2325 24-12-2019 03:22:17 5.7 C 31 %
Sensor: Nr:Datum:Temp:Feuchte:
Aussen-T/F 2326 24-12-2019 03:32:17 5.5 C 31 %
2327 24-12-2019 03:42:17 5.7 C 31 %
2328 24-12-2019 03:52:17 5 C 32 %
2329 24-12-2019 04:02:17 5 C 38 %
2330 24-12-2019 04:12:17 5.2 C 37 %
2331 24-12-2019 04:22:17 5.2 C 36 %
2332 24-12-2019 04:32:17 4.8 C 37 %
2333 24-12-2019 04:42:17 4.8 C 39 %
2334 24-12-2019 04:52:17 5.3 C 38 %
2335 24-12-2019 05:02:18 5.4 C 35 %
2336 24-12-2019 05:12:18 5.2 C 35 %
2337 24-12-2019 05:22:17 4.7 C 37 %
2338 24-12-2019 05:32:18 5 C 37 %
2339 24-12-2019 05:42:18 4.6 C 36 %
2340 24-12-2019 05:52:17 4.9 C 37 %
2341 24-12-2019 06:02:18 4.3 C 36 %
2342 24-12-2019 06:12:18 4.6 C 39 %
2343 24-12-2019 06:22:17 4.6 C 38 %
2344 24-12-2019 06:32:17 4.6 C 39 %
2345 24-12-2019 06:42:17 4.5 C 38 %
2346 24-12-2019 06:52:17 4.5 C 39 %
2347 24-12-2019 07:02:17 4.8 C 37 %
2348 24-12-2019 07:12:17 5 C 36 %
2349 24-12-2019 07:22:17 5.4 C 34 %
2350 24-12-2019 07:32:17 5.6 C 33 %
Sensor: Nr:Datum:Temp:Feuchte:
Aussen-T/F 2351 24-12-2019 07:42:17 5.6 C 32 %
2352 24-12-2019 07:52:17 5.8 C 32 %
2353 24-12-2019 08:02:17 5.8 C 31 %
2354 24-12-2019 08:12:17 6 C 30 %
2355 24-12-2019 08:22:17 6.2 C 29 %
2356 24-12-2019 08:32:17 6.2 C 30 %
2357 24-12-2019 08:42:17 6.3 C 30 %
2358 24-12-2019 08:52:18 6.4 C 30 %
2359 24-12-2019 09:02:17 6.5 C 29 %
2360 24-12-2019 09:12:17 6.8 C 29 %
2361 24-12-2019 09:22:17 6.8 C 28 %
2362 24-12-2019 09:32:17 6.8 C 29 %
2363 24-12-2019 09:42:17 6.8 C 28 %
2364 24-12-2019 09:52:17 6.5 C 30 %
2365 24-12-2019 10:02:17 6.4 C 30 %
2366 24-12-2019 10:12:17 6.2 C 31 %
2367 24-12-2019 10:22:17 6.2 C 33 %
2368 24-12-2019 10:32:17 6.3 C 37 %
2369 24-12-2019 10:42:17 6.8 C 37 %
2370 24-12-2019 10:52:17 6.7 C 33 %
2371 24-12-2019 11:02:17 6.8 C 35 %
2372 24-12-2019 11:12:17 6.9 C 34 %
2373 24-12-2019 11:22:17 7.5 C 32 %
2374 24-12-2019 11:32:17 8 C 30 %
2375 24-12-2019 11:42:17 8.2 C 29 %
Sensor: Nr:Datum:Temp:Feuchte:
Aussen-T/F 2376 24-12-2019 11:52:18 8 C 29 %
2377 24-12-2019 12:02:17 7.8 C 30 %
2378 24-12-2019 12:12:17 7.6 C 30 %
2379 24-12-2019 12:22:17 8 C 28 %
2380 24-12-2019 12:32:17 8.2 C 27 %
2381 24-12-2019 12:42:17 8.4 C 27 %
2382 24-12-2019 12:52:18 8.9 C 27 %
2383 24-12-2019 13:02:17 9.2 C 25 %
2384 24-12-2019 13:12:17 9.3 C 25 %
2385 24-12-2019 13:22:17 9.3 C 25 %
2386 24-12-2019 13:32:17 9.2 C 26 %
2387 24-12-2019 13:42:17 9.3 C 26 %
2388 24-12-2019 13:52:17 9.3 C 26 %
2389 24-12-2019 14:02:18 9.4 C 25 %
2390 24-12-2019 14:12:18 9.5 C 25 %
2391 24-12-2019 14:22:17 9.6 C 25 %
2392 24-12-2019 14:32:18 9.7 C 25 %
2393 24-12-2019 14:42:18 9.3 C 26 %
2394 24-12-2019 14:52:17 9.2 C 27 %
2395 24-12-2019 15:02:18 9.1 C 27 %
2396 24-12-2019 15:12:18 9.5 C 26 %
2397 24-12-2019 15:22:17 9.8 C 25 %
2398 24-12-2019 15:32:17 10 C 22 %
2399 24-12-2019 15:42:17 10.1 C 20 %
2400 24-12-2019 15:52:17 10.5 C 20 %
Sensor: Nr:Datum:Temp:Feuchte:
Aussen-T/F 2401 24-12-2019 16:02:17 10.1 C 20 %
2402 24-12-2019 16:12:17 10 C 20 %
2403 24-12-2019 16:22:17 10.2 C 20 %
2404 24-12-2019 16:32:17 9.8 C 20 %
2405 24-12-2019 16:42:17 9.7 C 21 %
2406 24-12-2019 16:52:17 10.1 C 20 %
2407 24-12-2019 17:02:17 9.8 C 20 %
2408 24-12-2019 17:12:17 9.4 C 20 %
2409 24-12-2019 17:22:18 9.6 C 20 %
2410 24-12-2019 17:32:17 8.8 C 20 %
2411 24-12-2019 17:42:17 9.1 C 20 %
2412 24-12-2019 17:52:17 9.3 C 20 %
2413 24-12-2019 18:02:17 9 C 20 %
2414 24-12-2019 18:12:17 8.5 C 26 %
2415 24-12-2019 18:22:17 8.9 C 25 %
2416 24-12-2019 18:32:17 8.2 C 28 %
2417 24-12-2019 18:42:17 7.8 C 31 %
2418 24-12-2019 18:52:17 7.5 C 35 %
2419 24-12-2019 19:02:17 7.6 C 31 %
2420 24-12-2019 19:12:17 7.3 C 31 %
2421 24-12-2019 19:22:17 6.7 C 35 %
2422 24-12-2019 19:32:17 6.5 C 40 %
2423 24-12-2019 19:42:17 6.5 C 36 %
2424 24-12-2019 19:52:17 6.2 C 36 %
2425 24-12-2019 20:02:17 6.7 C 35 %
Sensor: Nr:Datum:Temp:Feuchte:
Aussen-T/F 2426 24-12-2019 20:12:17 7.3 C 30 %
2427 24-12-2019 20:22:17 7.2 C 32 %
2428 24-12-2019 20:32:18 7.1 C 30 %
2429 24-12-2019 20:42:18 7.3 C 31 %
2430 24-12-2019 20:52:17 7.3 C 30 %
2431 24-12-2019 21:02:17 7.1 C 31 %
2432 24-12-2019 21:12:17 7.7 C 30 %
2433 24-12-2019 21:22:17 7.4 C 30 %
2434 24-12-2019 21:32:17 7.6 C 30 %
2435 24-12-2019 21:42:17 7.9 C 29 %
2436 24-12-2019 21:52:17 8.1 C 28 %
2437 24-12-2019 22:02:17 8.6 C 26 %
2438 24-12-2019 22:12:17 8.5 C 26 %
2439 24-12-2019 22:22:17 8.3 C 26 %
2440 24-12-2019 22:32:17 8.4 C 26 %
2441 24-12-2019 22:42:17 8.2 C 27 %
2442 24-12-2019 22:52:17 8 C 28 %
2443 24-12-2019 23:02:17 8.4 C 27 %
2444 24-12-2019 23:12:17 8.4 C 27 %
2445 24-12-2019 23:22:17 8.4 C 27 %
2446 24-12-2019 23:32:17 8.5 C 27 %
2447 24-12-2019 23:42:17 8.5 C 27 %
2448 24-12-2019 23:52:17 8.4 C 27 %
2449 25-12-2019 00:02:17 8.4 C 27 %
2450 25-12-2019 00:12:17 8.4 C 27 %
Sensor: Nr:Datum:Temp:Feuchte:
Aussen-T/F 2451 25-12-2019 00:22:17 8.4 C 28 %
2452 25-12-2019 00:32:17 8.3 C 28 %
2453 25-12-2019 00:42:18 8.2 C 29 %
2454 25-12-2019 00:52:17 8.2 C 29 %
2455 25-12-2019 01:02:17 7.8 C 32 %
2456 25-12-2019 01:12:17 7.7 C 33 %
2457 25-12-2019 01:22:17 7.5 C 35 %
2458 25-12-2019 01:32:18 7.3 C 35 %
2459 25-12-2019 01:42:18 7.5 C 35 %
2460 25-12-2019 01:52:17 7.6 C 33 %
2461 25-12-2019 02:02:17 7.7 C 32 %
2462 25-12-2019 02:12:17 8 C 31 %
2463 25-12-2019 02:22:17 7.9 C 31 %
2464 25-12-2019 02:32:18 7.9 C 31 %
2465 25-12-2019 02:42:18 7.9 C 31 %
2466 25-12-2019 02:52:17 7.9 C 31 %
2467 25-12-2019 03:02:17 7.8 C 31 %
2468 25-12-2019 03:12:17 7.9 C 32 %
2469 25-12-2019 03:22:17 8.1 C 31 %
2470 25-12-2019 03:32:17 8.3 C 30 %
2471 25-12-2019 03:42:17 8.2 C 30 %
2472 25-12-2019 03:52:18 8.2 C 30 %
2473 25-12-2019 04:02:17 7.9 C 34 %
2474 25-12-2019 04:12:17 8 C 34 %
2475 25-12-2019 04:22:18 7.9 C 35 %
Sensor: Nr:Datum:Temp:Feuchte:
Aussen-T/F 2476 25-12-2019 04:32:17 7.9 C 36 %
2477 25-12-2019 04:42:17 7.9 C 38 %
2478 25-12-2019 04:52:17 7.9 C 36 %
2479 25-12-2019 05:02:17 7.9 C 37 %
2480 25-12-2019 05:12:17 7.8 C 37 %
2481 25-12-2019 05:22:18 7.6 C 38 %
2482 25-12-2019 05:32:17 8 C 36 %
2483 25-12-2019 05:42:17 7.9 C 35 %
2484 25-12-2019 05:52:17 7.5 C 35 %
2485 25-12-2019 06:02:18 7.5 C 35 %
2486 25-12-2019 06:12:18 7.2 C 36 %
2487 25-12-2019 06:22:17 7.2 C 37 %
2488 25-12-2019 06:32:18 7.3 C 37 %
2489 25-12-2019 06:42:18 7.3 C 36 %
2490 25-12-2019 06:52:17 7.1 C 39 %
2491 25-12-2019 07:02:18 7.3 C 33 %
2492 25-12-2019 07:12:18 7.1 C 32 %
2493 25-12-2019 07:22:17 6.9 C 35 %
2494 25-12-2019 07:32:18 6.8 C 38 %
2495 25-12-2019 07:42:18 6.9 C 38 %
2496 25-12-2019 07:52:17 7 C 35 %
2497 25-12-2019 08:02:18 6.8 C 32 %
2498 25-12-2019 08:12:18 6.4 C 32 %
2499 25-12-2019 08:22:17 6.2 C 33 %
2500 25-12-2019 08:32:17 6.2 C 32 %
Sensor: Nr:Datum:Temp:Feuchte:
Aussen-T/F 2501 25-12-2019 08:42:17 6.5 C 32 %
2502 25-12-2019 08:52:17 6.7 C 31 %
2503 25-12-2019 09:02:17 6.9 C 30 %
2504 25-12-2019 09:12:17 6.9 C 30 %
2505 25-12-2019 09:22:18 6.8 C 30 %
2506 25-12-2019 09:32:17 7.3 C 28 %
2507 25-12-2019 09:42:17 7.3 C 27 %
2508 25-12-2019 09:52:17 7.3 C 27 %
2509 25-12-2019 10:02:17 7.1 C 29 %
2510 25-12-2019 10:12:17 7.3 C 27 %
2511 25-12-2019 10:22:18 7.6 C 26 %
2512 25-12-2019 10:32:17 7.7 C 26 %
2513 25-12-2019 10:42:17 7.8 C 25 %
2514 25-12-2019 10:52:17 7.5 C 26 %
2515 25-12-2019 11:02:17 7.5 C 26 %
2516 25-12-2019 11:12:17 7.5 C 26 %
2517 25-12-2019 11:22:17 7.7 C 26 %
2518 25-12-2019 11:32:17 7.4 C 26 %
2519 25-12-2019 11:42:17 7.4 C 27 %
2520 25-12-2019 11:52:18 7.1 C 28 %
2521 25-12-2019 12:02:17 7.1 C 29 %
2522 25-12-2019 12:12:17 7.6 C 27 %
2523 25-12-2019 12:22:17 7.6 C 27 %
2524 25-12-2019 12:32:17 7.7 C 27 %
2525 25-12-2019 12:42:17 7.8 C 27 %
Sensor: Nr:Datum:Temp:Feuchte:
Aussen-T/F 2526 25-12-2019 12:52:18 7.6 C 27 %
2527 25-12-2019 13:02:17 7.1 C 29 %
2528 25-12-2019 13:12:17 7 C 31 %
2529 25-12-2019 13:22:18 6.9 C 31 %
2530 25-12-2019 13:32:17 7.1 C 30 %
2531 25-12-2019 13:42:17 7 C 30 %
2532 25-12-2019 13:52:17 6.9 C 30 %
2533 25-12-2019 14:02:17 7.1 C 30 %
2534 25-12-2019 14:12:17 7.4 C 29 %
2535 25-12-2019 14:22:18 7.6 C 28 %
2536 25-12-2019 14:32:17 7.7 C 29 %
2537 25-12-2019 14:42:17 7.6 C 29 %
2538 25-12-2019 14:52:17 7.1 C 31 %
2539 25-12-2019 15:02:17 7.1 C 32 %
2540 25-12-2019 15:12:17 7.1 C 30 %
2541 25-12-2019 15:22:18 7.1 C 31 %
2542 25-12-2019 15:32:17 7.4 C 30 %
2543 25-12-2019 15:42:17 7.3 C 31 %
2544 25-12-2019 15:52:17 7.2 C 30 %
2545 25-12-2019 16:02:17 7.2 C 30 %
2546 25-12-2019 16:12:17 6.9 C 31 %
2547 25-12-2019 16:22:17 6.8 C 32 %
2548 25-12-2019 16:32:17 6.7 C 35 %
2549 25-12-2019 16:42:17 6.9 C 32 %
2550 25-12-2019 16:52:17 6.9 C 31 %
Sensor: Nr:Datum:Temp:Feuchte:
Aussen-T/F 2551 25-12-2019 17:02:17 6.8 C 30 %
2552 25-12-2019 17:12:17 6.7 C 30 %
2553 25-12-2019 17:22:18 6.6 C 31 %
2554 25-12-2019 17:32:17 6.2 C 31 %
2555 25-12-2019 17:42:17 5.7 C 35 %
2556 25-12-2019 17:52:18 5.9 C 35 %
2557 25-12-2019 18:02:17 6 C 33 %
2558 25-12-2019 18:12:17 6.1 C 32 %
2559 25-12-2019 18:22:17 6.2 C 33 %
2560 25-12-2019 18:32:17 6.2 C 33 %
2561 25-12-2019 18:42:17 6.2 C 32 %
2562 25-12-2019 18:52:17 6.2 C 32 %
2563 25-12-2019 19:02:17 6 C 33 %
2564 25-12-2019 19:12:17 5.9 C 33 %
2565 25-12-2019 19:22:17 6.1 C 32 %
2566 25-12-2019 19:32:18 6.1 C 32 %
2567 25-12-2019 19:42:18 6 C 33 %
2568 25-12-2019 19:52:17 5.9 C 33 %
2569 25-12-2019 20:02:17 5.8 C 35 %
2570 25-12-2019 20:12:17 5.9 C 35 %
2571 25-12-2019 20:22:18 5.9 C 34 %
2572 25-12-2019 20:32:17 5.8 C 34 %
2573 25-12-2019 20:42:17 5.6 C 37 %
2574 25-12-2019 20:52:17 5.5 C 38 %
2575 25-12-2019 21:02:18 5.5 C 38 %
Sensor: Nr:Datum:Temp:Feuchte:
Aussen-T/F 2576 25-12-2019 21:12:18 5.4 C 40 %
2577 25-12-2019 21:22:17 5.3 C 41 %
2578 25-12-2019 21:32:17 5.3 C 43 %
2579 25-12-2019 21:42:17 5.3 C 42 %
2580 25-12-2019 21:52:17 5.2 C 42 %
2581 25-12-2019 22:02:18 5.2 C 42 %
2582 25-12-2019 22:12:18 5.1 C 43 %
2583 25-12-2019 22:22:17 5.2 C 42 %
2584 25-12-2019 22:32:18 5.1 C 41 %
2585 25-12-2019 22:42:18 5.1 C 42 %
2586 25-12-2019 22:52:17 5.2 C 42 %
2587 25-12-2019 23:02:18 5.2 C 42 %
2588 25-12-2019 23:12:18 5.2 C 42 %
2589 25-12-2019 23:22:17 5.2 C 42 %
2590 25-12-2019 23:32:17 5.1 C 42 %
2591 25-12-2019 23:42:17 4.7 C 42 %
2592 25-12-2019 23:52:17 4.5 C 42 %
2593 26-12-2019 00:02:17 4.6 C 43 %
2594 26-12-2019 00:12:18 4 C 42 %
2595 26-12-2019 00:22:17 3.6 C 42 %
2596 26-12-2019 00:32:18 3.9 C 44 %
2597 26-12-2019 00:42:18 3.9 C 44 %
2598 26-12-2019 00:52:17 4.1 C 43 %
2599 26-12-2019 01:02:18 4.4 C 43 %
2600 26-12-2019 01:12:18 4.3 C 43 %
Sensor: Nr:Datum:Temp:Feuchte:
Aussen-T/F 2601 26-12-2019 01:22:17 4.3 C 43 %
2602 26-12-2019 01:32:17 4.4 C 43 %
2603 26-12-2019 01:42:17 4.4 C 43 %
2604 26-12-2019 01:52:17 4.3 C 42 %
2605 26-12-2019 02:02:18 4.3 C 42 %
2606 26-12-2019 02:12:18 4.4 C 42 %
2607 26-12-2019 02:22:17 4.2 C 42 %
2608 26-12-2019 02:32:17 4 C 42 %
2609 26-12-2019 02:42:17 4 C 42 %
2610 26-12-2019 02:52:17 4.2 C 42 %
2611 26-12-2019 03:02:18 4.2 C 42 %
2612 26-12-2019 03:12:18 4.1 C 42 %
2613 26-12-2019 03:22:17 4.1 C 42 %
2614 26-12-2019 03:32:17 4.1 C 42 %
2615 26-12-2019 03:42:17 4.1 C 42 %
2616 26-12-2019 03:52:17 3.9 C 43 %
2617 26-12-2019 04:02:17 3.6 C 42 %
2618 26-12-2019 04:12:17 3.6 C 42 %
2619 26-12-2019 04:22:18 3.4 C 42 %
2620 26-12-2019 04:32:17 3 C 42 %
2621 26-12-2019 04:42:17 3.1 C 42 %
2622 26-12-2019 04:52:17 3.1 C 43 %
2623 26-12-2019 05:02:17 3.3 C 43 %
2624 26-12-2019 05:12:17 3.5 C 43 %
2625 26-12-2019 05:22:17 3.4 C 43 %
Sensor: Nr:Datum:Temp:Feuchte:
Aussen-T/F 2626 26-12-2019 05:32:18 3.5 C 43 %
2627 26-12-2019 05:42:18 3.4 C 43 %
2628 26-12-2019 05:52:17 3.5 C 43 %
2629 26-12-2019 06:02:17 3.6 C 43 %
2630 26-12-2019 06:12:18 3.6 C 43 %
2631 26-12-2019 06:22:17 3.5 C 43 %
2632 26-12-2019 06:32:18 3.6 C 43 %
2633 26-12-2019 06:42:18 3.5 C 43 %
2634 26-12-2019 06:52:17 3.5 C 43 %
2635 26-12-2019 07:02:18 3.5 C 43 %
2636 26-12-2019 07:12:18 3.5 C 43 %
2637 26-12-2019 07:22:17 3.4 C 43 %
2638 26-12-2019 07:32:17 3.4 C 43 %
2639 26-12-2019 07:42:17 3.4 C 43 %
2640 26-12-2019 07:52:17 3.4 C 43 %
2641 26-12-2019 08:02:18 3.4 C 43 %
2642 26-12-2019 08:12:18 3.4 C 43 %
2643 26-12-2019 08:22:17 3.5 C 43 %
2644 26-12-2019 08:32:17 3.4 C 43 %
2645 26-12-2019 08:42:17 3.4 C 43 %
2646 26-12-2019 08:52:17 3.5 C 43 %
2647 26-12-2019 09:02:17 3.5 C 43 %
2648 26-12-2019 09:12:17 3.5 C 43 %
2649 26-12-2019 09:22:17 3.4 C 42 %
2650 26-12-2019 09:32:17 3.5 C 43 %
Sensor: Nr:Datum:Temp:Feuchte:
Aussen-T/F 2651 26-12-2019 09:42:17 3.6 C 42 %
2652 26-12-2019 09:52:18 3.6 C 42 %
2653 26-12-2019 10:02:17 3.6 C 42 %
2654 26-12-2019 10:12:17 3.6 C 42 %
2655 26-12-2019 10:22:18 3.8 C 42 %
2656 26-12-2019 10:32:17 4 C 41 %
2657 26-12-2019 10:42:17 4.3 C 41 %
2658 26-12-2019 10:52:18 4.5 C 41 %
2659 26-12-2019 11:02:17 4.7 C 41 %
2660 26-12-2019 11:12:17 4.8 C 41 %
2661 26-12-2019 11:22:17 5 C 40 %
2662 26-12-2019 11:32:17 5.4 C 40 %
2663 26-12-2019 11:42:17 5.5 C 39 %
2664 26-12-2019 11:52:17 5.6 C 37 %
2665 26-12-2019 12:02:17 5.7 C 36 %
2666 26-12-2019 12:12:17 5.7 C 36 %
2667 26-12-2019 12:22:17 5.7 C 35 %
2668 26-12-2019 12:32:18 5.9 C 35 %
2669 26-12-2019 12:42:18 6 C 35 %
2670 26-12-2019 12:52:17 6 C 36 %
2671 26-12-2019 13:02:18 5.9 C 36 %
2672 26-12-2019 13:12:18 5.9 C 37 %
2673 26-12-2019 13:22:17 5.8 C 36 %
2674 26-12-2019 13:32:18 5.8 C 36 %
2675 26-12-2019 13:42:18 5.7 C 36 %
Sensor: Nr:Datum:Temp:Feuchte:
Aussen-T/F 2676 26-12-2019 13:52:17 5.7 C 36 %
2677 26-12-2019 14:02:18 5.7 C 36 %
2678 26-12-2019 14:12:18 5.8 C 35 %
2679 26-12-2019 14:22:17 6 C 35 %
2680 26-12-2019 14:32:17 6 C 35 %
2681 26-12-2019 14:42:17 5.7 C 35 %
2682 26-12-2019 14:52:17 5.6 C 36 %
2683 26-12-2019 15:02:17 5.5 C 36 %
2684 26-12-2019 15:12:17 5.4 C 36 %
2685 26-12-2019 15:22:17 5.1 C 38 %
2686 26-12-2019 15:32:17 5 C 37 %
2687 26-12-2019 15:42:17 4.8 C 39 %
2688 26-12-2019 15:52:18 4.8 C 39 %
2689 26-12-2019 16:02:17 4.7 C 38 %
2690 26-12-2019 16:12:17 4.6 C 39 %
2691 26-12-2019 16:22:17 4.5 C 40 %
2692 26-12-2019 16:32:17 4.4 C 41 %
2693 26-12-2019 16:42:18 4.4 C 40 %
2694 26-12-2019 16:53:17 4.3 C 41 %
2695 26-12-2019 17:02:17 4.4 C 40 %
2696 26-12-2019 17:12:17 4.3 C 40 %
2697 26-12-2019 17:22:17 4.3 C 40 %
2698 26-12-2019 17:32:17 4.4 C 40 %
2699 26-12-2019 17:42:17 4.1 C 40 %
2700 26-12-2019 17:52:17 4.1 C 40 %
Sensor: Nr:Datum:Temp:Feuchte:
Aussen-T/F 2701 26-12-2019 18:02:17 4 C 40 %
2702 26-12-2019 18:12:17 4 C 41 %
2703 26-12-2019 18:22:17 4.1 C 41 %
2704 26-12-2019 18:32:17 4.1 C 41 %
2705 26-12-2019 18:42:18 4.1 C 40 %
2706 26-12-2019 18:53:17 4.1 C 40 %
2707 26-12-2019 19:02:17 4 C 40 %
2708 26-12-2019 19:12:17 4 C 41 %
2709 26-12-2019 19:23:17 4 C 41 %
2710 26-12-2019 19:32:17 3.8 C 41 %
2711 26-12-2019 19:42:17 4 C 41 %
2712 26-12-2019 19:53:17 3.8 C 41 %
2713 26-12-2019 20:02:17 3.8 C 42 %
2714 26-12-2019 20:12:17 3.9 C 42 %
2715 26-12-2019 20:23:17 4 C 41 %
2716 26-12-2019 20:32:17 4.1 C 40 %
2717 26-12-2019 20:42:17 4.2 C 39 %
2718 26-12-2019 20:53:17 4.1 C 38 %
2719 26-12-2019 21:02:17 4.3 C 37 %
2720 26-12-2019 21:12:17 4.2 C 38 %
2721 26-12-2019 21:23:17 4.1 C 38 %
2722 26-12-2019 21:32:18 4.1 C 38 %
2723 26-12-2019 21:42:18 4.2 C 37 %
2724 26-12-2019 21:52:17 4.3 C 37 %
2725 26-12-2019 22:02:18 4.1 C 39 %
Sensor: Nr:Datum:Temp:Feuchte:
Aussen-T/F 2726 26-12-2019 22:12:18 4.1 C 41 %
2727 26-12-2019 22:22:17 4.1 C 41 %
2728 26-12-2019 22:33:17 4.1 C 41 %
2729 26-12-2019 22:43:17 4.1 C 42 %
2730 26-12-2019 22:52:17 4.1 C 42 %
2731 26-12-2019 23:03:17 4.1 C 43 %
2732 26-12-2019 23:13:17 4.1 C 43 %
2733 26-12-2019 23:23:17 4 C 43 %
2734 26-12-2019 23:32:17 4 C 43 %
2735 26-12-2019 23:42:17 4 C 42 %
2736 26-12-2019 23:53:17 4 C 42 %
2737 27-12-2019 00:02:17 4 C 42 %
2738 27-12-2019 00:12:17 4 C 42 %
2739 27-12-2019 00:23:17 4 C 42 %
2740 27-12-2019 00:32:17 4 C 42 %
2741 27-12-2019 00:42:18 4.1 C 42 %
2742 27-12-2019 00:53:17 4.1 C 42 %
2743 27-12-2019 01:03:18 4.1 C 42 %
2744 27-12-2019 01:13:18 4.1 C 42 %
2745 27-12-2019 01:23:17 4.1 C 42 %
2746 27-12-2019 01:33:17 4.1 C 42 %
2747 27-12-2019 01:43:17 4.1 C 42 %
2748 27-12-2019 01:53:18 4.1 C 42 %
2749 27-12-2019 02:03:17 4.1 C 42 %
2750 27-12-2019 02:13:17 4.1 C 42 %
Sensor: Nr:Datum:Temp:Feuchte:
Aussen-T/F 2751 27-12-2019 02:23:17 4.1 C 42 %
2752 27-12-2019 02:33:18 4.1 C 42 %
2753 27-12-2019 02:43:19 4.1 C 42 %
2754 27-12-2019 02:53:17 4.2 C 42 %
2755 27-12-2019 03:03:17 4.3 C 42 %
2756 27-12-2019 03:13:17 4.2 C 42 %
2757 27-12-2019 03:23:17 4.3 C 42 %
2758 27-12-2019 03:33:17 4.3 C 42 %
2759 27-12-2019 03:43:18 4.3 C 42 %
2760 27-12-2019 03:53:17 4.3 C 42 %
2761 27-12-2019 04:03:17 4.3 C 42 %
2762 27-12-2019 04:13:17 4.3 C 42 %
2763 27-12-2019 04:23:17 4.3 C 42 %
2764 27-12-2019 04:33:17 4.3 C 42 %
2765 27-12-2019 04:43:17 4.3 C 42 %
2766 27-12-2019 04:53:18 4.4 C 42 %
2767 27-12-2019 05:03:17 4.4 C 42 %
2768 27-12-2019 05:13:17 4.4 C 42 %
2769 27-12-2019 05:23:17 4.4 C 42 %
2770 27-12-2019 05:33:17 4.3 C 42 %
2771 27-12-2019 05:43:17 4.4 C 42 %
2772 27-12-2019 05:53:17 4.4 C 42 %
2773 27-12-2019 06:03:17 4.4 C 42 %
2774 27-12-2019 06:13:17 4.4 C 42 %
2775 27-12-2019 06:23:17 4.4 C 42 %
Sensor: Nr:Datum:Temp:Feuchte:
Aussen-T/F 2776 27-12-2019 06:33:17 4.4 C 42 %
2777 27-12-2019 06:43:17 4.4 C 42 %
2778 27-12-2019 06:53:17 4.4 C 42 %
2779 27-12-2019 07:03:17 4.5 C 42 %
2780 27-12-2019 07:13:17 4.4 C 42 %
2781 27-12-2019 07:23:18 4.4 C 42 %
2782 27-12-2019 07:33:17 4.4 C 42 %
2783 27-12-2019 07:43:17 4.4 C 42 %
2784 27-12-2019 07:53:17 4.3 C 42 %
2785 27-12-2019 08:03:17 4.3 C 42 %
2786 27-12-2019 08:13:17 4.3 C 42 %
2787 27-12-2019 08:23:17 4.3 C 42 %
2788 27-12-2019 08:33:17 4.3 C 42 %
2789 27-12-2019 08:43:17 4.3 C 42 %
2790 27-12-2019 08:53:18 4.3 C 42 %
2791 27-12-2019 09:03:17 4.4 C 42 %
2792 27-12-2019 09:13:17 4.4 C 42 %
2793 27-12-2019 09:23:17 4.3 C 42 %
2794 27-12-2019 09:33:17 4.5 C 42 %
2795 27-12-2019 09:43:17 4.6 C 42 %
2796 27-12-2019 09:53:17 4.8 C 41 %
2797 27-12-2019 10:03:17 4.9 C 41 %
2798 27-12-2019 10:13:17 4.8 C 40 %
2799 27-12-2019 10:23:17 4.8 C 40 %
2800 27-12-2019 10:33:18 4.9 C 40 %
Sensor: Nr:Datum:Temp:Feuchte:
Aussen-T/F 2801 27-12-2019 10:43:18 4.9 C 40 %
2802 27-12-2019 10:53:17 5 C 38 %
2803 27-12-2019 11:03:18 5 C 38 %
2804 27-12-2019 11:13:18 5.1 C 37 %
2805 27-12-2019 11:23:17 5.1 C 37 %
2806 27-12-2019 11:33:17 5.2 C 36 %
2807 27-12-2019 11:43:17 5.7 C 33 %
2808 27-12-2019 11:53:17 6 C 31 %
2809 27-12-2019 12:03:17 6.1 C 31 %
2810 27-12-2019 12:13:17 5.9 C 31 %
2811 27-12-2019 12:23:17 5.9 C 31 %
2812 27-12-2019 12:33:17 6 C 31 %
2813 27-12-2019 12:43:17 6 C 31 %
2814 27-12-2019 12:53:17 5.9 C 31 %
2815 27-12-2019 13:03:17 5.7 C 31 %
2816 27-12-2019 13:13:17 5.7 C 31 %
2817 27-12-2019 13:23:17 5.6 C 31 %
2818 27-12-2019 13:33:17 5.7 C 31 %
2819 27-12-2019 13:43:17 5.7 C 30 %
2820 27-12-2019 13:53:17 5.8 C 30 %
2821 27-12-2019 14:03:18 5.9 C 30 %
2822 27-12-2019 14:13:18 6.1 C 29 %
2823 27-12-2019 14:23:18 5.9 C 29 %
2824 27-12-2019 14:33:17 6 C 30 %
2825 27-12-2019 14:43:17 5.9 C 28 %
Sensor: Nr:Datum:Temp:Feuchte:
Aussen-T/F 2826 27-12-2019 14:53:18 5.8 C 26 %
2827 27-12-2019 15:03:17 5.7 C 27 %
2828 27-12-2019 15:13:17 5.7 C 28 %
2829 27-12-2019 15:23:18 5.6 C 29 %
2830 27-12-2019 15:33:17 5.6 C 29 %
2831 27-12-2019 15:43:17 5.4 C 30 %
2832 27-12-2019 15:53:17 5.3 C 31 %
2833 27-12-2019 16:03:17 5.1 C 33 %
2834 27-12-2019 16:13:17 4.9 C 33 %
2835 27-12-2019 16:23:17 4.9 C 33 %
2836 27-12-2019 16:33:17 4.8 C 34 %
2837 27-12-2019 16:43:17 4.7 C 33 %
2838 27-12-2019 16:53:17 4.6 C 34 %
2839 27-12-2019 17:03:17 4.5 C 34 %
2840 27-12-2019 17:13:17 4.5 C 35 %
2841 27-12-2019 17:23:17 4.5 C 33 %
2842 27-12-2019 17:33:18 4.5 C 34 %
2843 27-12-2019 17:43:18 4.5 C 34 %
2844 27-12-2019 17:53:17 4.4 C 34 %
2845 27-12-2019 18:03:18 4.4 C 33 %
2846 27-12-2019 18:13:18 4.4 C 33 %
2847 27-12-2019 18:23:17 4.4 C 32 %
2848 27-12-2019 18:33:18 4.4 C 34 %
2849 27-12-2019 18:43:18 4.3 C 34 %
2850 27-12-2019 18:53:17 4.2 C 33 %
Sensor: Nr:Datum:Temp:Feuchte:
Aussen-T/F 2851 27-12-2019 19:03:17 4.2 C 33 %
2852 27-12-2019 19:13:17 4.2 C 33 %
2853 27-12-2019 19:23:17 4.3 C 32 %
2854 27-12-2019 19:33:17 4.2 C 33 %
2855 27-12-2019 19:43:17 4.1 C 34 %
2856 27-12-2019 19:53:18 3.9 C 35 %
2857 27-12-2019 20:03:17 3.8 C 34 %
2858 27-12-2019 20:13:17 4 C 32 %
2859 27-12-2019 20:23:17 4 C 32 %
2860 27-12-2019 20:33:18 4 C 32 %
2861 27-12-2019 20:43:18 4 C 31 %
2862 27-12-2019 20:53:17 4.1 C 31 %
2863 27-12-2019 21:03:18 4.1 C 31 %
2864 27-12-2019 21:13:18 4 C 31 %
2865 27-12-2019 21:23:17 4 C 31 %
2866 27-12-2019 21:33:18 3.9 C 33 %
2867 27-12-2019 21:43:18 3.9 C 32 %
2868 27-12-2019 21:53:17 3.7 C 32 %
2869 27-12-2019 22:03:17 3.6 C 32 %
2870 27-12-2019 22:13:17 3.3 C 32 %
2871 27-12-2019 22:23:17 3.2 C 32 %
2872 27-12-2019 22:33:17 2.7 C 33 %
2873 27-12-2019 22:43:17 2.2 C 34 %
2874 27-12-2019 22:53:17 2 C 35 %
2875 27-12-2019 23:03:18 1.7 C 38 %
Sensor: Nr:Datum:Temp:Feuchte:
Aussen-T/F 2876 27-12-2019 23:13:18 1.3 C 39 %
2877 27-12-2019 23:23:17 1.2 C 41 %
2878 27-12-2019 23:33:17 0.9 C 42 %
2879 27-12-2019 23:43:17 0.8 C 41 %
2880 27-12-2019 23:53:17 0.7 C 41 %
2881 28-12-2019 00:03:17 0.5 C 40 %
2882 28-12-2019 00:13:17 0.4 C 41 %
2883 28-12-2019 00:23:18 0.4 C 41 %
2884 28-12-2019 00:33:17 0.3 C 41 %
2885 28-12-2019 00:43:17 0.3 C 41 %
2886 28-12-2019 00:53:17 0.2 C 40 %
2887 28-12-2019 01:03:17 0.1 C 40 %
2888 28-12-2019 01:13:17 -0.2 C 43 %
2889 28-12-2019 01:23:17 -0.5 C 43 %
2890 28-12-2019 01:33:17 -0.3 C 44 %
2891 28-12-2019 01:43:17 -0.7 C 42 %
2892 28-12-2019 01:53:17 -1.1 C 43 %
2893 28-12-2019 02:03:17 -1.3 C 45 %
2894 28-12-2019 02:13:17 -1.5 C 44 %
2895 28-12-2019 02:23:17 -1.7 C 44 %
2896 28-12-2019 02:33:18 -1.5 C 45 %
2897 28-12-2019 02:43:18 -1.5 C 45 %
2898 28-12-2019 02:53:17 -1.6 C 45 %
2899 28-12-2019 03:03:17 -1.9 C 45 %
2900 28-12-2019 03:13:18 -1.7 C 45 %
Sensor: Nr:Datum:Temp:Feuchte:
Aussen-T/F 2901 28-12-2019 03:23:17 -2.1 C 45 %
2902 28-12-2019 03:33:17 -2.1 C 45 %
2903 28-12-2019 03:43:17 -2.1 C 45 %
2904 28-12-2019 03:53:18 -2.4 C 45 %
2905 28-12-2019 04:03:17 -2.4 C 45 %
2906 28-12-2019 04:13:17 -2.4 C 45 %
2907 28-12-2019 04:23:17 -2.3 C 45 %
2908 28-12-2019 04:33:17 -2.4 C 45 %
2909 28-12-2019 04:43:18 -2.3 C 45 %
2910 28-12-2019 04:53:17 -2.4 C 45 %
2911 28-12-2019 05:03:18 -2.6 C 44 %
2912 28-12-2019 05:13:18 -2.7 C 44 %
2913 28-12-2019 05:23:17 -2.5 C 45 %
2914 28-12-2019 05:33:18 -2.5 C 45 %
2915 28-12-2019 05:43:18 -2.1 C 45 %
2916 28-12-2019 05:53:17 -2.3 C 45 %
2917 28-12-2019 06:03:17 -1.8 C 45 %
2918 28-12-2019 06:13:18 -2.1 C 44 %
2919 28-12-2019 06:23:17 -2.2 C 43 %
2920 28-12-2019 06:33:17 -2 C 44 %
2921 28-12-2019 06:43:18 -1.9 C 44 %
2922 28-12-2019 06:53:17 -2.1 C 43 %
2923 28-12-2019 07:03:18 -2 C 43 %
2924 28-12-2019 07:13:18 -2.3 C 43 %
2925 28-12-2019 07:23:17 -2.8 C 42 %
Sensor: Nr:Datum:Temp:Feuchte:
Aussen-T/F 2926 28-12-2019 07:33:17 -2.3 C 43 %
2927 28-12-2019 07:43:17 -2.4 C 43 %
2928 28-12-2019 07:53:17 -2.2 C 44 %
2929 28-12-2019 08:03:17 -2.6 C 43 %
2930 28-12-2019 08:13:17 -3 C 42 %
2931 28-12-2019 08:23:18 -3.1 C 42 %
2932 28-12-2019 08:33:17 -3.2 C 42 %
2933 28-12-2019 08:43:17 -3.2 C 42 %
2934 28-12-2019 08:53:17 -2.9 C 43 %
2935 28-12-2019 09:03:18 -2.9 C 43 %
2936 28-12-2019 09:13:18 -2.8 C 43 %
2937 28-12-2019 09:23:17 -2.7 C 43 %
2938 28-12-2019 09:33:17 -2.5 C 43 %
2939 28-12-2019 09:43:17 -1.9 C 45 %
2940 28-12-2019 09:53:17 -1.7 C 45 %
2941 28-12-2019 10:03:17 -1.6 C 45 %
2942 28-12-2019 10:13:17 -1.4 C 45 %
2943 28-12-2019 10:23:17 -1.5 C 45 %
2944 28-12-2019 10:33:18 -1.3 C 45 %
2945 28-12-2019 10:43:18 -1.3 C 45 %
2946 28-12-2019 10:53:17 -1.1 C 45 %
2947 28-12-2019 11:03:18 -1 C 44 %
2948 28-12-2019 11:13:18 -0.9 C 44 %
2949 28-12-2019 11:23:17 -0.6 C 44 %
2950 28-12-2019 11:33:17 -0.5 C 43 %
Sensor: Nr:Datum:Temp:Feuchte:
Aussen-T/F 2951 28-12-2019 11:43:18 -0.3 C 42 %
2952 28-12-2019 11:53:17 -0.2 C 42 %
2953 28-12-2019 12:03:17 -0.2 C 41 %
2954 28-12-2019 12:13:17 0 C 41 %
2955 28-12-2019 12:23:17 0.2 C 41 %
2956 28-12-2019 12:33:17 0.3 C 41 %
2957 28-12-2019 12:43:18 0.4 C 40 %
2958 28-12-2019 12:53:17 0.5 C 40 %
2959 28-12-2019 13:03:18 0.7 C 40 %
2960 28-12-2019 13:13:18 0.8 C 40 %
2961 28-12-2019 13:23:17 0.8 C 40 %
2962 28-12-2019 13:33:17 0.9 C 40 %
2963 28-12-2019 13:43:17 0.8 C 40 %
2964 28-12-2019 13:53:17 0.6 C 40 %
2965 28-12-2019 14:03:17 0.6 C 41 %
2966 28-12-2019 14:13:17 0.7 C 41 %
2967 28-12-2019 14:23:17 0.8 C 40 %
2968 28-12-2019 14:33:17 0.7 C 40 %
2969 28-12-2019 14:43:17 0.6 C 40 %
2970 28-12-2019 14:53:17 0.5 C 40 %
2971 28-12-2019 15:03:17 0.5 C 40 %
2972 28-12-2019 15:13:18 0.5 C 40 %
2973 28-12-2019 15:23:17 0.2 C 40 %
2974 28-12-2019 15:33:17 0.4 C 40 %
2975 28-12-2019 15:43:17 0.3 C 39 %
Sensor: Nr:Datum:Temp:Feuchte:
Aussen-T/F 2976 28-12-2019 15:53:18 0.4 C 39 %
2977 28-12-2019 16:03:17 0.3 C 38 %
2978 28-12-2019 16:13:17 0.2 C 38 %
2979 28-12-2019 16:23:17 0 C 39 %
2980 28-12-2019 16:33:17 0 C 39 %
2981 28-12-2019 16:43:17 -0.1 C 38 %
2982 28-12-2019 16:53:17 -0.3 C 39 %
2983 28-12-2019 17:03:17 -0.4 C 39 %
2984 28-12-2019 17:13:17 -0.4 C 40 %
2985 28-12-2019 17:23:17 -0.5 C 40 %
2986 28-12-2019 17:33:18 -0.6 C 40 %
2987 28-12-2019 17:43:18 -0.7 C 41 %
2988 28-12-2019 17:53:17 -1.3 C 41 %
2989 28-12-2019 18:03:17 -1.2 C 44 %
2990 28-12-2019 18:13:17 -1.1 C 43 %
2991 28-12-2019 18:23:17 -1.1 C 43 %
2992 28-12-2019 18:33:17 -0.9 C 43 %
2993 28-12-2019 18:43:17 -1.2 C 43 %
2994 28-12-2019 18:53:17 -0.9 C 43 %
2995 28-12-2019 19:03:17 -1.2 C 42 %
2996 28-12-2019 19:13:18 -1.7 C 42 %
2997 28-12-2019 19:23:17 -1.9 C 43 %
2998 28-12-2019 19:33:18 -1.9 C 44 %
2999 28-12-2019 19:43:18 -1.9 C 44 %
3000 28-12-2019 19:53:17 -1.8 C 44 %
Sensor: Nr:Datum:Temp:Feuchte:
Aussen-T/F 3001 28-12-2019 20:03:17 -1.9 C 44 %
3002 28-12-2019 20:13:17 -1.7 C 45 %
3003 28-12-2019 20:23:17 -1.2 C 45 %
3004 28-12-2019 20:33:18 -1.2 C 43 %
3005 28-12-2019 20:43:18 -1.4 C 43 %
3006 28-12-2019 20:53:18 -1.2 C 44 %
3007 28-12-2019 21:03:17 -1.6 C 43 %
3008 28-12-2019 21:13:17 -1.3 C 44 %
3009 28-12-2019 21:23:17 -1.4 C 41 %
3010 28-12-2019 21:33:17 -1.8 C 41 %
3011 28-12-2019 21:43:18 -1.6 C 43 %
3012 28-12-2019 21:53:17 -1.7 C 42 %
3013 28-12-2019 22:03:18 -1.7 C 42 %
3014 28-12-2019 22:13:18 -2.2 C 41 %
3015 28-12-2019 22:23:17 -2.3 C 42 %
3016 28-12-2019 22:33:17 -2.3 C 42 %
3017 28-12-2019 22:43:17 -2.5 C 42 %
3018 28-12-2019 22:53:17 -2.2 C 43 %
3019 28-12-2019 23:03:17 -2.5 C 42 %
3020 28-12-2019 23:13:17 -2.3 C 43 %
3021 28-12-2019 23:23:17 -2.3 C 43 %
3022 28-12-2019 23:33:17 -2.7 C 42 %
3023 28-12-2019 23:43:17 -2.6 C 43 %
3024 28-12-2019 23:53:17 -2.9 C 42 %
3025 29-12-2019 00:03:18 -2.6 C 43 %
Sensor: Nr:Datum:Temp:Feuchte:
Aussen-T/F 3026 29-12-2019 00:13:18 -2.9 C 43 %
3027 29-12-2019 00:23:17 -3.1 C 42 %
3028 29-12-2019 00:33:17 -3.2 C 43 %
3029 29-12-2019 00:43:17 -3.1 C 43 %
3030 29-12-2019 00:53:17 -3.1 C 43 %
3031 29-12-2019 01:03:17 -3.3 C 42 %
3032 29-12-2019 01:13:17 -3.3 C 43 %
3033 29-12-2019 01:23:17 -3.5 C 42 %
3034 29-12-2019 01:33:17 -3.7 C 42 %
3035 29-12-2019 01:43:17 -3 C 44 %
3036 29-12-2019 01:53:17 -3.5 C 42 %
3037 29-12-2019 02:03:17 -3.7 C 41 %
3038 29-12-2019 02:13:17 -3.8 C 42 %
3039 29-12-2019 02:23:17 -3.3 C 43 %
3040 29-12-2019 02:33:17 -3.7 C 41 %
3041 29-12-2019 02:43:17 -3.7 C 42 %
3042 29-12-2019 02:53:18 -3.8 C 41 %
3043 29-12-2019 03:03:17 -4 C 41 %
3044 29-12-2019 03:13:17 -4 C 42 %
3045 29-12-2019 03:23:17 -4 C 41 %
3046 29-12-2019 03:33:17 -4.1 C 41 %
3047 29-12-2019 03:43:17 -4.1 C 41 %
3048 29-12-2019 03:53:18 -4 C 42 %
3049 29-12-2019 04:03:17 -4.2 C 41 %
3050 29-12-2019 04:13:17 -3.9 C 42 %
Sensor: Nr:Datum:Temp:Feuchte:
Aussen-T/F 3051 29-12-2019 04:23:17 -4.1 C 41 %
3052 29-12-2019 04:33:17 -4.1 C 41 %
3053 29-12-2019 04:43:17 -4.4 C 41 %
3054 29-12-2019 04:53:17 -4.2 C 41 %
3055 29-12-2019 05:03:17 -4.3 C 41 %
3056 29-12-2019 05:13:17 -4.5 C 41 %
3057 29-12-2019 05:23:17 -4.5 C 41 %
3058 29-12-2019 05:33:18 -4.4 C 41 %
3059 29-12-2019 05:43:18 -4.5 C 41 %
3060 29-12-2019 05:53:17 -4.7 C 41 %
3061 29-12-2019 06:03:17 -4.6 C 41 %
3062 29-12-2019 06:13:17 -4.7 C 41 %
3063 29-12-2019 06:23:17 -4.8 C 41 %
3064 29-12-2019 06:33:17 -4.8 C 41 %
3065 29-12-2019 06:43:17 -4.8 C 41 %
3066 29-12-2019 06:53:17 -4.8 C 41 %
3067 29-12-2019 07:03:17 -4.9 C 41 %
3068 29-12-2019 07:13:17 -4.9 C 41 %
3069 29-12-2019 07:23:17 -5 C 41 %
3070 29-12-2019 07:33:17 -4.5 C 42 %
3071 29-12-2019 07:43:17 -4.7 C 41 %
3072 29-12-2019 07:53:17 -4.7 C 41 %
3073 29-12-2019 08:03:17 -4.4 C 42 %
3074 29-12-2019 08:13:17 -4.3 C 42 %
3075 29-12-2019 08:23:18 -3.9 C 43 %
Sensor: Nr:Datum:Temp:Feuchte:
Aussen-T/F 3076 29-12-2019 08:33:17 -4.1 C 41 %
3077 29-12-2019 08:43:17 -4.3 C 41 %
3078 29-12-2019 08:53:17 -4.5 C 40 %
3079 29-12-2019 09:03:17 -4.1 C 42 %
3080 29-12-2019 09:13:17 -3.9 C 42 %
3081 29-12-2019 09:23:18 -4 C 41 %
3082 29-12-2019 09:33:17 -4.1 C 41 %
3083 29-12-2019 09:43:17 -4 C 41 %
3084 29-12-2019 09:53:17 -4 C 41 %
3085 29-12-2019 10:03:18 -4 C 40 %
3086 29-12-2019 10:13:18 -3.9 C 41 %
3087 29-12-2019 10:23:17 -3.5 C 42 %
3088 29-12-2019 10:33:17 -3.3 C 42 %
3089 29-12-2019 10:43:17 -3.1 C 42 %
3090 29-12-2019 10:53:17 -2.6 C 43 %
3091 29-12-2019 11:03:17 -2.1 C 43 %
3092 29-12-2019 11:13:17 -1.8 C 42 %
3093 29-12-2019 11:23:17 -1.4 C 43 %
3094 29-12-2019 11:33:17 -1.3 C 42 %
3095 29-12-2019 11:43:18 -0.8 C 43 %
3096 29-12-2019 11:53:17 -0.4 C 42 %
3097 29-12-2019 12:03:18 -0.5 C 41 %
3098 29-12-2019 12:13:18 -0.3 C 41 %
3099 29-12-2019 12:23:17 0.1 C 40 %
3100 29-12-2019 12:33:17 0.3 C 40 %
Sensor: Nr:Datum:Temp:Feuchte:
Aussen-T/F 3101 29-12-2019 12:43:17 0.5 C 40 %
3102 29-12-2019 12:53:17 0.4 C 40 %
3103 29-12-2019 13:03:17 0.7 C 38 %
3104 29-12-2019 13:13:17 1 C 37 %
3105 29-12-2019 13:23:17 1 C 37 %
3106 29-12-2019 13:33:18 1.4 C 36 %
3107 29-12-2019 13:43:18 1.4 C 38 %
3108 29-12-2019 13:53:17 1.5 C 37 %
3109 29-12-2019 14:03:17 1.5 C 36 %
3110 29-12-2019 14:13:17 1.4 C 37 %
3111 29-12-2019 14:23:17 1.7 C 36 %
3112 29-12-2019 14:33:18 1.9 C 36 %
3113 29-12-2019 14:43:18 2.2 C 34 %
3114 29-12-2019 14:53:17 2.1 C 33 %
3115 29-12-2019 15:03:17 1.9 C 34 %
3116 29-12-2019 15:13:18 2 C 31 %
3117 29-12-2019 15:23:17 2 C 27 %
3118 29-12-2019 15:33:17 1.9 C 30 %
3119 29-12-2019 15:43:17 1.5 C 32 %
3120 29-12-2019 15:53:18 1.1 C 32 %
3121 29-12-2019 16:03:17 0.5 C 35 %
3122 29-12-2019 16:13:17 0.2 C 38 %
3123 29-12-2019 16:23:17 0.2 C 39 %
3124 29-12-2019 16:33:18 -0.3 C 39 %
3125 29-12-2019 16:43:18 -0.1 C 40 %
Sensor: Nr:Datum:Temp:Feuchte:
Aussen-T/F 3126 29-12-2019 16:53:17 -0.2 C 40 %
3127 29-12-2019 17:03:17 -0.2 C 40 %
3128 29-12-2019 17:13:17 -0.3 C 39 %
3129 29-12-2019 17:23:17 -0.3 C 37 %
3130 29-12-2019 17:33:17 -0.3 C 37 %
3131 29-12-2019 17:43:17 -0.1 C 36 %
3132 29-12-2019 17:53:17 -0.2 C 38 %
3133 29-12-2019 18:03:17 -0.1 C 37 %
3134 29-12-2019 18:13:17 0.1 C 37 %
3135 29-12-2019 18:23:17 0.2 C 36 %
3136 29-12-2019 18:33:17 -0.2 C 38 %
3137 29-12-2019 18:43:17 -0.5 C 40 %
3138 29-12-2019 18:53:17 -0.8 C 40 %
3139 29-12-2019 19:03:17 -0.5 C 41 %
3140 29-12-2019 19:13:17 -0.7 C 38 %
3141 29-12-2019 19:23:18 -0.6 C 37 %
3142 29-12-2019 19:33:18 -0.6 C 35 %
3143 29-12-2019 19:43:18 -1 C 35 %
3144 29-12-2019 19:53:17 -1.1 C 36 %
3145 29-12-2019 20:03:18 -0.9 C 34 %
3146 29-12-2019 20:13:18 -1.2 C 36 %
3147 29-12-2019 20:23:17 -0.7 C 35 %
3148 29-12-2019 20:33:17 -1.3 C 37 %
3149 29-12-2019 20:43:17 -0.9 C 39 %
3150 29-12-2019 20:53:17 -1.5 C 39 %
Sensor: Nr:Datum:Temp:Feuchte:
Aussen-T/F 3151 29-12-2019 21:03:17 -1.2 C 38 %
3152 29-12-2019 21:13:17 -1.8 C 37 %
3153 29-12-2019 21:23:17 -1.8 C 40 %
3154 29-12-2019 21:33:18 -1.8 C 41 %
3155 29-12-2019 21:43:18 -2.1 C 42 %
3156 29-12-2019 21:53:17 -2.3 C 42 %
3157 29-12-2019 22:03:17 -2.2 C 43 %
3158 29-12-2019 22:13:17 -2.1 C 43 %
3159 29-12-2019 22:23:17 -2.4 C 42 %
3160 29-12-2019 22:33:17 -2.7 C 42 %
3161 29-12-2019 22:43:18 -2.7 C 43 %
3162 29-12-2019 22:53:17 -2.7 C 43 %
3163 29-12-2019 23:03:17 -2.8 C 43 %
3164 29-12-2019 23:13:17 -2.7 C 44 %
3165 29-12-2019 23:23:17 -2.8 C 43 %
3166 29-12-2019 23:33:18 -3 C 43 %
3167 29-12-2019 23:43:18 -3 C 43 %
3168 29-12-2019 23:53:17 -3 C 42 %
3169 30-12-2019 00:03:17 -3 C 42 %
3170 30-12-2019 00:13:17 -3.1 C 41 %
3171 30-12-2019 00:23:17 -3.1 C 41 %
3172 30-12-2019 00:33:17 -3 C 42 %
3173 30-12-2019 00:43:17 -3.2 C 42 %
3174 30-12-2019 00:53:17 -3.2 C 42 %
3175 30-12-2019 01:03:17 -3.2 C 42 %
Sensor: Nr:Datum:Temp:Feuchte:
Aussen-T/F 3176 30-12-2019 01:13:18 -3.1 C 44 %
3177 30-12-2019 01:23:17 -3.1 C 43 %
3178 30-12-2019 01:33:18 -3.2 C 42 %
3179 30-12-2019 01:43:18 -3.4 C 42 %
3180 30-12-2019 01:53:17 -3.5 C 42 %
3181 30-12-2019 02:03:17 -3.2 C 43 %
3182 30-12-2019 02:13:17 -3.4 C 43 %
3183 30-12-2019 02:23:17 -3.4 C 43 %
3184 30-12-2019 02:33:18 -3.4 C 43 %
3185 30-12-2019 02:43:18 -3.4 C 43 %
3186 30-12-2019 02:53:17 -3.4 C 43 %
3187 30-12-2019 03:03:17 -3.3 C 43 %
3188 30-12-2019 03:13:17 -3.4 C 43 %
3189 30-12-2019 03:23:17 -3.1 C 43 %
3190 30-12-2019 03:33:18 -3.2 C 43 %
3191 30-12-2019 03:43:18 -3.3 C 43 %
3192 30-12-2019 03:53:17 -3.5 C 43 %
3193 30-12-2019 04:03:17 -3.7 C 42 %
3194 30-12-2019 04:13:17 -3.8 C 42 %
3195 30-12-2019 04:23:17 -3.8 C 42 %
3196 30-12-2019 04:33:17 -3.9 C 42 %
3197 30-12-2019 04:43:17 -3.9 C 42 %
3198 30-12-2019 04:53:17 -4 C 42 %
3199 30-12-2019 05:03:17 -3.9 C 42 %
3200 30-12-2019 05:13:17 -3.8 C 42 %
Sensor: Nr:Datum:Temp:Feuchte:
Aussen-T/F 3201 30-12-2019 05:23:17 -3.9 C 42 %
3202 30-12-2019 05:33:17 -3.7 C 43 %
3203 30-12-2019 05:43:17 -3.8 C 43 %
3204 30-12-2019 05:53:18 -4 C 42 %
3205 30-12-2019 06:03:17 -4 C 42 %
3206 30-12-2019 06:13:17 -4 C 42 %
3207 30-12-2019 06:23:17 -3.9 C 42 %
3208 30-12-2019 06:33:17 -3.7 C 43 %
3209 30-12-2019 06:43:17 -3.9 C 42 %
3210 30-12-2019 06:53:17 -4 C 42 %
3211 30-12-2019 07:03:17 -4 C 42 %
3212 30-12-2019 07:13:17 -4.2 C 41 %
3213 30-12-2019 07:23:17 -4.4 C 42 %
3214 30-12-2019 07:33:18 -4.4 C 41 %
3215 30-12-2019 07:43:18 -4.4 C 42 %
3216 30-12-2019 07:53:17 -4.2 C 42 %
3217 30-12-2019 08:03:17 -4.4 C 41 %
3218 30-12-2019 08:13:17 -4.3 C 42 %
3219 30-12-2019 08:23:17 -4.4 C 42 %
3220 30-12-2019 08:33:17 -4.5 C 41 %
3221 30-12-2019 08:43:17 -4 C 43 %
3222 30-12-2019 08:53:17 -4.2 C 41 %
3223 30-12-2019 09:03:18 -4.1 C 42 %
3224 30-12-2019 09:13:18 -3.9 C 42 %
3225 30-12-2019 09:23:17 -3.8 C 42 %
Sensor: Nr:Datum:Temp:Feuchte:
Aussen-T/F 3226 30-12-2019 09:33:17 -3.6 C 43 %
3227 30-12-2019 09:43:17 -3.7 C 42 %
3228 30-12-2019 09:53:17 -3.7 C 42 %
3229 30-12-2019 10:03:17 -3.5 C 42 %
3230 30-12-2019 10:13:17 -3.3 C 43 %
3231 30-12-2019 10:23:17 -3.3 C 42 %
3232 30-12-2019 10:33:17 -3.3 C 42 %
3233 30-12-2019 10:43:17 -3 C 43 %
3234 30-12-2019 10:53:17 -2.9 C 42 %
3235 30-12-2019 11:03:17 -2.9 C 42 %
3236 30-12-2019 11:13:17 -2.8 C 42 %
3237 30-12-2019 11:23:17 -2.4 C 43 %
3238 30-12-2019 11:33:17 -2.1 C 42 %
3239 30-12-2019 11:43:17 -2 C 41 %
3240 30-12-2019 11:53:18 -2.1 C 40 %
3241 30-12-2019 12:03:17 -1.7 C 41 %
3242 30-12-2019 12:13:17 -1.5 C 40 %
3243 30-12-2019 12:23:17 -1.6 C 40 %
3244 30-12-2019 12:33:17 -1.4 C 41 %
3245 30-12-2019 12:43:17 -0.7 C 39 %
3246 30-12-2019 12:53:17 -0.8 C 39 %
3247 30-12-2019 13:03:17 -0.8 C 38 %
3248 30-12-2019 13:13:17 -1 C 40 %
3249 30-12-2019 13:23:17 -1 C 41 %
3250 30-12-2019 13:33:17 -1 C 42 %
Sensor: Nr:Datum:Temp:Feuchte:
Aussen-T/F 3251 30-12-2019 13:43:17 -0.6 C 42 %
3252 30-12-2019 13:53:17 -0.2 C 41 %
3253 30-12-2019 14:03:17 0.3 C 37 %
3254 30-12-2019 14:13:17 0.1 C 35 %
3255 30-12-2019 14:23:17 0.6 C 35 %
3256 30-12-2019 14:33:17 0.5 C 35 %
3257 30-12-2019 14:43:17 1 C 32 %
3258 30-12-2019 14:53:17 0.6 C 35 %
3259 30-12-2019 15:03:17 0.9 C 36 %
3260 30-12-2019 15:13:17 1.1 C 33 %
3261 30-12-2019 15:23:17 0.6 C 35 %
3262 30-12-2019 15:33:18 0.6 C 36 %
3263 30-12-2019 15:43:18 0.7 C 35 %
3264 30-12-2019 15:53:17 1.6 C 32 %
3265 30-12-2019 16:03:18 1.7 C 32 %
3266 30-12-2019 16:13:18 1.9 C 31 %
3267 30-12-2019 16:23:18 1.6 C 33 %
3268 30-12-2019 16:33:17 1.1 C 35 %
3269 30-12-2019 16:43:17 0.8 C 37 %
3270 30-12-2019 16:53:17 0.6 C 40 %
3271 30-12-2019 17:03:17 0.7 C 40 %
3272 30-12-2019 17:13:17 0.7 C 40 %
3273 30-12-2019 17:23:18 0.6 C 40 %
3274 30-12-2019 17:33:17 0.5 C 40 %
3275 30-12-2019 17:43:17 0.5 C 40 %
Sensor: Nr:Datum:Temp:Feuchte:
Aussen-T/F 3276 30-12-2019 17:53:17 0.5 C 37 %
3277 30-12-2019 18:03:17 0.3 C 36 %
3278 30-12-2019 18:13:17 -0.3 C 36 %
3279 30-12-2019 18:23:18 -0.7 C 37 %
3280 30-12-2019 18:33:18 -0.4 C 36 %
3281 30-12-2019 18:43:18 -0.2 C 36 %
3282 30-12-2019 18:53:17 -0.6 C 34 %
3283 30-12-2019 19:03:17 -1.3 C 36 %
3284 30-12-2019 19:13:17 -1 C 36 %
3285 30-12-2019 19:23:18 -1.4 C 36 %
3286 30-12-2019 19:33:17 -1.4 C 39 %
3287 30-12-2019 19:43:17 -0.4 C 33 %
3288 30-12-2019 19:53:18 0 C 32 %
3289 30-12-2019 20:03:17 -0.3 C 31 %
3290 30-12-2019 20:13:17 -1.2 C 32 %
3291 30-12-2019 20:23:17 -1.6 C 35 %
3292 30-12-2019 20:33:17 -1.6 C 36 %
3293 30-12-2019 20:43:17 -1.7 C 36 %
3294 30-12-2019 20:53:17 -1.5 C 37 %
3295 30-12-2019 21:03:17 -1.9 C 37 %
3296 30-12-2019 21:13:17 -0.8 C 35 %
3297 30-12-2019 21:23:17 -1.1 C 35 %
3298 30-12-2019 21:33:17 -0.9 C 35 %
3299 30-12-2019 21:43:17 -0.8 C 36 %
3300 30-12-2019 21:53:17 -1.1 C 33 %
Sensor: Nr:Datum:Temp:Feuchte:
Aussen-T/F 3301 30-12-2019 22:03:17 -1.5 C 35 %
3302 30-12-2019 22:13:17 -1.7 C 35 %
3303 30-12-2019 22:23:17 -1.7 C 35 %
3304 30-12-2019 22:33:17 -2.3 C 35 %
3305 30-12-2019 22:43:17 -1.8 C 35 %
3306 30-12-2019 22:53:17 -2 C 36 %
3307 30-12-2019 23:03:17 -2.3 C 36 %
3308 30-12-2019 23:13:17 -1.5 C 36 %
3309 30-12-2019 23:23:17 -0.9 C 32 %
3310 30-12-2019 23:33:17 -0.3 C 31 %
3311 30-12-2019 23:43:17 -0.9 C 31 %
3312 30-12-2019 23:53:17 -1 C 31 %
3313 31-12-2019 00:03:17 -1.2 C 32 %
3314 31-12-2019 00:13:18 -1.4 C 34 %
3315 31-12-2019 00:23:17 -1.6 C 36 %
3316 31-12-2019 00:33:18 -1.2 C 35 %
3317 31-12-2019 00:43:18 -1.5 C 35 %
3318 31-12-2019 00:53:17 -1.5 C 36 %
3319 31-12-2019 01:03:17 -1.5 C 36 %
3320 31-12-2019 01:13:17 -0.8 C 34 %
3321 31-12-2019 01:23:18 -1.3 C 34 %
3322 31-12-2019 01:33:17 -1.6 C 37 %
3323 31-12-2019 01:43:17 -2 C 37 %
3324 31-12-2019 01:53:17 -2.3 C 38 %
3325 31-12-2019 02:03:17 -2.5 C 40 %
Sensor: Nr:Datum:Temp:Feuchte:
Aussen-T/F 3326 31-12-2019 02:13:17 -2.7 C 40 %
3327 31-12-2019 02:23:18 -2.8 C 41 %
3328 31-12-2019 02:33:17 -3 C 41 %
3329 31-12-2019 02:43:17 -2.9 C 43 %
3330 31-12-2019 02:53:17 -2 C 45 %
3331 31-12-2019 03:03:17 -1.7 C 42 %
3332 31-12-2019 03:13:18 -2 C 40 %
3333 31-12-2019 03:23:17 -2.4 C 40 %
3334 31-12-2019 03:33:18 -2.5 C 41 %
3335 31-12-2019 03:43:18 -2.9 C 41 %
3336 31-12-2019 03:53:17 -2.8 C 42 %
3337 31-12-2019 04:03:17 -2.6 C 43 %
3338 31-12-2019 04:13:17 -3.1 C 42 %
3339 31-12-2019 04:23:17 -3.2 C 42 %
3340 31-12-2019 04:33:17 -3.3 C 42 %
3341 31-12-2019 04:43:18 -3.3 C 42 %
3342 31-12-2019 04:53:17 -3.2 C 43 %
3343 31-12-2019 05:03:17 -3.3 C 42 %
3344 31-12-2019 05:13:17 -3.6 C 42 %
3345 31-12-2019 05:23:17 -3.4 C 43 %
3346 31-12-2019 05:33:17 -3.1 C 44 %
3347 31-12-2019 05:43:17 -3 C 44 %
3348 31-12-2019 05:53:17 -2.9 C 44 %
3349 31-12-2019 06:03:17 -3.1 C 43 %
3350 31-12-2019 06:13:17 -3.3 C 43 %
Sensor: Nr:Datum:Temp:Feuchte:
Aussen-T/F 3351 31-12-2019 06:23:17 -3.2 C 43 %
3352 31-12-2019 06:33:17 -3.3 C 43 %
3353 31-12-2019 06:43:17 -3.4 C 43 %
3354 31-12-2019 06:53:18 -3.2 C 44 %
3355 31-12-2019 07:03:17 -3.2 C 44 %
3356 31-12-2019 07:13:17 -3 C 44 %
3357 31-12-2019 07:23:17 -3.1 C 44 %
3358 31-12-2019 07:33:17 -3 C 44 %
3359 31-12-2019 07:43:17 -2.6 C 45 %
3360 31-12-2019 07:53:18 -2.1 C 45 %
3361 31-12-2019 08:03:17 -2 C 45 %
3362 31-12-2019 08:13:17 -2 C 45 %
3363 31-12-2019 08:23:17 -1.3 C 45 %
3364 31-12-2019 08:33:17 -1 C 44 %
3365 31-12-2019 08:43:17 -1 C 43 %
3366 31-12-2019 08:53:17 -1.1 C 42 %
3367 31-12-2019 09:03:17 -1 C 43 %
3368 31-12-2019 09:13:17 -0.9 C 44 %
3369 31-12-2019 09:23:17 -1.1 C 42 %
3370 31-12-2019 09:33:17 -1.1 C 42 %
3371 31-12-2019 09:43:17 -1.1 C 42 %
3372 31-12-2019 09:53:17 -0.9 C 43 %
3373 31-12-2019 10:03:17 -0.6 C 44 %
3374 31-12-2019 10:13:17 -0.2 C 43 %
3375 31-12-2019 10:23:17 0.1 C 41 %
Sensor: Nr:Datum:Temp:Feuchte:
Aussen-T/F 3376 31-12-2019 10:33:17 0.3 C 40 %
3377 31-12-2019 10:43:17 0.3 C 38 %
3378 31-12-2019 10:53:18 0.5 C 40 %
3379 31-12-2019 11:03:17 0.8 C 41 %
3380 31-12-2019 11:13:17 0.7 C 41 %
3381 31-12-2019 11:23:17 1.2 C 40 %
3382 31-12-2019 11:33:17 1.1 C 38 %
3383 31-12-2019 11:43:17 1.5 C 40 %
3384 31-12-2019 11:53:17 1.5 C 40 %
3385 31-12-2019 12:03:18 1.8 C 31 %
3386 31-12-2019 12:13:18 2.4 C 35 %
3387 31-12-2019 12:23:17 2.6 C 33 %
3388 31-12-2019 12:33:18 2.4 C 32 %
3389 31-12-2019 12:43:18 2.8 C 30 %
3390 31-12-2019 12:53:17 2.3 C 29 %
3391 31-12-2019 13:03:18 2.4 C 28 %
3392 31-12-2019 13:13:18 2.4 C 27 %
3393 31-12-2019 13:23:17 2.8 C 27 %
3394 31-12-2019 13:33:17 2.8 C 26 %
3395 31-12-2019 13:43:17 3.3 C 26 %
3396 31-12-2019 13:53:17 2.9 C 26 %
3397 31-12-2019 14:03:18 2.7 C 27 %
3398 31-12-2019 14:13:18 2.9 C 27 %
3399 31-12-2019 14:23:17 3.1 C 26 %
3400 31-12-2019 14:33:17 3.4 C 26 %
Sensor: Nr:Datum:Temp:Feuchte:
Aussen-T/F 3401 31-12-2019 14:43:17 3.2 C 26 %
3402 31-12-2019 14:53:17 3 C 26 %
3403 31-12-2019 15:03:17 2.8 C 27 %
3404 31-12-2019 15:13:17 2.9 C 27 %
3405 31-12-2019 15:23:18 3 C 27 %
3406 31-12-2019 15:33:17 3 C 27 %
3407 31-12-2019 15:43:17 2.9 C 28 %
3408 31-12-2019 15:53:17 2.7 C 29 %
3409 31-12-2019 16:03:17 2.1 C 30 %
3410 31-12-2019 16:13:17 0.9 C 35 %
3411 31-12-2019 16:23:18 0.6 C 38 %
3412 31-12-2019 16:33:17 0.3 C 40 %
3413 31-12-2019 16:43:17 0.2 C 39 %
3414 31-12-2019 16:53:18 0.2 C 40 %
3415 31-12-2019 17:03:17 -0.1 C 41 %
3416 31-12-2019 17:13:17 -0.4 C 41 %
3417 31-12-2019 17:23:17 -0.3 C 40 %
3418 31-12-2019 17:33:17 -0.3 C 41 %
3419 31-12-2019 17:43:17 -0.6 C 43 %
3420 31-12-2019 17:53:18 -0.7 C 43 %
3421 31-12-2019 18:03:17 -1.1 C 43 %
3422 31-12-2019 18:13:17 -1.2 C 45 %
3423 31-12-2019 18:23:17 -0.9 C 45 %
3424 31-12-2019 18:33:17 -0.8 C 45 %
3425 31-12-2019 18:43:17 -0.4 C 46 %
Sensor: Nr:Datum:Temp:Feuchte:
Aussen-T/F 3426 31-12-2019 18:53:18 -0.4 C 46 %
3427 31-12-2019 19:03:17 -0.3 C 45 %
3428 31-12-2019 19:13:17 -0.1 C 46 %
3429 31-12-2019 19:23:18 0 C 45 %
3430 31-12-2019 19:33:17 0.1 C 45 %
3431 31-12-2019 19:43:17 0.2 C 45 %
3432 31-12-2019 19:53:17 0.4 C 45 %
3433 31-12-2019 20:03:18 0.5 C 45 %
3434 31-12-2019 20:13:18 0.5 C 45 %
3435 31-12-2019 20:23:17 0.4 C 45 %
3436 31-12-2019 20:33:17 0.4 C 45 %
3437 31-12-2019 20:43:17 0.3 C 43 %
3438 31-12-2019 20:53:17 0.2 C 43 %
3439 31-12-2019 21:03:17 0.2 C 43 %
3440 31-12-2019 21:13:17 0.4 C 44 %
3441 31-12-2019 21:23:18 0.4 C 44 %
3442 31-12-2019 21:33:17 0.5 C 44 %
3443 31-12-2019 21:43:17 0.6 C 43 %
3444 31-12-2019 21:53:17 0.5 C 43 %
3445 31-12-2019 22:03:17 0.6 C 42 %
3446 31-12-2019 22:13:17 0.5 C 42 %
3447 31-12-2019 22:23:18 0.2 C 41 %
3448 31-12-2019 22:33:17 0 C 41 %
3449 31-12-2019 22:43:17 -0.2 C 42 %
3450 31-12-2019 22:53:17 -0.4 C 43 %
Sensor: Nr:Datum:Temp:Feuchte:
Aussen-T/F 3451 31-12-2019 23:03:17 -0.3 C 44 %
3452 31-12-2019 23:13:17 -0.1 C 45 %
3453 31-12-2019 23:23:18 0 C 45 %
3454 31-12-2019 23:33:17 0 C 45 %
3455 31-12-2019 23:43:17 0.4 C 45 %
3456 31-12-2019 23:53:18 0.3 C 45 %
3457 01-01-2020 00:03:17 0.4 C 45 %
3458 01-01-2020 00:13:17 0.4 C 45 %
3459 01-01-2020 00:23:17 0.3 C 45 %
3460 01-01-2020 00:33:17 -0.9 C 41 %
3461 01-01-2020 00:43:17 -0.3 C 45 %
3462 01-01-2020 00:53:18 -0.5 C 44 %
3463 01-01-2020 01:03:17 -0.5 C 44 %
3464 01-01-2020 01:13:17 -0.6 C 44 %
3465 01-01-2020 01:23:17 -0.6 C 45 %
3466 01-01-2020 01:33:17 -0.7 C 45 %
3467 01-01-2020 01:43:17 -1.1 C 44 %
3468 01-01-2020 01:53:18 -0.9 C 45 %
3469 01-01-2020 02:03:17 -0.9 C 45 %
3470 01-01-2020 02:13:17 -0.5 C 46 %
3471 01-01-2020 02:23:17 -0.2 C 45 %
3472 01-01-2020 02:33:18 -0.1 C 45 %
3473 01-01-2020 02:43:18 0 C 45 %
3474 01-01-2020 02:53:17 0.1 C 45 %
3475 01-01-2020 03:03:17 0.1 C 45 %
Sensor: Nr:Datum:Temp:Feuchte:
Aussen-T/F 3476 01-01-2020 03:13:18 0.1 C 45 %
3477 01-01-2020 03:23:17 0.2 C 45 %
3478 01-01-2020 03:33:18 0.1 C 45 %
3479 01-01-2020 03:43:18 0.1 C 45 %
3480 01-01-2020 03:53:17 0.1 C 45 %
3481 01-01-2020 04:03:18 0.2 C 45 %
3482 01-01-2020 04:13:18 0.2 C 45 %
3483 01-01-2020 04:23:17 0.3 C 45 %
3484 01-01-2020 04:33:18 0.3 C 45 %
3485 01-01-2020 04:43:18 0.3 C 44 %
3486 01-01-2020 04:53:17 0.3 C 44 %
3487 01-01-2020 05:03:18 0.4 C 44 %
3488 01-01-2020 05:13:18 0.5 C 44 %
3489 01-01-2020 05:23:17 0.4 C 44 %
3490 01-01-2020 05:33:18 0.4 C 44 %
3491 01-01-2020 05:43:18 0.4 C 44 %
3492 01-01-2020 05:53:17 0.4 C 43 %
3493 01-01-2020 06:03:17 0.4 C 43 %
3494 01-01-2020 06:13:17 0.5 C 43 %
3495 01-01-2020 06:23:17 0.4 C 42 %
3496 01-01-2020 06:33:17 0.6 C 42 %
3497 01-01-2020 06:43:17 0.6 C 42 %
3498 01-01-2020 06:53:17 0.6 C 42 %
3499 01-01-2020 07:03:18 0.6 C 41 %
3500 01-01-2020 07:13:18 0.6 C 41 %
Sensor: Nr:Datum:Temp:Feuchte:
Aussen-T/F 3501 01-01-2020 07:23:17 0.6 C 41 %
3502 01-01-2020 07:33:17 0.6 C 41 %
3503 01-01-2020 07:43:17 0.6 C 41 %
3504 01-01-2020 07:53:17 0.6 C 41 %
3505 01-01-2020 08:03:17 0.6 C 41 %
3506 01-01-2020 08:13:17 0.6 C 41 %
3507 01-01-2020 08:23:18 0.7 C 40 %
3508 01-01-2020 08:33:17 0.7 C 40 %
3509 01-01-2020 08:43:17 0.7 C 40 %
3510 01-01-2020 08:53:17 0.8 C 40 %
3511 01-01-2020 09:03:17 0.8 C 40 %
3512 01-01-2020 09:13:17 1.1 C 38 %
3513 01-01-2020 09:23:17 1.3 C 38 %
3514 01-01-2020 09:33:17 1.4 C 37 %
3515 01-01-2020 09:43:17 1.5 C 37 %
3516 01-01-2020 09:53:17 1.7 C 36 %
3517 01-01-2020 10:03:18 1.9 C 36 %
3518 01-01-2020 10:13:18 2 C 34 %
3519 01-01-2020 10:23:17 2.1 C 33 %
3520 01-01-2020 10:33:17 2.2 C 32 %
3521 01-01-2020 10:43:17 2.3 C 32 %
3522 01-01-2020 10:53:17 2.4 C 32 %
3523 01-01-2020 11:03:17 2.4 C 31 %
3524 01-01-2020 11:13:17 2.7 C 31 %
3525 01-01-2020 11:23:18 2.7 C 30 %
Sensor: Nr:Datum:Temp:Feuchte:
Aussen-T/F 3526 01-01-2020 11:33:17 2.7 C 30 %
3527 01-01-2020 11:43:17 2.8 C 30 %
3528 01-01-2020 11:53:18 2.9 C 30 %
3529 01-01-2020 12:03:17 3.2 C 28 %
3530 01-01-2020 12:13:17 3 C 29 %
3531 01-01-2020 12:23:18 2.7 C 30 %
3532 01-01-2020 12:33:17 2.7 C 30 %
3533 01-01-2020 12:43:17 2.5 C 30 %
3534 01-01-2020 12:53:18 2.1 C 32 %
3535 01-01-2020 13:03:17 1.6 C 36 %
3536 01-01-2020 13:13:17 1.6 C 37 %
3537 01-01-2020 13:23:18 1.4 C 37 %
3538 01-01-2020 13:33:17 1.5 C 38 %
3539 01-01-2020 13:43:17 1.5 C 38 %
3540 01-01-2020 13:53:17 1.6 C 39 %
3541 01-01-2020 14:03:17 1.6 C 39 %
3542 01-01-2020 14:13:17 1.6 C 39 %
3543 01-01-2020 14:23:17 1.6 C 40 %
3544 01-01-2020 14:33:17 1.4 C 40 %
3545 01-01-2020 14:43:17 1.3 C 41 %
3546 01-01-2020 14:53:17 1.2 C 41 %
3547 01-01-2020 15:03:17 1.3 C 41 %
3548 01-01-2020 15:13:17 1.2 C 41 %
3549 01-01-2020 15:23:17 1.6 C 41 %
3550 01-01-2020 15:33:17 1.7 C 38 %
Sensor: Nr:Datum:Temp:Feuchte:
Aussen-T/F 3551 01-01-2020 15:43:17 1.1 C 38 %
3552 01-01-2020 15:53:17 0.7 C 40 %
3553 01-01-2020 16:03:17 0.5 C 43 %
3554 01-01-2020 16:13:17 -0.1 C 43 %
3555 01-01-2020 16:23:17 -0.3 C 44 %
3556 01-01-2020 16:33:18 -0.7 C 44 %
3557 01-01-2020 16:43:18 -0.7 C 45 %
3558 01-01-2020 16:53:17 -0.8 C 45 %
3559 01-01-2020 17:03:17 -1 C 45 %
3560 01-01-2020 17:13:17 -1.3 C 45 %
3561 01-01-2020 17:23:18 -1.5 C 45 %
3562 01-01-2020 17:33:17 -1.8 C 45 %
3563 01-01-2020 17:43:17 -1.9 C 45 %
3564 01-01-2020 17:53:18 -1.8 C 45 %
3565 01-01-2020 18:03:17 -1.9 C 45 %
3566 01-01-2020 18:13:17 -1.9 C 45 %
3567 01-01-2020 18:23:17 -2.1 C 45 %
3568 01-01-2020 18:33:17 -2.1 C 45 %
3569 01-01-2020 18:43:18 -2.1 C 45 %
3570 01-01-2020 18:53:17 -2.2 C 45 %
3571 01-01-2020 19:03:17 -2.4 C 45 %
3572 01-01-2020 19:13:18 -2.5 C 45 %
3573 01-01-2020 19:23:17 -2.4 C 45 %
3574 01-01-2020 19:33:17 -2.3 C 45 %
3575 01-01-2020 19:43:17 -2.2 C 45 %
Sensor: Nr:Datum:Temp:Feuchte:
Aussen-T/F 3576 01-01-2020 19:53:17 -2.4 C 45 %
3577 01-01-2020 20:03:17 -2.2 C 45 %
3578 01-01-2020 20:13:17 -2.1 C 45 %
3579 01-01-2020 20:23:18 -2.3 C 45 %
3580 01-01-2020 20:33:17 -2.1 C 45 %
3581 01-01-2020 20:43:17 -2.6 C 43 %
3582 01-01-2020 20:53:17 -2.8 C 43 %
3583 01-01-2020 21:03:17 -2.8 C 43 %
3584 01-01-2020 21:13:17 -3 C 43 %
3585 01-01-2020 21:23:18 -3.1 C 43 %
3586 01-01-2020 21:33:17 -3.1 C 43 %
3587 01-01-2020 21:43:17 -3.2 C 42 %
3588 01-01-2020 21:53:17 -2.8 C 43 %
3589 01-01-2020 22:03:17 -3.1 C 42 %
3590 01-01-2020 22:13:17 -3.2 C 42 %
3591 01-01-2020 22:23:17 -3 C 43 %
3592 01-01-2020 22:33:17 -2.8 C 43 %
3593 01-01-2020 22:43:17 -2.8 C 43 %
3594 01-01-2020 22:53:17 -3.2 C 42 %
3595 01-01-2020 23:03:17 -3.2 C 42 %
3596 01-01-2020 23:13:17 -2.7 C 44 %
3597 01-01-2020 23:23:17 -2.3 C 45 %
3598 01-01-2020 23:33:17 -2.4 C 44 %
3599 01-01-2020 23:43:17 -2.2 C 45 %
3600 01-01-2020 23:53:17 -2.2 C 45 %
Sensor: Nr:Datum:Temp:Feuchte:
Aussen-T/F 3601 02-01-2020 00:03:17 -2.3 C 44 %
3602 02-01-2020 00:13:17 -2.4 C 44 %
3603 02-01-2020 00:23:17 -2.6 C 43 %
3604 02-01-2020 00:33:17 -2.4 C 43 %
3605 02-01-2020 00:43:17 -2.4 C 44 %
3606 02-01-2020 00:53:17 -2.6 C 43 %
3607 02-01-2020 01:03:17 -2.3 C 44 %
3608 02-01-2020 01:13:17 -2.1 C 45 %
3609 02-01-2020 01:23:17 -1.9 C 45 %
3610 02-01-2020 01:33:17 -1.9 C 45 %
3611 02-01-2020 01:43:17 -1.8 C 45 %
3612 02-01-2020 01:53:17 -1.7 C 45 %
3613 02-01-2020 02:03:17 -1.6 C 45 %
3614 02-01-2020 02:13:17 -1.5 C 45 %
3615 02-01-2020 02:23:17 -1.4 C 45 %
3616 02-01-2020 02:33:17 -1.3 C 45 %
3617 02-01-2020 02:43:17 -1.3 C 45 %
3618 02-01-2020 02:53:17 -1.3 C 45 %
3619 02-01-2020 03:03:17 -1.2 C 45 %
3620 02-01-2020 03:13:18 -1.1 C 45 %
3621 02-01-2020 03:23:17 -1.1 C 45 %
3622 02-01-2020 03:33:18 -1 C 45 %
3623 02-01-2020 03:43:18 -0.9 C 45 %
3624 02-01-2020 03:53:17 -0.9 C 45 %
3625 02-01-2020 04:03:18 -0.8 C 45 %
Sensor: Nr:Datum:Temp:Feuchte:
Aussen-T/F 3626 02-01-2020 04:13:18 -0.7 C 45 %
3627 02-01-2020 04:23:17 -0.7 C 45 %
3628 02-01-2020 04:33:17 -0.7 C 45 %
3629 02-01-2020 04:43:17 -0.7 C 45 %
3630 02-01-2020 04:53:17 -0.8 C 45 %
3631 02-01-2020 05:03:17 -0.9 C 45 %
3632 02-01-2020 05:13:17 -0.9 C 45 %
3633 02-01-2020 05:23:18 -0.9 C 45 %
3634 02-01-2020 05:33:17 -0.9 C 45 %
3635 02-01-2020 05:43:17 -0.8 C 44 %
3636 02-01-2020 05:53:18 -0.8 C 44 %
3637 02-01-2020 06:03:17 -0.9 C 44 %
3638 02-01-2020 06:13:17 -0.9 C 43 %
3639 02-01-2020 06:23:17 -0.9 C 43 %
3640 02-01-2020 06:33:18 -0.7 C 42 %
3641 02-01-2020 06:43:18 -0.7 C 41 %
3642 02-01-2020 06:53:17 -0.7 C 40 %
3643 02-01-2020 07:03:18 -0.7 C 40 %
3644 02-01-2020 07:13:18 -0.7 C 40 %
3645 02-01-2020 07:23:17 -0.7 C 39 %
3646 02-01-2020 07:33:17 -0.7 C 39 %
3647 02-01-2020 07:43:17 -0.7 C 40 %
3648 02-01-2020 07:53:17 -0.6 C 41 %
3649 02-01-2020 08:03:18 -0.6 C 41 %
3650 02-01-2020 08:13:18 -0.5 C 41 %
Sensor: Nr:Datum:Temp:Feuchte:
Aussen-T/F 3651 02-01-2020 08:23:17 -0.4 C 41 %
3652 02-01-2020 08:33:17 -0.3 C 40 %
3653 02-01-2020 08:43:17 -0.3 C 41 %
3654 02-01-2020 08:53:17 -0.2 C 42 %
3655 02-01-2020 09:03:17 -0.1 C 42 %
3656 02-01-2020 09:13:17 0.1 C 42 %
3657 02-01-2020 09:23:17 0.1 C 40 %
3658 02-01-2020 09:33:18 0.4 C 38 %
3659 02-01-2020 09:43:18 0.5 C 37 %
3660 02-01-2020 09:53:17 0.4 C 39 %
3661 02-01-2020 10:03:17 0.4 C 40 %
3662 02-01-2020 10:13:18 0.7 C 41 %
3663 02-01-2020 10:23:17 1.1 C 42 %
3664 02-01-2020 10:33:18 1.1 C 39 %
3665 02-01-2020 10:43:18 1.3 C 39 %
3666 02-01-2020 10:53:17 1.5 C 38 %
3667 02-01-2020 11:03:18 1.7 C 38 %
3668 02-01-2020 11:13:18 1.6 C 35 %
3669 02-01-2020 11:23:17 1.9 C 37 %
3670 02-01-2020 11:33:17 2.1 C 36 %
3671 02-01-2020 11:43:17 2.1 C 35 %
3672 02-01-2020 11:53:17 2.1 C 34 %
3673 02-01-2020 12:03:17 2.2 C 34 %
3674 02-01-2020 12:13:17 2.3 C 35 %
3675 02-01-2020 12:23:17 2.3 C 35 %
Sensor: Nr:Datum:Temp:Feuchte:
Aussen-T/F 3676 02-01-2020 12:33:17 2.6 C 34 %
3677 02-01-2020 12:43:17 3 C 35 %
3678 02-01-2020 12:53:17 2.8 C 32 %
3679 02-01-2020 13:03:17 2.9 C 31 %
3680 02-01-2020 13:13:17 3.1 C 30 %
3681 02-01-2020 13:23:17 3.3 C 29 %
3682 02-01-2020 13:33:17 3.6 C 29 %
3683 02-01-2020 13:43:17 3.3 C 29 %
3684 02-01-2020 13:53:18 3.1 C 30 %
3685 02-01-2020 14:03:17 3.4 C 30 %
3686 02-01-2020 14:13:17 3.4 C 30 %
3687 02-01-2020 14:23:18 3.5 C 30 %
3688 02-01-2020 14:33:17 3.4 C 30 %
3689 02-01-2020 14:43:17 3.7 C 30 %
3690 02-01-2020 14:53:17 3.4 C 30 %
3691 02-01-2020 15:03:17 3.1 C 31 %
3692 02-01-2020 15:13:17 3 C 31 %
3693 02-01-2020 15:23:18 2.7 C 32 %
3694 02-01-2020 15:33:17 2.5 C 33 %
3695 02-01-2020 15:43:17 2.5 C 34 %
3696 02-01-2020 15:53:17 2.4 C 35 %
3697 02-01-2020 16:03:17 2.4 C 35 %
3698 02-01-2020 16:13:17 2.3 C 35 %
3699 02-01-2020 16:23:18 2.2 C 36 %
3700 02-01-2020 16:33:17 2.2 C 37 %
Sensor: Nr:Datum:Temp:Feuchte:
Aussen-T/F 3701 02-01-2020 16:43:17 2.3 C 37 %
3702 02-01-2020 16:53:17 2.2 C 37 %
3703 02-01-2020 17:03:17 2.1 C 38 %
3704 02-01-2020 17:13:17 2 C 38 %
3705 02-01-2020 17:23:18 2.1 C 40 %
3706 02-01-2020 17:33:17 2.1 C 40 %
3707 02-01-2020 17:43:17 2.1 C 40 %
3708 02-01-2020 17:53:17 2.1 C 40 %
3709 02-01-2020 18:03:17 2.1 C 40 %
3710 02-01-2020 18:13:17 2.1 C 40 %
3711 02-01-2020 18:23:17 2.1 C 40 %
3712 02-01-2020 18:33:17 2.1 C 40 %
3713 02-01-2020 18:43:18 2.2 C 39 %
3714 02-01-2020 18:53:17 2.3 C 40 %
3715 02-01-2020 19:03:17 2.2 C 40 %
3716 02-01-2020 19:13:18 2.2 C 40 %
3717 02-01-2020 19:23:17 2.3 C 40 %
3718 02-01-2020 19:33:17 2.3 C 40 %
3719 02-01-2020 19:43:18 2.3 C 40 %
3720 02-01-2020 19:53:17 2.3 C 40 %
3721 02-01-2020 20:03:18 2.3 C 40 %
3722 02-01-2020 20:13:18 2.4 C 40 %
3723 02-01-2020 20:23:17 2.5 C 40 %
3724 02-01-2020 20:33:17 2.6 C 40 %
3725 02-01-2020 20:43:17 2.6 C 40 %
Sensor: Nr:Datum:Temp:Feuchte:
Aussen-T/F 3726 02-01-2020 20:53:17 2.5 C 39 %
3727 02-01-2020 21:03:18 2.5 C 40 %
3728 02-01-2020 21:13:18 2.5 C 40 %
3729 02-01-2020 21:23:17 2.5 C 40 %
3730 02-01-2020 21:33:18 2.5 C 40 %
3731 02-01-2020 21:43:18 2.3 C 40 %
3732 02-01-2020 21:53:17 1.9 C 42 %
3733 02-01-2020 22:03:17 2.3 C 43 %
3734 02-01-2020 22:13:17 2.4 C 43 %
3735 02-01-2020 22:23:17 2.5 C 43 %
3736 02-01-2020 22:33:17 2.6 C 43 %
3737 02-01-2020 22:43:18 2.7 C 43 %
3738 02-01-2020 22:53:17 2.7 C 42 %
3739 02-01-2020 23:03:17 2.8 C 42 %
3740 02-01-2020 23:13:17 2.8 C 42 %
3741 02-01-2020 23:23:17 2.8 C 41 %
3742 02-01-2020 23:33:18 2.8 C 42 %
3743 02-01-2020 23:43:18 2.9 C 42 %
3744 02-01-2020 23:53:17 2.8 C 41 %
3745 03-01-2020 00:03:18 2.9 C 42 %
3746 03-01-2020 00:13:18 3 C 41 %
3747 03-01-2020 00:23:17 3.1 C 41 %
3748 03-01-2020 00:33:17 3.2 C 41 %
3749 03-01-2020 00:43:17 3.2 C 41 %
3750 03-01-2020 00:53:17 3.4 C 42 %
Sensor: Nr:Datum:Temp:Feuchte:
Aussen-T/F 3751 03-01-2020 01:03:17 3.4 C 42 %
3752 03-01-2020 01:13:17 3.5 C 42 %
3753 03-01-2020 01:23:18 3.5 C 42 %
3754 03-01-2020 01:33:17 3.5 C 42 %
3755 03-01-2020 01:43:17 3.6 C 42 %
3756 03-01-2020 01:53:18 3.6 C 42 %
3757 03-01-2020 02:03:17 3.7 C 42 %
3758 03-01-2020 02:13:17 3.7 C 42 %
3759 03-01-2020 02:23:17 3.9 C 42 %
3760 03-01-2020 02:33:17 3.7 C 42 %
3761 03-01-2020 02:43:18 3.7 C 43 %
3762 03-01-2020 02:53:17 3.9 C 44 %
3763 03-01-2020 03:03:17 3.8 C 44 %
3764 03-01-2020 03:13:17 3.8 C 44 %
3765 03-01-2020 03:23:17 3.8 C 44 %
3766 03-01-2020 03:33:17 3.9 C 44 %
3767 03-01-2020 03:43:17 3.9 C 44 %
3768 03-01-2020 03:53:18 3.9 C 44 %
3769 03-01-2020 04:03:17 4 C 43 %
3770 03-01-2020 04:13:17 4 C 43 %
3771 03-01-2020 04:23:18 4 C 42 %
3772 03-01-2020 04:33:17 4.1 C 42 %
3773 03-01-2020 04:43:17 4.1 C 42 %
3774 03-01-2020 04:53:17 4.2 C 42 %
3775 03-01-2020 05:03:17 4.2 C 41 %
Sensor: Nr:Datum:Temp:Feuchte:
Aussen-T/F 3776 03-01-2020 05:13:17 4.3 C 40 %
3777 03-01-2020 05:23:17 4.3 C 40 %
3778 03-01-2020 05:33:17 4.4 C 40 %
3779 03-01-2020 05:43:17 4.4 C 40 %
3780 03-01-2020 05:53:17 4.4 C 40 %
3781 03-01-2020 06:03:17 4.4 C 40 %
3782 03-01-2020 06:13:17 4.4 C 40 %
3783 03-01-2020 06:23:18 4.4 C 40 %
3784 03-01-2020 06:33:17 4.7 C 40 %
3785 03-01-2020 06:43:17 5.3 C 40 %
3786 03-01-2020 06:53:18 6.7 C 34 %
3787 03-01-2020 07:03:18 7.1 C 31 %
3788 03-01-2020 07:13:18 7.7 C 30 %
3789 03-01-2020 07:23:17 8 C 29 %
3790 03-01-2020 07:33:17 7.9 C 30 %
3791 03-01-2020 07:43:17 7.8 C 30 %
3792 03-01-2020 07:53:17 7.9 C 29 %
3793 03-01-2020 08:03:18 7.9 C 30 %
3794 03-01-2020 08:13:18 8 C 29 %
3795 03-01-2020 08:23:17 7.9 C 29 %
3796 03-01-2020 08:33:18 7.8 C 29 %
3797 03-01-2020 08:43:18 7.9 C 29 %
3798 03-01-2020 08:53:17 8 C 29 %
3799 03-01-2020 09:03:17 8.2 C 28 %
3800 03-01-2020 09:13:17 8.2 C 28 %
Sensor: Nr:Datum:Temp:Feuchte:
Aussen-T/F 3801 03-01-2020 09:23:17 8.2 C 28 %
3802 03-01-2020 09:33:17 8.4 C 28 %
3803 03-01-2020 09:43:17 8.4 C 27 %
3804 03-01-2020 09:53:17 8.4 C 27 %
3805 03-01-2020 10:03:17 8.6 C 27 %
3806 03-01-2020 10:13:17 8.6 C 27 %
3807 03-01-2020 10:23:17 8.6 C 27 %
3808 03-01-2020 10:33:17 8.6 C 27 %
3809 03-01-2020 10:43:18 8.6 C 27 %
3810 03-01-2020 10:53:17 8.6 C 27 %
3811 03-01-2020 11:03:18 8.3 C 27 %
3812 03-01-2020 11:13:18 8.5 C 27 %
3813 03-01-2020 11:23:18 8.6 C 27 %
3814 03-01-2020 11:33:17 8.9 C 27 %
3815 03-01-2020 11:43:17 8.9 C 27 %
3816 03-01-2020 11:53:17 8.7 C 27 %
3817 03-01-2020 12:03:17 8.6 C 27 %
3818 03-01-2020 12:13:17 8.4 C 27 %
3819 03-01-2020 12:23:17 8.6 C 27 %
3820 03-01-2020 12:33:17 8.7 C 27 %
3821 03-01-2020 12:43:17 8.5 C 27 %
3822 03-01-2020 12:53:17 8.6 C 27 %
3823 03-01-2020 13:03:17 8.5 C 27 %
3824 03-01-2020 13:13:18 8.5 C 28 %
3825 03-01-2020 13:23:17 8.6 C 28 %
Sensor: Nr:Datum:Temp:Feuchte:
Aussen-T/F 3826 03-01-2020 13:33:17 8.8 C 27 %
3827 03-01-2020 13:43:18 8.8 C 28 %
3828 03-01-2020 13:53:17 8.7 C 28 %
3829 03-01-2020 14:03:17 8.7 C 28 %
3830 03-01-2020 14:13:17 8.5 C 28 %
3831 03-01-2020 14:23:18 8.5 C 29 %
3832 03-01-2020 14:33:17 8.5 C 29 %
3833 03-01-2020 14:43:17 8.5 C 29 %
3834 03-01-2020 14:53:17 8.5 C 30 %
3835 03-01-2020 15:03:17 9 C 28 %
3836 03-01-2020 15:13:17 9 C 28 %
3837 03-01-2020 15:23:17 9 C 28 %
3838 03-01-2020 15:33:17 9.1 C 28 %
3839 03-01-2020 15:43:18 9.2 C 28 %
3840 03-01-2020 15:53:17 9 C 28 %
3841 03-01-2020 16:03:17 9 C 28 %
3842 03-01-2020 16:13:17 9 C 29 %
3843 03-01-2020 16:23:17 8.9 C 30 %
3844 03-01-2020 16:33:17 9 C 29 %
3845 03-01-2020 16:43:17 9 C 29 %
3846 03-01-2020 16:53:17 9 C 29 %
3847 03-01-2020 17:03:17 8.6 C 31 %
3848 03-01-2020 17:13:17 8.6 C 31 %
3849 03-01-2020 17:23:17 8.9 C 31 %
3850 03-01-2020 17:33:17 8.8 C 30 %
Sensor: Nr:Datum:Temp:Feuchte:
Aussen-T/F 3851 03-01-2020 17:43:17 8.9 C 30 %
3852 03-01-2020 17:53:17 9 C 30 %
3853 03-01-2020 18:03:17 9 C 30 %
3854 03-01-2020 18:13:18 9.1 C 30 %
3855 03-01-2020 18:23:18 9.3 C 30 %
3856 03-01-2020 18:33:18 9.3 C 30 %
3857 03-01-2020 18:43:18 9.2 C 30 %
3858 03-01-2020 18:53:17 9.3 C 30 %
3859 03-01-2020 19:03:18 9.2 C 30 %
3860 03-01-2020 19:13:18 8.9 C 32 %
3861 03-01-2020 19:23:17 8.9 C 32 %
3862 03-01-2020 19:33:17 9.2 C 31 %
3863 03-01-2020 19:43:17 9.3 C 31 %
3864 03-01-2020 19:53:17 9.2 C 31 %
3865 03-01-2020 20:03:18 9 C 31 %
3866 03-01-2020 20:13:18 8.9 C 35 %
3867 03-01-2020 20:23:17 8.9 C 35 %
3868 03-01-2020 20:33:17 8.8 C 35 %
3869 03-01-2020 20:43:17 8.7 C 36 %
3870 03-01-2020 20:53:18 8.6 C 39 %
3871 03-01-2020 21:03:17 8.2 C 37 %
3872 03-01-2020 21:13:17 7.8 C 35 %
3873 03-01-2020 21:23:17 7.5 C 35 %
3874 03-01-2020 21:33:18 7.4 C 36 %
3875 03-01-2020 21:43:18 7.2 C 35 %
Sensor: Nr:Datum:Temp:Feuchte:
Aussen-T/F 3876 03-01-2020 21:53:17 6.8 C 35 %
3877 03-01-2020 22:03:18 6.8 C 34 %
3878 03-01-2020 22:13:18 6.7 C 35 %
3879 03-01-2020 22:23:17 6.5 C 33 %
3880 03-01-2020 22:33:17 6.4 C 34 %
3881 03-01-2020 22:43:17 6 C 33 %
3882 03-01-2020 22:53:17 6 C 34 %
3883 03-01-2020 23:03:17 5.7 C 35 %
3884 03-01-2020 23:13:17 5.9 C 34 %
3885 03-01-2020 23:23:17 5.8 C 35 %
3886 03-01-2020 23:33:17 5.8 C 33 %
3887 03-01-2020 23:43:17 5.7 C 35 %
3888 03-01-2020 23:53:17 5.8 C 35 %
3889 04-01-2020 00:03:18 5.7 C 35 %
3890 04-01-2020 00:13:18 5.6 C 35 %
3891 04-01-2020 00:23:17 5.4 C 35 %
3892 04-01-2020 00:33:17 5.6 C 33 %
3893 04-01-2020 00:43:17 5.6 C 33 %
3894 04-01-2020 00:53:17 5.4 C 34 %
3895 04-01-2020 01:03:17 5.3 C 34 %
3896 04-01-2020 01:13:17 4.6 C 36 %
3897 04-01-2020 01:23:17 4.6 C 36 %
3898 04-01-2020 01:33:17 4.6 C 36 %
3899 04-01-2020 01:43:17 3.6 C 37 %
3900 04-01-2020 01:53:18 3.6 C 41 %
Sensor: Nr:Datum:Temp:Feuchte:
Aussen-T/F 3901 04-01-2020 02:03:17 3.5 C 41 %
3902 04-01-2020 02:13:17 3.9 C 37 %
3903 04-01-2020 02:23:17 3.8 C 35 %
3904 04-01-2020 02:33:17 3.5 C 37 %
3905 04-01-2020 02:43:17 3.4 C 40 %
3906 04-01-2020 02:53:17 3.8 C 39 %
3907 04-01-2020 03:03:18 3.7 C 39 %
3908 04-01-2020 03:13:18 3.9 C 40 %
3909 04-01-2020 03:23:17 3.3 C 39 %
3910 04-01-2020 03:33:17 3 C 41 %
3911 04-01-2020 03:43:17 3.4 C 42 %
3912 04-01-2020 03:53:17 3.7 C 36 %
3913 04-01-2020 04:03:17 3.7 C 35 %
3914 04-01-2020 04:13:17 3.4 C 35 %
3915 04-01-2020 04:23:17 3.3 C 36 %
3916 04-01-2020 04:33:17 3.1 C 37 %
3917 04-01-2020 04:43:17 2.8 C 38 %
3918 04-01-2020 04:53:17 2.6 C 39 %
3919 04-01-2020 05:03:17 2.9 C 40 %
3920 04-01-2020 05:13:17 2.4 C 38 %
3921 04-01-2020 05:23:17 2.5 C 40 %
3922 04-01-2020 05:33:17 1.8 C 40 %
3923 04-01-2020 05:43:18 2 C 41 %
3924 04-01-2020 05:53:17 2.3 C 40 %
3925 04-01-2020 06:03:17 2.2 C 39 %
Sensor: Nr:Datum:Temp:Feuchte:
Aussen-T/F 3926 04-01-2020 06:13:17 2.8 C 36 %
3927 04-01-2020 06:23:17 2.6 C 35 %
3928 04-01-2020 06:33:17 2.4 C 37 %
3929 04-01-2020 06:43:17 2.7 C 37 %
3930 04-01-2020 06:53:17 2.7 C 34 %
3931 04-01-2020 07:03:17 2.7 C 34 %
3932 04-01-2020 07:13:17 2.5 C 34 %
3933 04-01-2020 07:23:17 2.5 C 34 %
3934 04-01-2020 07:33:17 2 C 36 %
3935 04-01-2020 07:43:17 2 C 36 %
3936 04-01-2020 07:53:17 2.1 C 37 %
3937 04-01-2020 08:03:17 1.7 C 39 %
3938 04-01-2020 08:13:17 1.6 C 41 %
3939 04-01-2020 08:23:17 1.3 C 41 %
3940 04-01-2020 08:33:17 1.2 C 43 %
3941 04-01-2020 08:43:17 1.3 C 42 %
3942 04-01-2020 08:53:17 1.2 C 41 %
3943 04-01-2020 09:03:17 1 C 41 %
3944 04-01-2020 09:13:17 0.8 C 44 %
3945 04-01-2020 09:23:17 1 C 44 %
3946 04-01-2020 09:33:18 1.4 C 45 %
3947 04-01-2020 09:43:18 1.7 C 44 %
3948 04-01-2020 09:53:17 1.9 C 41 %
3949 04-01-2020 10:03:18 2.1 C 39 %
3950 04-01-2020 10:13:18 2.3 C 38 %
Sensor: Nr:Datum:Temp:Feuchte:
Aussen-T/F 3951 04-01-2020 10:23:17 3.1 C 35 %
3952 04-01-2020 10:33:17 3.6 C 33 %
3953 04-01-2020 10:43:17 5.1 C 27 %
3954 04-01-2020 10:53:17 5.1 C 27 %
3955 04-01-2020 11:03:17 5.4 C 27 %
3956 04-01-2020 11:13:17 5.4 C 27 %
3957 04-01-2020 11:23:17 5.6 C 27 %
3958 04-01-2020 11:33:17 5.6 C 27 %
3959 04-01-2020 11:43:17 5.6 C 26 %
3960 04-01-2020 11:53:17 5.8 C 26 %
3961 04-01-2020 12:03:17 5.9 C 26 %
3962 04-01-2020 12:13:18 6 C 26 %
3963 04-01-2020 12:23:17 6.2 C 26 %
3964 04-01-2020 12:33:17 6.2 C 26 %
3965 04-01-2020 12:43:17 6.3 C 26 %
3966 04-01-2020 12:53:17 6.5 C 26 %
3967 04-01-2020 13:03:17 6.7 C 26 %
3968 04-01-2020 13:13:17 6.7 C 26 %
3969 04-01-2020 13:23:17 6.7 C 26 %
3970 04-01-2020 13:33:17 6.8 C 25 %
3971 04-01-2020 13:43:17 7 C 25 %
3972 04-01-2020 13:53:18 7 C 25 %
3973 04-01-2020 14:03:18 7 C 25 %
3974 04-01-2020 14:13:18 7 C 25 %
3975 04-01-2020 14:23:18 7.1 C 25 %
Sensor: Nr:Datum:Temp:Feuchte:
Aussen-T/F 3976 04-01-2020 14:33:17 7.1 C 25 %
3977 04-01-2020 14:43:18 7 C 25 %
3978 04-01-2020 14:53:17 7 C 25 %
3979 04-01-2020 15:03:17 7.1 C 25 %
3980 04-01-2020 15:13:17 7 C 25 %
3981 04-01-2020 15:23:17 7 C 25 %
3982 04-01-2020 15:33:18 7 C 25 %
3983 04-01-2020 15:43:18 7 C 25 %
3984 04-01-2020 15:53:18 6.9 C 25 %
3985 04-01-2020 16:03:17 6.9 C 25 %
3986 04-01-2020 16:13:18 6.9 C 25 %
3987 04-01-2020 16:23:17 6.9 C 25 %
3988 04-01-2020 16:33:17 6.8 C 25 %
3989 04-01-2020 16:43:17 6.8 C 25 %
3990 04-01-2020 16:53:17 6.8 C 25 %
3991 04-01-2020 17:03:17 6.8 C 25 %
3992 04-01-2020 17:13:17 6.8 C 25 %
3993 04-01-2020 17:23:17 6.7 C 25 %
3994 04-01-2020 17:33:18 6.7 C 25 %
3995 04-01-2020 17:43:18 6.6 C 25 %
3996 04-01-2020 17:53:17 6.6 C 25 %
3997 04-01-2020 18:03:17 6.7 C 25 %
3998 04-01-2020 18:13:17 6.6 C 25 %
3999 04-01-2020 18:23:17 6.8 C 25 %
4000 04-01-2020 18:33:17 6.7 C 25 %
Sensor: Nr:Datum:Temp:Feuchte:
Aussen-T/F 4001 04-01-2020 18:43:17 6.6 C 25 %
4002 04-01-2020 18:53:17 6.5 C 25 %
4003 04-01-2020 19:03:17 6.6 C 25 %
4004 04-01-2020 19:13:17 6.7 C 25 %
4005 04-01-2020 19:23:17 6.5 C 26 %
4006 04-01-2020 19:33:17 6 C 27 %
4007 04-01-2020 19:43:17 5.8 C 30 %
4008 04-01-2020 19:53:17 5.6 C 30 %
4009 04-01-2020 20:03:17 5.5 C 31 %
4010 04-01-2020 20:13:17 5.6 C 31 %
4011 04-01-2020 20:23:18 5.7 C 30 %
4012 04-01-2020 20:33:18 5.8 C 30 %
4013 04-01-2020 20:43:18 6 C 29 %
4014 04-01-2020 20:53:17 6.1 C 29 %
4015 04-01-2020 21:03:17 5.8 C 30 %
4016 04-01-2020 21:13:17 5.5 C 33 %
4017 04-01-2020 21:23:17 5.3 C 35 %
4018 04-01-2020 21:33:17 5.3 C 38 %
4019 04-01-2020 21:43:17 5.2 C 37 %
4020 04-01-2020 21:53:18 5.3 C 40 %
4021 04-01-2020 22:03:17 5.3 C 40 %
4022 04-01-2020 22:13:17 5.3 C 39 %
4023 04-01-2020 22:23:17 5.3 C 37 %
4024 04-01-2020 22:33:17 5.4 C 37 %
4025 04-01-2020 22:43:17 5.4 C 37 %
Sensor: Nr:Datum:Temp:Feuchte:
Aussen-T/F 4026 04-01-2020 22:53:17 5.4 C 36 %
4027 04-01-2020 23:03:17 5.5 C 35 %
4028 04-01-2020 23:13:17 5.6 C 35 %
4029 04-01-2020 23:23:17 5.6 C 34 %
4030 04-01-2020 23:33:18 5.6 C 35 %
4031 04-01-2020 23:43:18 5.7 C 34 %
4032 04-01-2020 23:53:17 5.6 C 35 %
4033 05-01-2020 00:03:17 5.6 C 33 %
4034 05-01-2020 00:13:17 5.5 C 35 %
4035 05-01-2020 00:23:17 5.4 C 35 %
4036 05-01-2020 00:33:18 5.4 C 35 %
4037 05-01-2020 00:43:18 5.3 C 36 %
4038 05-01-2020 00:53:17 5.3 C 36 %
4039 05-01-2020 01:03:17 5.1 C 37 %
4040 05-01-2020 01:13:17 5 C 40 %
4041 05-01-2020 01:23:17 4.9 C 42 %
4042 05-01-2020 01:33:17 4.8 C 41 %
4043 05-01-2020 01:43:18 4.8 C 42 %
4044 05-01-2020 01:53:17 4.7 C 42 %
4045 05-01-2020 02:03:18 4.8 C 41 %
4046 05-01-2020 02:13:18 4.7 C 41 %
4047 05-01-2020 02:23:17 4.6 C 43 %
4048 05-01-2020 02:33:17 4.5 C 44 %
4049 05-01-2020 02:43:17 4.6 C 44 %
4050 05-01-2020 02:53:17 4.6 C 42 %
Sensor: Nr:Datum:Temp:Feuchte:
Aussen-T/F 4051 05-01-2020 03:03:17 4.6 C 42 %
4052 05-01-2020 03:13:17 4.6 C 41 %
4053 05-01-2020 03:23:17 4.3 C 42 %
4054 05-01-2020 03:33:17 4.3 C 43 %
4055 05-01-2020 03:43:17 4.4 C 44 %
4056 05-01-2020 03:53:17 4.5 C 44 %
4057 05-01-2020 04:03:17 4.4 C 43 %
4058 05-01-2020 04:13:17 4.4 C 43 %
4059 05-01-2020 04:23:17 4.3 C 42 %
4060 05-01-2020 04:33:17 4.3 C 43 %
4061 05-01-2020 04:43:17 4.4 C 43 %
4062 05-01-2020 04:53:17 4.4 C 42 %
4063 05-01-2020 05:03:17 4.4 C 42 %
4064 05-01-2020 05:13:17 4.4 C 42 %
4065 05-01-2020 05:23:17 4.4 C 42 %
4066 05-01-2020 05:33:18 4.5 C 43 %
4067 05-01-2020 05:43:18 4.6 C 43 %
4068 05-01-2020 05:53:17 4.5 C 43 %
4069 05-01-2020 06:03:17 4.6 C 43 %
4070 05-01-2020 06:13:17 4.6 C 43 %
4071 05-01-2020 06:23:17 4.6 C 42 %
4072 05-01-2020 06:33:17 4.7 C 41 %
4073 05-01-2020 06:43:17 4.7 C 40 %
4074 05-01-2020 06:53:17 4.6 C 41 %
4075 05-01-2020 07:03:17 4.6 C 41 %
Sensor: Nr:Datum:Temp:Feuchte:
Aussen-T/F 4076 05-01-2020 07:13:17 4.6 C 42 %
4077 05-01-2020 07:23:17 4.5 C 42 %
4078 05-01-2020 07:33:17 4.5 C 41 %
4079 05-01-2020 07:43:17 4.4 C 41 %
4080 05-01-2020 07:53:17 4.4 C 41 %
4081 05-01-2020 08:03:18 4.3 C 42 %
4082 05-01-2020 08:13:18 4.3 C 42 %
4083 05-01-2020 08:23:17 4.3 C 41 %
4084 05-01-2020 08:33:17 4.4 C 42 %
4085 05-01-2020 08:43:17 4.4 C 41 %
4086 05-01-2020 08:53:17 4.6 C 40 %
4087 05-01-2020 09:03:18 4.6 C 39 %
4088 05-01-2020 09:13:18 4.6 C 40 %
4089 05-01-2020 09:23:17 4.7 C 38 %
4090 05-01-2020 09:33:18 4.8 C 38 %
4091 05-01-2020 09:43:18 5 C 36 %
4092 05-01-2020 09:53:17 5.1 C 35 %
4093 05-01-2020 10:03:17 5.3 C 35 %
4094 05-01-2020 10:13:18 5.4 C 34 %
4095 05-01-2020 10:23:18 5.4 C 34 %
4096 05-01-2020 10:33:18 5.5 C 33 %
4097 05-01-2020 10:43:18 5.5 C 33 %
4098 05-01-2020 10:53:17 5.5 C 34 %
4099 05-01-2020 11:03:17 5.7 C 34 %
4100 05-01-2020 11:13:17 5.7 C 33 %
Sensor: Nr:Datum:Temp:Feuchte:
Aussen-T/F 4101 05-01-2020 11:23:17 5.7 C 33 %
4102 05-01-2020 11:33:17 5.9 C 32 %
4103 05-01-2020 11:43:17 5.9 C 32 %
4104 05-01-2020 11:53:17 6 C 32 %
4105 05-01-2020 12:03:17 6 C 31 %
4106 05-01-2020 12:13:17 6 C 31 %
4107 05-01-2020 12:23:17 6.1 C 31 %
4108 05-01-2020 12:33:17 6.2 C 31 %
4109 05-01-2020 12:43:17 6.2 C 31 %
4110 05-01-2020 12:53:17 6.2 C 31 %
4111 05-01-2020 13:03:17 6.3 C 31 %
4112 05-01-2020 13:13:17 6.5 C 30 %
4113 05-01-2020 13:23:17 6.5 C 30 %
4114 05-01-2020 13:33:18 6.5 C 30 %
4115 05-01-2020 13:43:18 6.6 C 30 %
4116 05-01-2020 13:53:18 6.6 C 30 %
4117 05-01-2020 14:03:18 6.7 C 30 %
4118 05-01-2020 14:13:18 6.6 C 30 %
4119 05-01-2020 14:23:18 6.7 C 30 %
4120 05-01-2020 14:33:18 6.7 C 30 %
4121 05-01-2020 14:43:18 6.7 C 30 %
4122 05-01-2020 14:53:17 6.7 C 30 %
4123 05-01-2020 15:03:18 6.6 C 30 %
4124 05-01-2020 15:13:18 6.6 C 30 %
4125 05-01-2020 15:23:18 6.5 C 31 %
Sensor: Nr:Datum:Temp:Feuchte:
Aussen-T/F 4126 05-01-2020 15:33:18 6.3 C 33 %
4127 05-01-2020 15:43:18 6.1 C 34 %
4128 05-01-2020 15:53:18 6 C 35 %
4129 05-01-2020 16:03:18 6 C 35 %
4130 05-01-2020 16:13:18 5.9 C 36 %
4131 05-01-2020 16:23:17 5.8 C 36 %
4132 05-01-2020 16:33:17 5.7 C 36 %
4133 05-01-2020 16:43:17 5.7 C 35 %
4134 05-01-2020 16:53:18 5.6 C 36 %
4135 05-01-2020 17:03:18 5.6 C 35 %
4136 05-01-2020 17:13:18 5.6 C 34 %
4137 05-01-2020 17:23:18 5.7 C 31 %
4138 05-01-2020 17:33:18 5.6 C 31 %
4139 05-01-2020 17:43:18 5.6 C 31 %
4140 05-01-2020 17:53:17 5.7 C 31 %
4141 05-01-2020 18:03:17 5.6 C 31 %
4142 05-01-2020 18:13:17 5.5 C 31 %
4143 05-01-2020 18:23:17 5.6 C 30 %
4144 05-01-2020 18:33:17 5.7 C 29 %
4145 05-01-2020 18:43:17 5.5 C 30 %
4146 05-01-2020 18:53:17 5.6 C 30 %
4147 05-01-2020 19:03:17 5.5 C 30 %
4148 05-01-2020 19:13:17 5.6 C 30 %
4149 05-01-2020 19:23:17 5.4 C 31 %
4150 05-01-2020 19:33:17 5.3 C 31 %
Sensor: Nr:Datum:Temp:Feuchte:
Aussen-T/F 4151 05-01-2020 19:43:17 5.4 C 31 %
4152 05-01-2020 19:53:18 5.3 C 31 %
4153 05-01-2020 20:03:18 5.2 C 32 %
4154 05-01-2020 20:13:18 5.5 C 29 %
4155 05-01-2020 20:23:18 5.3 C 30 %
4156 05-01-2020 20:33:18 5.3 C 30 %
4157 05-01-2020 20:43:18 5.2 C 31 %
4158 05-01-2020 20:53:18 5.2 C 31 %
4159 05-01-2020 21:03:18 5 C 32 %
4160 05-01-2020 21:13:18 5.1 C 32 %
4161 05-01-2020 21:23:18 5 C 32 %
4162 05-01-2020 21:33:17 4.9 C 34 %
4163 05-01-2020 21:43:17 4.8 C 35 %
4164 05-01-2020 21:53:17 4.8 C 35 %
4165 05-01-2020 22:03:17 4.8 C 35 %
4166 05-01-2020 22:13:17 4.8 C 35 %
4167 05-01-2020 22:23:17 4.7 C 35 %
4168 05-01-2020 22:33:17 4.7 C 35 %
4169 05-01-2020 22:43:17 4.7 C 35 %
4170 05-01-2020 22:53:17 4.6 C 36 %
4171 05-01-2020 23:03:17 4.5 C 36 %
4172 05-01-2020 23:13:17 4.4 C 37 %
4173 05-01-2020 23:23:17 4.4 C 36 %
4174 05-01-2020 23:33:17 4.5 C 36 %
4175 05-01-2020 23:43:17 4.4 C 35 %
Sensor: Nr:Datum:Temp:Feuchte:
Aussen-T/F 4176 05-01-2020 23:53:17 4.5 C 33 %
Sensor: Nr:Datum:Temp:Feuchte:
G-T/H 1 08-12-2019 00:01:17 9.7 C 75 %
2 08-12-2019 00:11:17 9.7 C 75 %
3 08-12-2019 00:21:17 9.7 C 75 %
4 08-12-2019 00:31:18 9.7 C 75 %
5 08-12-2019 00:41:18 9.7 C 75 %
6 08-12-2019 00:51:17 9.7 C 75 %
7 08-12-2019 01:01:18 9.7 C 75 %
8 08-12-2019 01:11:18 9.8 C 75 %
9 08-12-2019 01:21:17 9.8 C 76 %
10 08-12-2019 01:31:17 9.8 C 76 %
11 08-12-2019 01:41:17 9.8 C 76 %
12 08-12-2019 01:51:18 9.8 C 76 %
13 08-12-2019 02:01:17 9.8 C 76 %
14 08-12-2019 02:11:17 9.8 C 75 %
15 08-12-2019 02:21:17 9.8 C 75 %
16 08-12-2019 02:31:17 9.8 C 75 %
17 08-12-2019 02:41:18 9.8 C 75 %
18 08-12-2019 02:51:17 9.8 C 75 %
19 08-12-2019 03:01:17 9.8 C 75 %
20 08-12-2019 03:11:17 9.8 C 75 %
21 08-12-2019 03:21:17 9.8 C 75 %
22 08-12-2019 03:31:17 9.8 C 76 %
23 08-12-2019 03:41:17 9.8 C 75 %
24 08-12-2019 03:51:17 9.9 C 76 %
25 08-12-2019 04:01:17 9.8 C 75 %
Sensor: Nr:Datum:Temp:Feuchte:
G-T/H 26 08-12-2019 04:11:18 9.9 C 75 %
27 08-12-2019 04:21:17 9.9 C 76 %
28 08-12-2019 04:31:17 9.9 C 75 %
29 08-12-2019 04:41:17 9.9 C 76 %
30 08-12-2019 04:51:17 9.9 C 76 %
31 08-12-2019 05:01:17 9.9 C 75 %
32 08-12-2019 05:11:17 9.9 C 76 %
33 08-12-2019 05:21:17 9.9 C 76 %
34 08-12-2019 05:31:17 9.9 C 76 %
35 08-12-2019 05:41:17 9.9 C 76 %
36 08-12-2019 05:51:17 9.9 C 76 %
37 08-12-2019 06:01:17 10 C 74 %
38 08-12-2019 06:11:18 10 C 74 %
39 08-12-2019 06:21:17 10 C 74 %
40 08-12-2019 06:31:17 10 C 74 %
41 08-12-2019 06:41:17 10 C 74 %
42 08-12-2019 06:51:17 10 C 74 %
43 08-12-2019 07:01:18 10 C 74 %
44 08-12-2019 07:11:18 10 C 74 %
45 08-12-2019 07:21:17 10 C 74 %
46 08-12-2019 07:31:17 10 C 74 %
47 08-12-2019 07:41:17 10 C 74 %
48 08-12-2019 07:51:17 10 C 74 %
49 08-12-2019 08:01:17 10 C 74 %
50 08-12-2019 08:11:17 10 C 74 %
Sensor: Nr:Datum:Temp:Feuchte:
G-T/H 51 08-12-2019 08:21:17 10 C 74 %
52 08-12-2019 08:31:17 10 C 74 %
53 08-12-2019 08:41:17 10.1 C 74 %
54 08-12-2019 08:51:17 10.1 C 74 %
55 08-12-2019 09:01:17 10.1 C 74 %
56 08-12-2019 09:11:17 10.1 C 74 %
57 08-12-2019 09:21:17 10.1 C 74 %
58 08-12-2019 09:31:17 10.1 C 74 %
59 08-12-2019 09:41:17 10.1 C 74 %
60 08-12-2019 09:51:17 10.1 C 74 %
61 08-12-2019 10:01:17 10.1 C 74 %
62 08-12-2019 10:11:17 10.1 C 75 %
63 08-12-2019 10:21:17 10.1 C 75 %
64 08-12-2019 10:31:17 10.1 C 75 %
65 08-12-2019 10:41:17 10.1 C 75 %
66 08-12-2019 10:51:17 10.2 C 75 %
67 08-12-2019 11:01:17 10.2 C 75 %
68 08-12-2019 11:11:17 10.2 C 75 %
69 08-12-2019 11:21:17 10.2 C 75 %
70 08-12-2019 11:31:17 10.2 C 75 %
71 08-12-2019 11:41:17 10.2 C 75 %
72 08-12-2019 11:51:17 10.2 C 75 %
73 08-12-2019 12:01:18 10.2 C 75 %
74 08-12-2019 12:11:18 10.2 C 75 %
75 08-12-2019 12:21:17 10.3 C 75 %
Sensor: Nr:Datum:Temp:Feuchte:
G-T/H 76 08-12-2019 12:31:17 10.3 C 75 %
77 08-12-2019 12:41:17 10.3 C 75 %
78 08-12-2019 12:51:17 10.3 C 75 %
79 08-12-2019 13:01:18 10.3 C 75 %
80 08-12-2019 13:11:18 10.3 C 75 %
81 08-12-2019 13:21:17 10.3 C 75 %
82 08-12-2019 13:31:17 10.3 C 75 %
83 08-12-2019 13:41:17 10.4 C 75 %
84 08-12-2019 13:51:17 10.4 C 75 %
85 08-12-2019 14:01:17 10.4 C 75 %
86 08-12-2019 14:11:17 10.4 C 75 %
87 08-12-2019 14:21:17 10.4 C 75 %
88 08-12-2019 14:31:18 10.4 C 75 %
89 08-12-2019 14:41:18 10.4 C 75 %
90 08-12-2019 14:51:17 10.4 C 75 %
91 08-12-2019 15:01:18 10.5 C 75 %
92 08-12-2019 15:11:18 10.5 C 75 %
93 08-12-2019 15:21:18 10.5 C 75 %
94 08-12-2019 15:31:18 10.5 C 75 %
95 08-12-2019 15:41:18 10.5 C 75 %
96 08-12-2019 15:51:17 10.5 C 75 %
97 08-12-2019 16:01:17 10.6 C 75 %
98 08-12-2019 16:11:17 10.6 C 75 %
99 08-12-2019 16:21:18 10.6 C 75 %
100 08-12-2019 16:31:18 10.6 C 76 %
Sensor: Nr:Datum:Temp:Feuchte:
G-T/H 101 08-12-2019 16:41:18 10.6 C 76 %
102 08-12-2019 16:51:17 10.6 C 76 %
103 08-12-2019 17:01:17 10.6 C 76 %
104 08-12-2019 17:11:17 10.6 C 76 %
105 08-12-2019 17:21:17 10.6 C 76 %
106 08-12-2019 17:31:17 10.6 C 76 %
107 08-12-2019 17:41:17 10.6 C 76 %
108 08-12-2019 17:51:17 10.6 C 76 %
109 08-12-2019 18:01:17 10.6 C 76 %
110 08-12-2019 18:11:17 10.6 C 76 %
111 08-12-2019 18:21:17 10.6 C 76 %
112 08-12-2019 18:31:18 10.6 C 76 %
113 08-12-2019 18:41:18 10.7 C 76 %
114 08-12-2019 18:51:17 10.7 C 76 %
115 08-12-2019 19:01:17 10.7 C 76 %
116 08-12-2019 19:11:17 10.7 C 76 %
117 08-12-2019 19:21:17 10.7 C 76 %
118 08-12-2019 19:31:17 10.7 C 76 %
119 08-12-2019 19:41:17 10.7 C 76 %
120 08-12-2019 19:51:18 10.7 C 76 %
121 08-12-2019 20:01:17 10.7 C 76 %
122 08-12-2019 20:11:17 10.7 C 76 %
123 08-12-2019 20:21:17 10.7 C 76 %
124 08-12-2019 20:31:17 10.7 C 76 %
125 08-12-2019 20:41:17 10.7 C 76 %
Sensor: Nr:Datum:Temp:Feuchte:
G-T/H 126 08-12-2019 20:51:17 10.7 C 76 %
127 08-12-2019 21:01:18 10.7 C 76 %
128 08-12-2019 21:11:18 10.7 C 76 %
129 08-12-2019 21:21:17 10.7 C 76 %
130 08-12-2019 21:31:17 10.7 C 76 %
131 08-12-2019 21:41:17 10.7 C 76 %
132 08-12-2019 21:51:18 10.7 C 76 %
133 08-12-2019 22:01:17 10.7 C 75 %
134 08-12-2019 22:11:17 10.7 C 76 %
135 08-12-2019 22:21:17 10.7 C 75 %
136 08-12-2019 22:31:17 10.7 C 75 %
137 08-12-2019 22:41:17 10.7 C 75 %
138 08-12-2019 22:51:17 10.7 C 75 %
139 08-12-2019 23:01:17 10.7 C 75 %
140 08-12-2019 23:11:17 10.7 C 75 %
141 08-12-2019 23:21:17 10.7 C 75 %
142 08-12-2019 23:31:18 10.7 C 75 %
143 08-12-2019 23:41:18 10.7 C 75 %
144 08-12-2019 23:51:17 10.7 C 75 %
145 09-12-2019 00:01:18 10.7 C 75 %
146 09-12-2019 00:11:18 10.7 C 75 %
147 09-12-2019 00:21:17 10.7 C 75 %
148 09-12-2019 00:31:17 10.7 C 75 %
149 09-12-2019 00:41:17 10.7 C 75 %
150 09-12-2019 00:51:17 10.7 C 75 %
Sensor: Nr:Datum:Temp:Feuchte:
G-T/H 151 09-12-2019 01:01:17 10.7 C 75 %
152 09-12-2019 01:11:17 10.7 C 75 %
153 09-12-2019 01:21:18 10.7 C 75 %
154 09-12-2019 01:31:17 10.7 C 75 %
155 09-12-2019 01:41:17 10.7 C 75 %
156 09-12-2019 01:51:17 10.7 C 75 %
157 09-12-2019 02:01:17 10.7 C 75 %
158 09-12-2019 02:11:17 10.7 C 75 %
159 09-12-2019 02:21:17 10.7 C 75 %
160 09-12-2019 02:31:18 10.7 C 75 %
161 09-12-2019 02:41:18 10.7 C 75 %
162 09-12-2019 02:51:18 10.7 C 75 %
163 09-12-2019 03:01:17 10.6 C 75 %
164 09-12-2019 03:11:17 10.7 C 74 %
165 09-12-2019 03:21:17 10.6 C 74 %
166 09-12-2019 03:31:17 10.6 C 74 %
167 09-12-2019 03:41:17 10.6 C 74 %
168 09-12-2019 03:51:17 10.6 C 74 %
169 09-12-2019 04:01:17 10.6 C 74 %
170 09-12-2019 04:11:17 10.6 C 74 %
171 09-12-2019 04:21:18 10.6 C 74 %
172 09-12-2019 04:31:18 10.6 C 74 %
173 09-12-2019 04:41:18 10.6 C 74 %
174 09-12-2019 04:51:17 10.6 C 74 %
175 09-12-2019 05:01:17 10.6 C 74 %
Sensor: Nr:Datum:Temp:Feuchte:
G-T/H 176 09-12-2019 05:11:17 10.6 C 74 %
177 09-12-2019 05:21:17 10.6 C 74 %
178 09-12-2019 05:31:17 10.6 C 74 %
179 09-12-2019 05:41:18 10.5 C 74 %
180 09-12-2019 05:51:17 10.5 C 74 %
181 09-12-2019 06:01:17 10.5 C 74 %
182 09-12-2019 06:11:17 10.5 C 74 %
183 09-12-2019 06:21:17 10.5 C 74 %
184 09-12-2019 06:31:17 10.5 C 74 %
185 09-12-2019 06:41:17 10.5 C 74 %
186 09-12-2019 06:51:18 10.5 C 74 %
187 09-12-2019 07:01:17 10.5 C 74 %
188 09-12-2019 07:11:18 10.5 C 74 %
189 09-12-2019 07:21:17 10.5 C 74 %
190 09-12-2019 07:31:17 10.5 C 74 %
191 09-12-2019 07:41:17 10.5 C 74 %
192 09-12-2019 07:51:18 10.4 C 74 %
193 09-12-2019 08:01:17 10.4 C 74 %
194 09-12-2019 08:11:17 10.5 C 74 %
195 09-12-2019 08:21:17 10.5 C 74 %
196 09-12-2019 08:31:17 10.4 C 74 %
197 09-12-2019 08:41:17 10.5 C 74 %
198 09-12-2019 08:51:17 10.4 C 74 %
199 09-12-2019 09:01:17 10.4 C 74 %
200 09-12-2019 09:11:17 10.4 C 74 %
Sensor: Nr:Datum:Temp:Feuchte:
G-T/H 201 09-12-2019 09:21:17 10.4 C 74 %
202 09-12-2019 09:31:17 10.4 C 74 %
203 09-12-2019 09:41:17 10.4 C 74 %
204 09-12-2019 09:51:17 10.4 C 74 %
205 09-12-2019 10:01:17 10.4 C 74 %
206 09-12-2019 10:11:17 10.4 C 74 %
207 09-12-2019 10:21:17 10.4 C 74 %
208 09-12-2019 10:31:18 10.4 C 74 %
209 09-12-2019 10:41:18 10.4 C 74 %
210 09-12-2019 10:51:17 10.4 C 74 %
211 09-12-2019 11:01:17 10.4 C 74 %
212 09-12-2019 11:11:17 10.4 C 74 %
213 09-12-2019 11:21:17 10.4 C 74 %
214 09-12-2019 11:31:18 10.4 C 74 %
215 09-12-2019 11:41:18 10.4 C 74 %
216 09-12-2019 11:51:17 10.4 C 74 %
217 09-12-2019 12:01:17 10.4 C 74 %
218 09-12-2019 12:11:17 10.4 C 74 %
219 09-12-2019 12:21:18 10.4 C 74 %
220 09-12-2019 12:31:17 10.4 C 74 %
221 09-12-2019 12:41:17 10.4 C 74 %
222 09-12-2019 12:51:17 10.4 C 74 %
223 09-12-2019 13:01:18 10.4 C 74 %
224 09-12-2019 13:11:18 10.4 C 74 %
225 09-12-2019 13:21:17 10.4 C 74 %
Sensor: Nr:Datum:Temp:Feuchte:
G-T/H 226 09-12-2019 13:31:17 10.4 C 74 %
227 09-12-2019 13:41:17 10.4 C 74 %
228 09-12-2019 13:51:17 10.4 C 74 %
229 09-12-2019 14:01:17 10.4 C 74 %
230 09-12-2019 14:11:17 10.4 C 74 %
231 09-12-2019 14:21:17 10.4 C 74 %
232 09-12-2019 14:31:17 10.5 C 74 %
233 09-12-2019 14:41:17 10.4 C 74 %
234 09-12-2019 14:51:18 10.4 C 74 %
235 09-12-2019 15:01:17 10.5 C 74 %
236 09-12-2019 15:11:17 10.5 C 74 %
237 09-12-2019 15:21:17 10.5 C 74 %
238 09-12-2019 15:31:18 10.5 C 74 %
239 09-12-2019 15:41:18 10.5 C 74 %
240 09-12-2019 15:51:17 10.4 C 74 %
241 09-12-2019 16:01:18 10.5 C 74 %
242 09-12-2019 16:11:18 10.5 C 74 %
243 09-12-2019 16:21:17 10.5 C 74 %
244 09-12-2019 16:31:18 10.5 C 74 %
245 09-12-2019 16:41:18 10.5 C 74 %
246 09-12-2019 16:51:17 10.4 C 74 %
247 09-12-2019 17:01:18 10.4 C 74 %
248 09-12-2019 17:11:18 10.5 C 74 %
249 09-12-2019 17:21:17 10.5 C 74 %
250 09-12-2019 17:31:17 10.5 C 74 %
Sensor: Nr:Datum:Temp:Feuchte:
G-T/H 251 09-12-2019 17:41:17 10.5 C 74 %
252 09-12-2019 17:51:17 10.5 C 74 %
253 09-12-2019 18:01:18 10.5 C 74 %
254 09-12-2019 18:11:18 10.5 C 74 %
255 09-12-2019 18:21:17 10.5 C 74 %
256 09-12-2019 18:31:17 10.5 C 74 %
257 09-12-2019 18:41:17 10.5 C 74 %
258 09-12-2019 18:51:18 10.5 C 74 %
259 09-12-2019 19:01:17 10.5 C 74 %
260 09-12-2019 19:11:17 10.5 C 74 %
261 09-12-2019 19:21:17 10.4 C 74 %
262 09-12-2019 19:31:17 10.5 C 74 %
263 09-12-2019 19:41:17 10.5 C 74 %
264 09-12-2019 19:51:17 10.5 C 74 %
265 09-12-2019 20:01:17 10.5 C 74 %
266 09-12-2019 20:11:17 10.4 C 74 %
267 09-12-2019 20:21:17 10.4 C 74 %
268 09-12-2019 20:31:17 10.4 C 74 %
269 09-12-2019 20:41:17 10.4 C 74 %
270 09-12-2019 20:51:17 10.4 C 74 %
271 09-12-2019 21:01:17 10.4 C 74 %
272 09-12-2019 21:11:18 10.4 C 74 %
273 09-12-2019 21:21:17 10.4 C 74 %
274 09-12-2019 21:31:17 10.4 C 74 %
275 09-12-2019 21:41:17 10.4 C 74 %
Sensor: Nr:Datum:Temp:Feuchte:
G-T/H 276 09-12-2019 21:51:17 10.4 C 74 %
277 09-12-2019 22:01:17 10.4 C 74 %
278 09-12-2019 22:11:17 10.4 C 74 %
279 09-12-2019 22:21:17 10.4 C 74 %
280 09-12-2019 22:31:17 10.3 C 74 %
281 09-12-2019 22:41:17 10.4 C 74 %
282 09-12-2019 22:51:18 10.4 C 74 %
283 09-12-2019 23:01:17 10.3 C 74 %
284 09-12-2019 23:11:17 10.3 C 74 %
285 09-12-2019 23:21:17 10.3 C 74 %
286 09-12-2019 23:31:18 10.2 C 73 %
287 09-12-2019 23:41:18 10.2 C 73 %
288 09-12-2019 23:51:17 10.2 C 73 %
289 10-12-2019 00:01:17 10.2 C 73 %
290 10-12-2019 00:11:17 10.2 C 72 %
291 10-12-2019 00:21:17 10.2 C 72 %
292 10-12-2019 00:31:17 10.1 C 72 %
293 10-12-2019 00:41:17 10.1 C 72 %
294 10-12-2019 00:51:17 10.1 C 72 %
295 10-12-2019 01:01:17 10.1 C 72 %
296 10-12-2019 01:11:17 10.1 C 71 %
297 10-12-2019 01:21:17 10.1 C 71 %
298 10-12-2019 01:31:18 10 C 71 %
299 10-12-2019 01:41:18 10 C 71 %
300 10-12-2019 01:51:17 10 C 71 %
Sensor: Nr:Datum:Temp:Feuchte:
G-T/H 301 10-12-2019 02:01:18 10 C 71 %
302 10-12-2019 02:11:18 9.9 C 72 %
303 10-12-2019 02:21:17 9.9 C 72 %
304 10-12-2019 02:31:17 9.9 C 71 %
305 10-12-2019 02:41:17 9.9 C 71 %
306 10-12-2019 02:51:17 9.9 C 71 %
307 10-12-2019 03:01:17 9.8 C 71 %
308 10-12-2019 03:11:17 9.8 C 71 %
309 10-12-2019 03:21:17 9.8 C 71 %
310 10-12-2019 03:31:17 9.8 C 71 %
311 10-12-2019 03:41:17 9.7 C 71 %
312 10-12-2019 03:51:17 9.8 C 71 %
313 10-12-2019 04:01:17 9.7 C 71 %
314 10-12-2019 04:11:17 9.7 C 71 %
315 10-12-2019 04:21:17 9.7 C 71 %
316 10-12-2019 04:31:18 9.7 C 71 %
317 10-12-2019 04:41:18 9.7 C 71 %
318 10-12-2019 04:51:17 9.7 C 71 %
319 10-12-2019 05:01:17 9.7 C 71 %
320 10-12-2019 05:11:17 9.7 C 71 %
321 10-12-2019 05:21:18 9.7 C 71 %
322 10-12-2019 05:31:18 9.7 C 71 %
323 10-12-2019 05:41:18 9.7 C 71 %
324 10-12-2019 05:51:17 9.7 C 71 %
325 10-12-2019 06:01:17 9.7 C 71 %
Sensor: Nr:Datum:Temp:Feuchte:
G-T/H 326 10-12-2019 06:11:17 9.7 C 71 %
327 10-12-2019 06:21:18 9.6 C 71 %
328 10-12-2019 06:31:17 9.6 C 71 %
329 10-12-2019 06:41:17 9.6 C 71 %
330 10-12-2019 06:51:17 9.6 C 71 %
331 10-12-2019 07:01:18 9.6 C 72 %
332 10-12-2019 07:11:18 9.6 C 72 %
333 10-12-2019 07:21:17 9.6 C 72 %
334 10-12-2019 07:31:17 9.6 C 72 %
335 10-12-2019 07:41:17 9.6 C 72 %
336 10-12-2019 07:51:17 9.6 C 72 %
337 10-12-2019 08:01:17 9.5 C 71 %
338 10-12-2019 08:11:17 9.5 C 71 %
339 10-12-2019 08:21:17 9.5 C 71 %
340 10-12-2019 08:31:18 9.5 C 71 %
341 10-12-2019 08:41:18 9.4 C 71 %
342 10-12-2019 08:51:17 9.4 C 71 %
343 10-12-2019 09:01:17 9.4 C 71 %
344 10-12-2019 09:11:17 9.4 C 71 %
345 10-12-2019 09:21:17 9.4 C 71 %
346 10-12-2019 09:31:17 9.4 C 71 %
347 10-12-2019 09:41:17 9.4 C 71 %
348 10-12-2019 09:51:17 9.4 C 71 %
349 10-12-2019 10:01:17 9.4 C 71 %
350 10-12-2019 10:11:17 9.4 C 71 %
Sensor: Nr:Datum:Temp:Feuchte:
G-T/H 351 10-12-2019 10:21:17 9.3 C 71 %
352 10-12-2019 10:31:17 9.3 C 71 %
353 10-12-2019 10:41:17 9.3 C 71 %
354 10-12-2019 10:51:17 9.3 C 71 %
355 10-12-2019 11:01:17 9.3 C 71 %
356 10-12-2019 11:11:17 9.3 C 71 %
357 10-12-2019 11:21:17 9.3 C 71 %
358 10-12-2019 11:31:18 9.3 C 71 %
359 10-12-2019 11:41:18 9.3 C 71 %
360 10-12-2019 11:51:17 9.2 C 71 %
361 10-12-2019 12:01:17 9.3 C 72 %
362 10-12-2019 12:11:17 9.2 C 72 %
363 10-12-2019 12:21:17 9.3 C 72 %
364 10-12-2019 12:31:17 9.2 C 72 %
365 10-12-2019 12:41:17 9.2 C 72 %
366 10-12-2019 12:51:17 9.2 C 72 %
367 10-12-2019 13:01:17 9.2 C 72 %
368 10-12-2019 13:11:17 9.2 C 72 %
369 10-12-2019 13:21:17 9.2 C 72 %
370 10-12-2019 13:31:17 9.2 C 72 %
371 10-12-2019 13:41:17 9.2 C 72 %
372 10-12-2019 13:51:17 9.2 C 72 %
373 10-12-2019 14:01:17 9.2 C 72 %
374 10-12-2019 14:11:17 9.2 C 72 %
375 10-12-2019 14:21:17 9.2 C 72 %
Sensor: Nr:Datum:Temp:Feuchte:
G-T/H 376 10-12-2019 14:31:18 9.2 C 72 %
377 10-12-2019 14:41:18 9.1 C 72 %
378 10-12-2019 14:51:17 9.1 C 72 %
379 10-12-2019 15:01:17 9.1 C 72 %
380 10-12-2019 15:11:17 9.1 C 72 %
381 10-12-2019 15:21:17 9.1 C 72 %
382 10-12-2019 15:31:17 9.1 C 72 %
383 10-12-2019 15:41:18 9.1 C 72 %
384 10-12-2019 15:51:17 9.1 C 72 %
385 10-12-2019 16:01:17 9.1 C 72 %
386 10-12-2019 16:11:17 9.1 C 72 %
387 10-12-2019 16:21:17 9.1 C 72 %
388 10-12-2019 16:31:17 9.1 C 72 %
389 10-12-2019 16:41:17 9.1 C 72 %
390 10-12-2019 16:51:17 9.1 C 72 %
391 10-12-2019 17:01:17 9.1 C 72 %
392 10-12-2019 17:11:17 9.1 C 72 %
393 10-12-2019 17:21:18 9.1 C 72 %
394 10-12-2019 17:31:17 9 C 72 %
395 10-12-2019 17:41:17 9 C 71 %
396 10-12-2019 17:51:17 9 C 71 %
397 10-12-2019 18:01:17 9 C 71 %
398 10-12-2019 18:11:17 9 C 71 %
399 10-12-2019 18:21:17 9 C 71 %
400 10-12-2019 18:31:17 8.9 C 72 %
Sensor: Nr:Datum:Temp:Feuchte:
G-T/H 401 10-12-2019 18:41:17 9 C 71 %
402 10-12-2019 18:51:17 8.9 C 72 %
403 10-12-2019 19:01:17 8.9 C 72 %
404 10-12-2019 19:11:17 8.9 C 72 %
405 10-12-2019 19:21:17 8.9 C 72 %
406 10-12-2019 19:31:17 9 C 71 %
407 10-12-2019 19:41:18 8.9 C 72 %
408 10-12-2019 19:51:17 8.9 C 72 %
409 10-12-2019 20:01:17 8.9 C 72 %
410 10-12-2019 20:11:17 8.9 C 72 %
411 10-12-2019 20:21:17 8.9 C 72 %
412 10-12-2019 20:31:18 8.9 C 72 %
413 10-12-2019 20:41:18 8.9 C 72 %
414 10-12-2019 20:51:17 8.9 C 72 %
415 10-12-2019 21:01:17 8.9 C 72 %
416 10-12-2019 21:11:17 8.9 C 72 %
417 10-12-2019 21:21:17 8.9 C 72 %
418 10-12-2019 21:31:17 8.9 C 72 %
419 10-12-2019 21:41:18 8.9 C 72 %
420 10-12-2019 21:51:17 8.9 C 72 %
421 10-12-2019 22:01:17 8.8 C 72 %
422 10-12-2019 22:11:17 8.8 C 72 %
423 10-12-2019 22:21:17 8.9 C 72 %
424 10-12-2019 22:31:17 8.8 C 72 %
425 10-12-2019 22:41:17 8.8 C 72 %
Sensor: Nr:Datum:Temp:Feuchte:
G-T/H 426 10-12-2019 22:51:18 8.8 C 72 %
427 10-12-2019 23:01:17 8.8 C 72 %
428 10-12-2019 23:11:17 8.8 C 72 %
429 10-12-2019 23:21:17 8.8 C 73 %
430 10-12-2019 23:31:17 8.8 C 73 %
431 10-12-2019 23:41:17 8.8 C 73 %
432 10-12-2019 23:51:17 8.8 C 73 %
433 11-12-2019 00:01:18 8.8 C 73 %
434 11-12-2019 00:11:18 8.8 C 73 %
435 11-12-2019 00:21:17 8.8 C 73 %
436 11-12-2019 00:31:17 8.8 C 73 %
437 11-12-2019 00:41:17 8.8 C 73 %
438 11-12-2019 00:51:17 8.8 C 73 %
439 11-12-2019 01:01:17 8.8 C 73 %
440 11-12-2019 01:11:17 8.8 C 73 %
441 11-12-2019 01:21:18 8.8 C 73 %
442 11-12-2019 01:31:17 8.8 C 73 %
443 11-12-2019 01:41:17 8.8 C 73 %
444 11-12-2019 01:51:17 8.8 C 73 %
445 11-12-2019 02:01:17 8.8 C 73 %
446 11-12-2019 02:11:17 8.8 C 73 %
447 11-12-2019 02:21:17 8.8 C 73 %
448 11-12-2019 02:31:18 8.8 C 73 %
449 11-12-2019 02:41:18 8.8 C 73 %
450 11-12-2019 02:51:17 8.8 C 73 %
Sensor: Nr:Datum:Temp:Feuchte:
G-T/H 451 11-12-2019 03:01:18 8.8 C 73 %
452 11-12-2019 03:11:18 8.8 C 73 %
453 11-12-2019 03:21:17 8.8 C 73 %
454 11-12-2019 03:31:17 8.8 C 73 %
455 11-12-2019 03:41:17 8.7 C 73 %
456 11-12-2019 03:51:17 8.8 C 73 %
457 11-12-2019 04:01:17 8.7 C 73 %
458 11-12-2019 04:11:17 8.7 C 73 %
459 11-12-2019 04:21:17 8.8 C 73 %
460 11-12-2019 04:31:18 8.7 C 73 %
461 11-12-2019 04:41:18 8.8 C 73 %
462 11-12-2019 04:51:17 8.8 C 73 %
463 11-12-2019 05:01:17 8.8 C 73 %
464 11-12-2019 05:11:17 8.7 C 73 %
465 11-12-2019 05:21:18 8.8 C 73 %
466 11-12-2019 05:31:17 8.8 C 73 %
467 11-12-2019 05:41:17 8.7 C 73 %
468 11-12-2019 05:51:17 8.7 C 73 %
469 11-12-2019 06:01:18 8.8 C 73 %
470 11-12-2019 06:11:18 8.7 C 73 %
471 11-12-2019 06:21:17 8.7 C 73 %
472 11-12-2019 06:31:17 8.7 C 73 %
473 11-12-2019 06:41:17 8.7 C 73 %
474 11-12-2019 06:51:17 8.7 C 73 %
475 11-12-2019 07:01:17 8.7 C 73 %
Sensor: Nr:Datum:Temp:Feuchte:
G-T/H 476 11-12-2019 07:11:17 8.7 C 73 %
477 11-12-2019 07:21:17 8.7 C 73 %
478 11-12-2019 07:31:17 8.7 C 73 %
479 11-12-2019 07:41:18 8.7 C 73 %
480 11-12-2019 07:51:17 8.7 C 73 %
481 11-12-2019 08:01:17 8.7 C 73 %
482 11-12-2019 08:11:17 8.7 C 73 %
483 11-12-2019 08:21:17 8.7 C 73 %
484 11-12-2019 08:31:18 8.7 C 73 %
485 11-12-2019 08:41:18 8.7 C 73 %
486 11-12-2019 08:51:17 8.7 C 73 %
487 11-12-2019 09:01:18 8.7 C 73 %
488 11-12-2019 09:11:18 8.7 C 73 %
489 11-12-2019 09:21:17 8.7 C 73 %
490 11-12-2019 09:31:17 8.8 C 73 %
491 11-12-2019 09:41:17 8.8 C 73 %
492 11-12-2019 09:51:17 8.7 C 73 %
493 11-12-2019 10:01:17 8.8 C 73 %
494 11-12-2019 10:11:17 8.7 C 73 %
495 11-12-2019 10:21:17 8.7 C 73 %
496 11-12-2019 10:31:17 8.7 C 73 %
497 11-12-2019 10:41:17 8.8 C 73 %
498 11-12-2019 10:51:17 8.7 C 73 %
499 11-12-2019 11:01:17 8.7 C 73 %
500 11-12-2019 11:11:17 8.7 C